Provisional Data: Ninemile Run near Walton, PA


Please select a monitoring station.
Please select start date.
Please select start date.

Toggle Unit: C/F Toggle Unit: C/F
Sample Time Temperature (C) Temperature (F) Specific Conductivity (mS/cm) pH   Turbidity (NTU+) DO (mg/L)
9/6/2021 12:00:00 AM 13.15 55.67 0.056 7.38 2.77 9.32
9/6/2021 12:15:00 AM 13.11 55.598 0.056 7.39 3.35 9.33
9/6/2021 12:30:00 AM 13.08 55.544 0.056 7.39 2.8 9.34
9/6/2021 12:45:00 AM 13.04 55.472 0.056 7.39 2.94 9.35
9/6/2021 1:00:00 AM 13.01 55.418 0.056 7.4 3.03 9.36
9/6/2021 1:15:00 AM 12.97 55.346 0.056 7.39 2.96 9.36
9/6/2021 1:30:00 AM 12.93 55.274 0.056 7.4 2.69 9.37
9/6/2021 1:45:00 AM 12.89 55.202 0.056 7.4 2.77 9.39
9/6/2021 2:00:00 AM 12.86 55.148 0.056 7.4 2.73 9.39
9/6/2021 2:15:00 AM 12.82 55.076 0.056 7.39 3.01 9.4
9/6/2021 2:30:00 AM 12.78 55.004 0.056 7.4 2.79 9.41
9/6/2021 2:45:00 AM 12.73 54.914 0.056 7.39 2.7 9.42
9/6/2021 3:00:00 AM 12.69 54.842 0.056 7.39 2.77 9.42
9/6/2021 3:15:00 AM 12.64 54.752 0.056 7.38 2.77 9.43
9/6/2021 3:30:00 AM 12.59 54.662 0.056 7.38 3.03 9.44
9/6/2021 3:45:00 AM 12.54 54.572 0.056 7.37 2.94 9.45
9/6/2021 4:00:00 AM 12.49 54.482 0.056 7.37 2.83 9.46
9/6/2021 4:15:00 AM 12.44 54.392 0.056 7.37 2.84 9.48
9/6/2021 4:30:00 AM 12.4 54.32 0.056 7.36 2.67 9.49
9/6/2021 4:45:00 AM 12.36 54.248 0.056 7.37 2.84 9.5
9/6/2021 5:00:00 AM 12.32 54.176 0.056 7.37 3.34 9.5
9/6/2021 5:15:00 AM 12.28 54.104 0.056 7.37 3 9.51
9/6/2021 5:30:00 AM 12.24 54.032 0.056 7.37 3.15 9.52
9/6/2021 5:45:00 AM 12.19 53.942 0.056 7.36 2.8 9.54
9/6/2021 6:00:00 AM 12.14 53.852 0.056 7.36 2.78 9.55
9/6/2021 6:15:00 AM 12.08 53.744 0.056 7.35 2.88 9.56
9/6/2021 6:30:00 AM 12.01 53.618 0.056 7.35 2.86 9.58
9/6/2021 6:45:00 AM 11.94 53.492 0.056 7.34 3.27 9.6
9/6/2021 7:00:00 AM 11.88 53.384 0.056 7.35 2.61 9.62
9/6/2021 7:15:00 AM 11.81 53.258 0.056 7.35 2.79 9.66
9/6/2021 7:30:00 AM 11.75 53.15 0.056 7.35 2.6 9.71
9/6/2021 7:45:00 AM 11.73 53.114 0.056 7.37 10.18 9.77
9/6/2021 8:00:00 AM 11.71 53.078 0.056 7.38 2.63 9.81
9/6/2021 8:15:00 AM 11.7 53.06 0.056 7.39 2.49 9.81
9/6/2021 8:30:00 AM 11.7 53.06 0.056 7.39 2.43 9.84
9/6/2021 8:45:00 AM 11.69 53.042 0.056 7.4 2.58 9.86
9/6/2021 9:00:00 AM 11.7 53.06 0.056 7.42 2.82 9.91
9/6/2021 9:15:00 AM 11.74 53.132 0.056 7.44 2.35 9.95
9/6/2021 9:30:00 AM 11.85 53.33 0.055 7.46 2.39 9.98
9/6/2021 9:45:00 AM 11.95 53.51 0.055 7.49 2.44 10
9/6/2021 10:00:00 AM 12.11 53.798 0.055 7.52 2.49 9.99
9/6/2021 10:15:00 AM 12.26 54.068 0.055 7.54 2.4 10
9/6/2021 10:30:00 AM 12.43 54.374 0.055 7.56 2.58 9.98
9/6/2021 10:45:00 AM 12.58 54.644 0.055 7.58 2.26 9.96
9/6/2021 11:00:00 AM 12.71 54.878 0.055 7.59 2.39 9.95
9/6/2021 11:15:00 AM 12.86 55.148 0.055 7.61 2.42 9.95
9/6/2021 11:30:00 AM 12.99 55.382 0.055 7.62 2.36 9.93
9/6/2021 11:45:00 AM 13.12 55.616 0.055 7.64 2.37 9.92
9/6/2021 12:00:00 PM 13.11 55.598 0.055 7.62 2.42 9.88
9/6/2021 12:15:00 PM 13.14 55.652 0.054 7.62 2.36 9.87
9/6/2021 12:30:00 PM 13.21 55.778 0.054 7.64 2.52 9.87
9/6/2021 12:45:00 PM 13.24 55.832 0.054 7.62 2.54 9.83
9/6/2021 1:00:00 PM 13.29 55.922 0.054 7.62 2.4 9.79
9/6/2021 1:15:00 PM 13.53 56.354 0.054 7.68 2.55 9.83
9/6/2021 1:30:00 PM 13.68 56.624 0.054 7.69 2.29 9.8
9/6/2021 1:45:00 PM 13.88 56.984 0.054 7.71 2.23 9.77
9/6/2021 2:00:00 PM 14.13 57.434 0.054 7.73 2.36 9.72
9/6/2021 2:15:00 PM 14.26 57.668 0.054 7.71 2.5 9.68
9/6/2021 2:30:00 PM 14.42 57.956 0.054 7.73 2.52 9.66
9/6/2021 2:45:00 PM 14.55 58.19 0.054 7.72 2.38 9.62
9/6/2021 3:00:00 PM 14.58 58.244 0.054 7.7 2.53 9.58
9/6/2021 3:15:00 PM 14.7 58.46 0.054 7.72 2.32 9.56
9/6/2021 3:30:00 PM 14.74 58.532 0.054 7.71 2.42 9.53
9/6/2021 3:45:00 PM 14.75 58.55 0.054 7.7 2.38 9.5
9/6/2021 4:00:00 PM 14.87 58.766 0.054 7.73 2.34 9.49
9/6/2021 4:15:00 PM 14.97 58.946 0.054 7.72 2.44 9.46
9/6/2021 4:30:00 PM 15.04 59.072 0.054 7.72 2.28 9.44
9/6/2021 4:45:00 PM 15.09 59.162 0.054 7.71 2.33 9.42
9/6/2021 5:00:00 PM 15.08 59.144 0.054 7.7 2.28 9.4
9/6/2021 5:15:00 PM 14.99 58.982 0.054 7.67 2.59 9.37
9/6/2021 5:30:00 PM 14.9 58.82 0.054 7.65 2.36 9.36
9/6/2021 5:45:00 PM 14.82 58.676 0.054 7.64 2.33 9.34
9/6/2021 6:00:00 PM 14.75 58.55 0.054 7.62 2.44 9.33
9/6/2021 6:15:00 PM 14.68 58.424 0.054 7.61 2.42 9.3
9/6/2021 6:30:00 PM 14.6 58.28 0.054 7.59 2.47 9.28
9/6/2021 6:45:00 PM 14.5 58.1 0.054 7.57 2.43 9.26
9/6/2021 7:00:00 PM 14.39 57.902 0.054 7.55 2.58 9.24
9/6/2021 7:15:00 PM 14.28 57.704 0.055 7.53 2.57 9.23
9/6/2021 7:30:00 PM 14.17 57.506 0.055 7.51 2.7 9.21
9/6/2021 7:45:00 PM 14.06 57.308 0.055 7.49 3.38 9.2
9/6/2021 8:00:00 PM 13.95 57.11 0.055 7.46 3.08 9.19
9/6/2021 8:15:00 PM 13.84 56.912 0.055 7.45 2.86 9.18
9/6/2021 8:30:00 PM 13.73 56.714 0.055 7.44 2.82 9.19
9/6/2021 8:45:00 PM 13.63 56.534 0.055 7.44 3.2 9.21
9/6/2021 9:00:00 PM 13.53 56.354 0.055 7.43 2.76 9.24
9/6/2021 9:15:00 PM 13.43 56.174 0.055 7.42 2.97 9.26
9/6/2021 9:30:00 PM 13.33 55.994 0.055 7.42 2.8 9.27
9/6/2021 9:45:00 PM 13.24 55.832 0.056 7.41 2.84 9.29
9/6/2021 10:00:00 PM 13.15 55.67 0.056 7.41 2.95 9.31
9/6/2021 10:15:00 PM 13.07 55.526 0.056 7.41 3.07 9.34
9/6/2021 10:30:00 PM 12.98 55.364 0.056 7.4 3.16 9.36
9/6/2021 10:45:00 PM 12.89 55.202 0.056 7.4 2.94 9.37
9/6/2021 11:00:00 PM 12.81 55.058 0.056 7.4 2.64 9.4
9/6/2021 11:15:00 PM 12.73 54.914 0.056 7.4 2.65 9.42
9/6/2021 11:30:00 PM 12.66 54.788 0.056 7.39 2.62 9.43
9/6/2021 11:45:00 PM 12.58 54.644 0.056 7.39 2.83 9.45
9/7/2021 12:00:00 AM 12.51 54.518 0.056 7.39 2.84 9.46
9/7/2021 12:15:00 AM 12.44 54.392 0.056 7.39 3.07 9.48
9/7/2021 12:30:00 AM 12.38 54.284 0.056 7.39 3.14 9.5
9/7/2021 12:45:00 AM 12.3 54.14 0.056 7.38 2.76 9.52
9/7/2021 1:00:00 AM 12.23 54.014 0.056 7.38 2.59 9.53
9/7/2021 1:15:00 AM 12.16 53.888 0.056 7.38 2.93 9.55
9/7/2021 1:30:00 AM 12.09 53.762 0.056 7.37 2.77 9.57
9/7/2021 1:45:00 AM 12.02 53.636 0.056 7.38 2.94 9.59
9/7/2021 2:00:00 AM 11.95 53.51 0.056 7.37 2.91 9.61
9/7/2021 2:15:00 AM 11.88 53.384 0.056 7.37 2.88 9.62
9/7/2021 2:30:00 AM 11.81 53.258 0.056 7.37 2.68 9.64
9/7/2021 2:45:00 AM 11.74 53.132 0.056 7.37 2.74 9.66
9/7/2021 3:00:00 AM 11.68 53.024 0.056 7.36 3.06 9.68
9/7/2021 3:15:00 AM 11.62 52.916 0.056 7.37 2.72 9.69
9/7/2021 3:30:00 AM 11.56 52.808 0.056 7.36 2.69 9.7
9/7/2021 3:45:00 AM 11.49 52.682 0.056 7.36 2.72 9.72
9/7/2021 4:00:00 AM 11.43 52.574 0.056 7.35 2.83 9.74
9/7/2021 4:15:00 AM 11.37 52.466 0.056 7.35 2.87 9.75
9/7/2021 4:30:00 AM 11.33 52.394 0.056 7.35 3.07 9.77
9/7/2021 4:45:00 AM 11.29 52.322 0.056 7.36 2.96 9.78
9/7/2021 5:00:00 AM 11.26 52.268 0.056 7.36 2.57 9.79
9/7/2021 5:15:00 AM 11.23 52.214 0.056 7.35 2.78 9.8
9/7/2021 5:30:00 AM 11.19 52.142 0.055 7.36 2.62 9.81
9/7/2021 5:45:00 AM 11.16 52.088 0.056 7.36 2.44 9.82
9/7/2021 6:00:00 AM 11.11 51.998 0.055 7.36 2.45 9.83
9/7/2021 6:15:00 AM 11.07 51.926 0.056 7.36 2.53 9.84
9/7/2021 6:30:00 AM 11.03 51.854 0.055 7.36 2.55 9.86
9/7/2021 6:45:00 AM 11 51.8 0.055 7.36 2.48 9.87
9/7/2021 7:00:00 AM 10.97 51.746 0.055 7.36 2.54 9.89
9/7/2021 7:15:00 AM 10.94 51.692 0.055 7.37 2.89 9.91
9/7/2021 7:30:00 AM 10.92 51.656 0.055 7.38 2.48 9.96
9/7/2021 7:45:00 AM 10.9 51.62 0.055 7.38 2.51 10
9/7/2021 8:00:00 AM 10.89 51.602 0.055 7.39 2.36 10.03
9/7/2021 8:15:00 AM 10.89 51.602 0.055 7.41 2.5 10.1
9/7/2021 8:30:00 AM 10.89 51.602 0.055 7.43 2.31 10.15
9/7/2021 8:45:00 AM 10.91 51.638 0.055 7.45 2.36 10.21
9/7/2021 9:00:00 AM 10.97 51.746 0.055 7.48 2.27 10.24
9/7/2021 9:15:00 AM 11.03 51.854 0.055 7.49 2.36 10.26
9/7/2021 9:30:00 AM 11.13 52.034 0.055 7.5 10.95 10.26
9/7/2021 9:45:00 AM 11.23 52.214 0.055 7.52 2.95 10.25
9/7/2021 10:00:00 AM 11.36 52.448 0.055 7.53 11.35 10.24
9/7/2021 10:15:00 AM 11.5 52.7 0.054 7.55 2.39 10.23
9/7/2021 10:30:00 AM 11.66 52.988 0.054 7.56 2.48 10.21
9/7/2021 10:45:00 AM 11.81 53.258 0.055 7.58 2.3 10.2
9/7/2021 11:00:00 AM 11.99 53.582 0.054 7.59 2.35 10.17
9/7/2021 11:15:00 AM 12.17 53.906 0.054 7.61 2.38 10.14
9/7/2021 11:30:00 AM 12.37 54.266 0.054 7.63 2.22 10.11
9/7/2021 11:45:00 AM 12.57 54.626 0.054 7.65 2.29 10.08
9/7/2021 12:00:00 PM 12.76 54.968 0.054 7.65 2.29 10.04
9/7/2021 12:15:00 PM 12.94 55.292 0.054 7.66 2.45 10.01
9/7/2021 12:30:00 PM 13.14 55.652 0.054 7.67 2.37 9.97
9/7/2021 12:45:00 PM 13.33 55.994 0.054 7.68 2.43 9.93
9/7/2021 1:00:00 PM 13.51 56.318 0.054 7.69 2.36 9.89
9/7/2021 1:15:00 PM 13.7 56.66 0.054 7.71 2.63 9.84
9/7/2021 1:30:00 PM 13.89 57.002 0.054 7.71 2.28 9.8
9/7/2021 1:45:00 PM 14.05 57.29 0.054 7.72 2.35 9.76
9/7/2021 2:00:00 PM 14.18 57.524 0.054 7.72 2.34 9.72
9/7/2021 2:15:00 PM 14.37 57.866 0.054 7.73 2.44 9.69
9/7/2021 2:30:00 PM 14.54 58.172 0.054 7.74 2.21 9.65
9/7/2021 2:45:00 PM 14.72 58.496 0.054 7.75 2.35 9.61
9/7/2021 3:00:00 PM 14.9 58.82 0.054 7.77 2.32 9.59
9/7/2021 3:15:00 PM 15.02 59.036 0.054 7.76 2.36 9.54
9/7/2021 3:30:00 PM 15.13 59.234 0.054 7.77 2.49 9.52
9/7/2021 3:45:00 PM 15.25 59.45 0.054 7.76 2.32 9.48
9/7/2021 4:00:00 PM 15.29 59.522 0.054 7.75 2.32 9.44
9/7/2021 4:15:00 PM 15.37 59.666 0.054 7.75 2.3 9.41
9/7/2021 4:30:00 PM 15.4 59.72 0.054 7.74 2.32 9.37
9/7/2021 4:45:00 PM 15.43 59.774 0.054 7.73 2.31 9.34
9/7/2021 5:00:00 PM 15.44 59.792 0.054 7.73 2.46 9.32
9/7/2021 5:15:00 PM 15.41 59.738 0.054 7.71 2.64 9.3
9/7/2021 5:30:00 PM 15.33 59.594 0.054 7.69 2.29 9.28
9/7/2021 5:45:00 PM 15.26 59.468 0.054 7.67 2.54 9.26
9/7/2021 6:00:00 PM 15.15 59.27 0.054 7.65 2.26 9.24
9/7/2021 6:15:00 PM 15.05 59.09 0.054 7.62 5.45 9.22
9/7/2021 6:30:00 PM 14.95 58.91 0.054 7.6 2.44 9.2
9/7/2021 6:45:00 PM 14.83 58.694 0.054 7.57 7.48 9.18
9/7/2021 7:00:00 PM 14.71 58.478 0.055 7.56 2.5 9.17
9/7/2021 7:15:00 PM 14.6 58.28 0.055 7.53 2.89 9.16
9/7/2021 7:30:00 PM 14.49 58.082 0.055 7.51 2.64 9.14
9/7/2021 7:45:00 PM 14.39 57.902 0.055 7.49 2.91 9.12
9/7/2021 8:00:00 PM 14.3 57.74 0.055 7.48 2.68 9.11
9/7/2021 8:15:00 PM 14.2 57.56 0.055 7.47 2.66 9.11
9/7/2021 8:30:00 PM 14.11 57.398 0.055 7.46 2.89 9.12
9/7/2021 8:45:00 PM 14.03 57.254 0.055 7.45 2.81 9.13
9/7/2021 9:00:00 PM 13.95 57.11 0.055 7.44 2.79 9.14
9/7/2021 9:15:00 PM 13.88 56.984 0.055 7.44 3.09 9.15
9/7/2021 9:30:00 PM 13.81 56.858 0.055 7.44 2.89 9.15
9/7/2021 9:45:00 PM 13.74 56.732 0.056 7.44 3.07 9.18
9/7/2021 10:00:00 PM 13.69 56.642 0.056 7.43 3.04 9.19
9/7/2021 10:15:00 PM 13.65 56.57 0.056 7.44 2.76 9.2
9/7/2021 10:30:00 PM 13.61 56.498 0.056 7.43 2.65 9.2
9/7/2021 10:45:00 PM 13.55 56.39 0.056 7.43 3.12 9.21
9/7/2021 11:00:00 PM 13.52 56.336 0.056 7.42 3.38 9.21
9/7/2021 11:15:00 PM 13.46 56.228 0.056 7.42 3.88 9.23
9/7/2021 11:30:00 PM 13.41 56.138 0.056 7.42 3.41 9.24
9/7/2021 11:45:00 PM 13.36 56.048 0.056 7.42 2.99 9.25
9/8/2021 12:00:00 AM 13.31 55.958 0.056 7.42 2.69 9.26
9/8/2021 12:15:00 AM 13.27 55.886 0.056 7.41 2.74 9.27
9/8/2021 12:30:00 AM 13.23 55.814 0.056 7.41 2.72 9.27
9/8/2021 12:45:00 AM 13.18 55.724 0.056 7.41 2.65 9.29
9/8/2021 1:00:00 AM 13.15 55.67 0.056 7.41 2.57 9.3
9/8/2021 1:15:00 AM 13.11 55.598 0.056 7.41 2.49 9.3
9/8/2021 1:30:00 AM 13.07 55.526 0.056 7.41 3.28 9.31
9/8/2021 1:45:00 AM 13.03 55.454 0.056 7.4 3.43 9.32
9/8/2021 2:00:00 AM 12.99 55.382 0.056 7.4 3.39 9.33
9/8/2021 2:15:00 AM 12.94 55.292 0.056 7.39 2.8 9.34
9/8/2021 2:30:00 AM 12.89 55.202 0.056 7.39 3.04 9.35
9/8/2021 2:45:00 AM 12.84 55.112 0.056 7.39 2.86 9.36
9/8/2021 3:00:00 AM 12.8 55.04 0.056 7.39 2.79 9.37
9/8/2021 3:15:00 AM 12.75 54.95 0.056 7.38 2.88 9.37
9/8/2021 3:30:00 AM 12.7 54.86 0.056 7.38 2.75 9.39
9/8/2021 3:45:00 AM 12.65 54.77 0.056 7.37 2.72 9.39
9/8/2021 4:00:00 AM 12.6 54.68 0.056 7.37 3.09 9.41
9/8/2021 4:15:00 AM 12.56 54.608 0.056 7.37 3.24 9.41
9/8/2021 4:30:00 AM 12.52 54.536 0.056 7.37 3.31 9.42
9/8/2021 4:45:00 AM 12.48 54.464 0.056 7.37 3.01 9.43
9/8/2021 5:00:00 AM 12.44 54.392 0.056 7.36 4.16 9.44
9/8/2021 5:15:00 AM 12.4 54.32 0.056 7.36 3.57 9.44
9/8/2021 5:30:00 AM 12.36 54.248 0.056 7.36 3.89 9.45
9/8/2021 5:45:00 AM 12.32 54.176 0.056 7.36 3.55 9.46
9/8/2021 6:00:00 AM 12.29 54.122 0.056 7.36 3.01 9.48
9/8/2021 6:15:00 AM 12.25 54.05 0.056 7.36 2.85 9.48
9/8/2021 6:30:00 AM 12.23 54.014 0.056 7.36 2.8 9.49
9/8/2021 6:45:00 AM 12.21 53.978 0.056 7.36 2.65 9.5
9/8/2021 7:00:00 AM 12.19 53.942 0.056 7.36 2.75 9.52
9/8/2021 7:15:00 AM 12.19 53.942 0.056 7.37 2.77 9.53
9/8/2021 7:30:00 AM 12.19 53.942 0.056 7.38 2.6 9.56
9/8/2021 7:45:00 AM 12.18 53.924 0.056 7.38 2.61 9.59
9/8/2021 8:00:00 AM 12.18 53.924 0.056 7.39 2.53 9.61
9/8/2021 8:15:00 AM 12.2 53.96 0.055 7.42 2.41 9.68
9/8/2021 8:30:00 AM 12.25 54.05 0.055 7.45 2.59 9.75
9/8/2021 8:45:00 AM 12.29 54.122 0.055 7.46 2.53 9.79
9/8/2021 9:00:00 AM 12.38 54.284 0.055 7.49 2.48 9.83
9/8/2021 9:15:00 AM 12.49 54.482 0.055 7.53 2.33 9.87
9/8/2021 9:30:00 AM 12.56 54.608 0.055 7.54 2.36 9.87
9/8/2021 9:45:00 AM 12.65 54.77 0.055 7.57 2.62 9.87
9/8/2021 10:00:00 AM 12.76 54.968 0.055 7.6 2.68 9.9
9/8/2021 10:15:00 AM 13 55.4 0.055 7.65 2.37 9.92
9/8/2021 10:30:00 AM 13.2 55.76 0.055 7.68 2.64 9.92
9/8/2021 10:45:00 AM 13.24 55.832 0.054 7.66 2.37 9.87
9/8/2021 11:00:00 AM 13.35 56.03 0.054 7.67 2.35 9.82
9/8/2021 11:15:00 AM 13.51 56.318 0.054 7.7 2.55 9.83
9/8/2021 11:30:00 AM 13.59 56.462 0.054 7.71 2.46 9.83
9/8/2021 11:45:00 AM 13.64 56.552 0.054 7.71 2.66 9.78
9/8/2021 12:00:00 PM 13.78 56.804 0.054 7.74 2.47 9.78
9/8/2021 12:15:00 PM 13.86 56.948 0.054 7.72 2.33 9.73
9/8/2021 12:30:00 PM 13.93 57.074 0.054 7.73 2.37 9.71
9/8/2021 12:45:00 PM 13.97 57.146 0.054 7.72 2.34 9.66
9/8/2021 1:00:00 PM 13.96 57.128 0.054 7.68 2.4 9.56
9/8/2021 1:15:00 PM 13.96 57.128 0.054 7.63 2.52 9.48
9/8/2021 1:30:00 PM 13.93 57.074 0.054 7.6 2.48 9.42
9/8/2021 1:45:00 PM 13.9 57.02 0.054 7.58 2.7 9.4
9/8/2021 2:00:00 PM 13.9 57.02 0.054 7.58 2.57 9.41
9/8/2021 2:15:00 PM 13.94 57.092 0.054 7.6 2.51 9.46
9/8/2021 2:30:00 PM 13.98 57.164 0.054 7.62 2.5 9.5
9/8/2021 2:45:00 PM 14.03 57.254 0.054 7.64 3.11 9.51
9/8/2021 3:00:00 PM 14.05 57.29 0.054 7.63 3.19 9.47
9/8/2021 3:15:00 PM 14.08 57.344 0.054 7.63 2.61 9.46
9/8/2021 3:30:00 PM 14.08 57.344 0.054 7.63 3.14 9.47
9/8/2021 3:45:00 PM 14.07 57.326 0.054 7.61 2.51 9.44
9/8/2021 4:00:00 PM 14.11 57.398 0.054 7.64 2.48 9.5
9/8/2021 4:15:00 PM 14.14 57.452 0.054 7.65 2.54 9.52
9/8/2021 4:30:00 PM 14.16 57.488 0.054 7.65 2.59 9.5
9/8/2021 4:45:00 PM 14.18 57.524 0.054 7.65 2.87 9.49
9/8/2021 5:00:00 PM 14.18 57.524 0.054 7.63 2.39 9.43
9/8/2021 5:15:00 PM 14.18 57.524 0.054 7.62 2.42 9.43
9/8/2021 5:30:00 PM 14.19 57.542 0.054 7.62 2.74 9.43
9/8/2021 5:45:00 PM 14.24 57.632 0.054 7.64 2.5 9.48
9/8/2021 6:00:00 PM 14.24 57.632 0.054 7.64 2.48 9.44
9/8/2021 6:15:00 PM 14.21 57.578 0.055 7.6 2.63 9.35
9/8/2021 6:30:00 PM 14.19 57.542 0.055 7.58 2.84 9.34
9/8/2021 6:45:00 PM 14.15 57.47 0.055 7.58 2.59 9.33
9/8/2021 7:00:00 PM 14.11 57.398 0.055 7.55 3.04 9.29
9/8/2021 7:15:00 PM 14.07 57.326 0.055 7.53 2.59 9.25
9/8/2021 7:30:00 PM 14.03 57.254 0.055 7.51 2.82 9.21
9/8/2021 7:45:00 PM 13.99 57.182 0.056 7.49 2.97 9.18
9/8/2021 8:00:00 PM 13.95 57.11 0.056 7.47 2.66 9.15
9/8/2021 8:15:00 PM 13.9 57.02 0.056 7.44 3.03 9.15
9/8/2021 8:30:00 PM 13.85 56.93 0.056 7.44 2.9 9.14
9/8/2021 8:45:00 PM 13.8 56.84 0.056 7.44 2.9 9.14
9/8/2021 9:00:00 PM 13.74 56.732 0.056 7.43 3.38 9.15
9/8/2021 9:15:00 PM 13.69 56.642 0.056 7.42 2.81 9.15
9/8/2021 9:30:00 PM 13.63 56.534 0.056 7.43 3.02 9.17
9/8/2021 9:45:00 PM 13.58 56.444 0.056 7.44 2.92 9.18
9/8/2021 10:00:00 PM 13.53 56.354 0.057 7.43 3.33 9.18
9/8/2021 10:15:00 PM 13.47 56.246 0.056 7.44 3.32 9.2
9/8/2021 10:30:00 PM 13.42 56.156 0.056 7.44 3.07 9.21
9/8/2021 10:45:00 PM 13.36 56.048 0.056 7.43 3.22 9.22
9/8/2021 11:00:00 PM 13.31 55.958 0.056 7.44 4.36 9.23
9/8/2021 11:15:00 PM 13.26 55.868 0.056 7.43 3.07 9.24
9/8/2021 11:30:00 PM 13.2 55.76 0.056 7.43 3.04 9.26
9/8/2021 11:45:00 PM 13.15 55.67 0.056 7.43 3.59 9.27
9/9/2021 12:00:00 AM 13.09 55.562 0.056 7.42 3.58 9.28
9/9/2021 12:15:00 AM 13.03 55.454 0.056 7.42 3.22 9.3
9/9/2021 12:30:00 AM 12.98 55.364 0.056 7.42 3.29 9.31
9/9/2021 12:45:00 AM 12.94 55.292 0.056 7.42 3.37 9.32
9/9/2021 1:00:00 AM 12.9 55.22 0.056 7.42 2.71 9.34
9/9/2021 1:15:00 AM 12.85 55.13 0.056 7.42 2.84 9.35
9/9/2021 1:30:00 AM 12.81 55.058 0.057 7.42 2.93 9.36
9/9/2021 1:45:00 AM 12.77 54.986 0.057 7.42 2.59 9.37
9/9/2021 2:00:00 AM 12.73 54.914 0.057 7.42 2.7 9.38
9/9/2021 2:15:00 AM 12.68 54.824 0.057 7.43 2.7 9.39
9/9/2021 2:30:00 AM 12.65 54.77 0.057 7.43 3.06 9.4
9/9/2021 2:45:00 AM 12.62 54.716 0.057 7.43 2.65 9.41
9/9/2021 3:00:00 AM 12.59 54.662 0.057 7.43 2.73 9.42
9/9/2021 3:15:00 AM 12.55 54.59 0.057 7.42 2.62 9.43
9/9/2021 3:30:00 AM 12.53 54.554 0.057 7.43 3.07 9.44
9/9/2021 3:45:00 AM 12.5 54.5 0.057 7.43 3.08 9.44
9/9/2021 4:00:00 AM 12.47 54.446 0.057 7.43 2.66 9.45
9/9/2021 4:15:00 AM 12.44 54.392 0.056 7.43 2.86 9.45
9/9/2021 4:30:00 AM 12.41 54.338 0.057 7.42 2.77 9.47
9/9/2021 4:45:00 AM 12.38 54.284 0.057 7.42 3 9.48
9/9/2021 5:00:00 AM 12.35 54.23 0.056 7.42 3.32 9.49
9/9/2021 5:15:00 AM 12.3 54.14 0.057 7.42 3.54 9.49
9/9/2021 5:30:00 AM 12.26 54.068 0.056 7.41 3.21 9.5
9/9/2021 5:45:00 AM 12.23 54.014 0.057 7.41 3.08 9.51
9/9/2021 6:00:00 AM 12.2 53.96 0.056 7.41 3.02 9.51
9/9/2021 6:15:00 AM 12.18 53.924 0.056 7.41 3.45 9.51
9/9/2021 6:30:00 AM 12.16 53.888 0.056 7.41 3.53 9.52
9/9/2021 6:45:00 AM 12.14 53.852 0.056 7.41 3.11 9.52
9/9/2021 7:00:00 AM 12.13 53.834 0.056 7.41 3.56 9.54
9/9/2021 7:15:00 AM 12.12 53.816 0.057 7.41 2.88 9.55
9/9/2021 7:30:00 AM 12.12 53.816 0.056 7.41 2.83 9.56
9/9/2021 7:45:00 AM 12.11 53.798 0.056 7.41 3.21 9.58
9/9/2021 8:00:00 AM 12.1 53.78 0.056 7.42 2.58 9.61
9/9/2021 8:15:00 AM 12.09 53.762 0.056 7.43 2.81 9.64
9/9/2021 8:30:00 AM 12.08 53.744 0.056 7.42 2.56 9.67
9/9/2021 8:45:00 AM 12.07 53.726 0.056 7.43 2.53 9.67
9/9/2021 9:00:00 AM 12.09 53.762 0.056 7.45 2.46 9.72
9/9/2021 9:15:00 AM 12.17 53.906 0.056 7.49 2.68 9.84
9/9/2021 9:30:00 AM 12.31 54.158 0.056 7.54 2.44 9.9
9/9/2021 9:45:00 AM 12.43 54.374 0.056 7.56 2.47 9.92
9/9/2021 10:00:00 AM 12.55 54.59 0.056 7.59 2.4 9.93
9/9/2021 10:15:00 AM 12.69 54.842 0.056 7.62 2.43 9.95
9/9/2021 10:30:00 AM 12.88 55.184 0.055 7.66 2.43 9.95
9/9/2021 10:45:00 AM 13.12 55.616 0.055 7.7 2.34 9.96
9/9/2021 11:00:00 AM 13.2 55.76 0.055 7.69 2.54 9.93
9/9/2021 11:15:00 AM 13.25 55.85 0.055 7.69 2.38 9.87
9/9/2021 11:30:00 AM 13.5 56.3 0.055 7.73 2.53 9.88
9/9/2021 11:45:00 AM 13.71 56.678 0.055 7.75 2.4 9.87
9/9/2021 12:00:00 PM 13.72 56.696 0.055 7.71 2.42 9.82
9/9/2021 12:15:00 PM 13.83 56.894 0.055 7.74 2.53 9.81
9/9/2021 12:30:00 PM 13.93 57.074 0.055 7.75 2.45 9.8
9/9/2021 12:45:00 PM 13.95 57.11 0.055 7.75 2.42 9.8
9/9/2021 1:00:00 PM 14.05 57.29 0.055 7.77 2.78 9.79
9/9/2021 1:15:00 PM 14.15 57.47 0.055 7.78 2.41 9.76
9/9/2021 1:30:00 PM 14.29 57.722 0.054 7.79 2.53 9.73
9/9/2021 1:45:00 PM 14.48 58.064 0.054 7.8 2.45 9.67
9/9/2021 2:00:00 PM 14.71 58.478 0.054 7.82 2.33 9.64
9/9/2021 2:15:00 PM 14.87 58.766 0.054 7.81 2.45 9.61
9/9/2021 2:30:00 PM 14.93 58.874 0.054 7.79 2.41 9.54
9/9/2021 2:45:00 PM 15.08 59.144 0.054 7.82 2.54 9.54
9/9/2021 3:00:00 PM 15.21 59.378 0.054 7.82 2.58 9.49
9/9/2021 3:15:00 PM 15.2 59.36 0.054 7.79 2.72 9.48
9/9/2021 3:30:00 PM 15.3 59.54 0.054 7.82 2.47 9.47
9/9/2021 3:45:00 PM 15.35 59.63 0.054 7.82 2.45 9.45
9/9/2021 4:00:00 PM 15.42 59.756 0.054 7.81 2.46 9.42
9/9/2021 4:15:00 PM 15.38 59.684 0.054 7.79 2.3 9.38
9/9/2021 4:30:00 PM 15.33 59.594 0.054 7.77 2.46 9.34
9/9/2021 4:45:00 PM 15.39 59.702 0.054 7.79 2.35 9.34
9/9/2021 5:00:00 PM 15.41 59.738 0.054 7.78 2.44 9.34
9/9/2021 5:15:00 PM 15.36 59.648 0.055 7.76 2.24 9.3
9/9/2021 5:30:00 PM 15.29 59.522 0.055 7.75 2.6 9.27
9/9/2021 5:45:00 PM 15.21 59.378 0.055 7.72 2.77 9.25
9/9/2021 6:00:00 PM 15.1 59.18 0.055 7.7 2.34 9.23
9/9/2021 6:15:00 PM 14.98 58.964 0.055 7.68 2.4 9.21
9/9/2021 6:30:00 PM 14.88 58.784 0.055 7.65 2.69 9.19
9/9/2021 6:45:00 PM 14.76 58.568 0.055 7.64 2.4 9.17
9/9/2021 7:00:00 PM 14.64 58.352 0.055 7.61 2.41 9.16
9/9/2021 7:15:00 PM 14.52 58.136 0.055 7.59 2.44 9.15
9/9/2021 7:30:00 PM 14.39 57.902 0.056 7.57 2.6 9.13
9/9/2021 7:45:00 PM 14.27 57.686 0.056 7.55 2.82 9.12
9/9/2021 8:00:00 PM 14.16 57.488 0.056 7.53 2.78 9.11
9/9/2021 8:15:00 PM 14.05 57.29 0.056 7.52 2.79 9.12
9/9/2021 8:30:00 PM 13.93 57.074 0.056 7.51 2.99 9.12
9/9/2021 8:45:00 PM 13.83 56.894 0.056 7.5 3.23 9.14
9/9/2021 9:00:00 PM 13.73 56.714 0.056 7.5 3.19 9.16
9/9/2021 9:15:00 PM 13.63 56.534 0.056 7.48 3.09 9.17
9/9/2021 9:30:00 PM 13.54 56.372 0.056 7.48 2.88 9.2
9/9/2021 9:45:00 PM 13.45 56.21 0.056 7.48 2.99 9.22
9/9/2021 10:00:00 PM 13.37 56.066 0.056 7.48 3.12 9.23
9/9/2021 10:15:00 PM 13.29 55.922 0.056 7.47 3.39 9.24
9/9/2021 10:30:00 PM 13.2 55.76 0.056 7.47 3.29 9.27
9/9/2021 10:45:00 PM 13.11 55.598 0.056 7.46 3.12 9.29
9/9/2021 11:00:00 PM 13.03 55.454 0.057 7.46 3.02 9.31
9/9/2021 11:15:00 PM 12.95 55.31 0.057 7.46 2.9 9.33
9/9/2021 11:30:00 PM 12.87 55.166 0.056 7.46 2.81 9.34
9/9/2021 11:45:00 PM 12.8 55.04 0.057 7.46 2.81 9.36
9/10/2021 12:00:00 AM 12.72 54.896 0.057 7.45 3.02 9.38
9/10/2021 12:15:00 AM 12.66 54.788 0.057 7.45 3.03 9.39
9/10/2021 12:30:00 AM 12.6 54.68 0.057 7.45 3.04 9.41
9/10/2021 12:45:00 AM 12.55 54.59 0.057 7.45 2.9 9.42
9/10/2021 1:00:00 AM 12.52 54.536 0.057 7.45 2.86 9.44
9/10/2021 1:15:00 AM 12.49 54.482 0.056 7.45 2.84 9.44
9/10/2021 1:30:00 AM 12.46 54.428 0.057 7.45 2.85 9.45
9/10/2021 1:45:00 AM 12.43 54.374 0.056 7.44 2.8 9.46
9/10/2021 2:00:00 AM 12.4 54.32 0.056 7.44 3.42 9.46
9/10/2021 2:15:00 AM 12.36 54.248 0.056 7.43 3.4 9.47
9/10/2021 2:30:00 AM 12.32 54.176 0.057 7.43 3.8 9.49
9/10/2021 2:45:00 AM 12.27 54.086 0.057 7.43 3.13 9.5
9/10/2021 3:00:00 AM 12.24 54.032 0.057 7.43 3.1 9.51
9/10/2021 3:15:00 AM 12.2 53.96 0.057 7.43 3.87 9.51
9/10/2021 3:30:00 AM 12.17 53.906 0.057 7.43 2.73 9.52
9/10/2021 3:45:00 AM 12.12 53.816 0.057 7.42 3.49 9.54
9/10/2021 4:00:00 AM 12.09 53.762 0.057 7.41 3.09 9.55
9/10/2021 4:15:00 AM 12.07 53.726 0.057 7.42 3.41 9.56
9/10/2021 4:30:00 AM 12.06 53.708 0.057 7.42 2.89 9.56
9/10/2021 4:45:00 AM 12.05 53.69 0.056 7.42 2.84 9.56
9/10/2021 5:00:00 AM 12.05 53.69 0.057 7.42 2.83 9.57
9/10/2021 5:15:00 AM 12.04 53.672 0.056 7.42 2.73 9.57
9/10/2021 5:30:00 AM 12.02 53.636 0.057 7.42 2.97 9.58
9/10/2021 5:45:00 AM 12 53.6 0.057 7.41 2.93 9.58
9/10/2021 6:00:00 AM 11.98 53.564 0.056 7.42 2.6 9.59
9/10/2021 6:15:00 AM 11.97 53.546 0.056 7.42 2.8 9.6
9/10/2021 6:30:00 AM 11.94 53.492 0.056 7.42 2.94 9.6
9/10/2021 6:45:00 AM 11.91 53.438 0.056 7.42 2.79 9.61
9/10/2021 7:00:00 AM 11.88 53.384 0.056 7.43 2.72 9.63
9/10/2021 7:15:00 AM 11.84 53.312 0.056 7.43 2.64 9.67
9/10/2021 7:30:00 AM 11.84 53.312 0.056 7.44 2.7 9.71
9/10/2021 7:45:00 AM 11.84 53.312 0.056 7.46 2.79 9.74
9/10/2021 8:00:00 AM 11.85 53.33 0.056 7.47 2.67 9.76
9/10/2021 8:15:00 AM 11.88 53.384 0.056 7.49 2.41 9.8
9/10/2021 8:30:00 AM 11.91 53.438 0.056 7.51 2.66 9.84
9/10/2021 8:45:00 AM 11.94 53.492 0.056 7.52 2.62 9.88
9/10/2021 9:00:00 AM 11.98 53.564 0.056 7.55 2.91 9.93
9/10/2021 9:15:00 AM 12 53.6 0.056 7.56 2.58 9.95
9/10/2021 9:30:00 AM 12.08 53.744 0.056 7.58 2.56 9.99
9/10/2021 9:45:00 AM 12.18 53.924 0.056 7.61 2.38 10.03
9/10/2021 10:00:00 AM 12.16 53.888 0.056 7.59 2.61 10
9/10/2021 10:15:00 AM 12.18 53.924 0.056 7.6 2.44 9.99
9/10/2021 10:30:00 AM 12.38 54.284 0.056 7.65 2.4 10.04
9/10/2021 10:45:00 AM 12.51 54.518 0.055 7.67 2.41 10.04
9/10/2021 11:00:00 AM 12.66 54.788 0.055 7.69 2.36 10.03
9/10/2021 11:15:00 AM 12.83 55.094 0.055 7.7 2.4 10.01
9/10/2021 11:30:00 AM 13.04 55.472 0.055 7.73 2.54 10
9/10/2021 11:45:00 AM 13.21 55.778 0.055 7.74 2.32 9.97
9/10/2021 12:00:00 PM 13.31 55.958 0.055 7.74 2.78 9.93
9/10/2021 12:15:00 PM 13.4 56.12 0.055 7.73 2.63 9.88
9/10/2021 12:30:00 PM 13.48 56.264 0.055 7.73 2.44 9.87
9/10/2021 12:45:00 PM 13.49 56.282 0.055 7.72 2.36 9.85
9/10/2021 1:00:00 PM 13.54 56.372 0.055 7.73 2.38 9.86
9/10/2021 1:15:00 PM 13.72 56.696 0.055 7.76 2.49 9.84
9/10/2021 1:30:00 PM 13.89 57.002 0.054 7.77 2.42 9.83
9/10/2021 1:45:00 PM 13.88 56.984 0.055 7.74 2.65 9.77
9/10/2021 2:00:00 PM 13.89 57.002 0.055 7.74 2.52 9.75
9/10/2021 2:15:00 PM 13.91 57.038 0.055 7.75 2.63 9.77
9/10/2021 2:30:00 PM 13.92 57.056 0.054 7.76 2.39 9.8
9/10/2021 2:45:00 PM 14 57.2 0.054 7.78 2.49 9.8
9/10/2021 3:00:00 PM 14.08 57.344 0.054 7.78 2.34 9.75
9/10/2021 3:15:00 PM 14.17 57.506 0.054 7.78 2.42 9.71
9/10/2021 3:30:00 PM 14.38 57.884 0.054 7.81 2.31 9.7
9/10/2021 3:45:00 PM 14.52 58.136 0.054 7.82 2.51 9.69
9/10/2021 4:00:00 PM 14.57 58.226 0.054 7.8 2.42 9.63
9/10/2021 4:15:00 PM 14.69 58.442 0.054 7.8 2.41 9.57
9/10/2021 4:30:00 PM 14.71 58.478 0.054 7.78 2.42 9.55
9/10/2021 4:45:00 PM 14.72 58.496 0.054 7.79 2.51 9.57
9/10/2021 5:00:00 PM 14.78 58.604 0.054 7.8 2.55 9.58
9/10/2021 5:15:00 PM 14.75 58.55 0.054 7.77 2.34 9.5
9/10/2021 5:30:00 PM 14.67 58.406 0.055 7.75 3.51 9.46
9/10/2021 5:45:00 PM 14.64 58.352 0.055 7.73 2.32 9.43
9/10/2021 6:00:00 PM 14.56 58.208 0.055 7.71 2.51 9.41
9/10/2021 6:15:00 PM 14.45 58.01 0.055 7.68 2.34 9.39
9/10/2021 6:30:00 PM 14.32 57.776 0.055 7.66 2.56 9.37
9/10/2021 6:45:00 PM 14.2 57.56 0.055 7.64 2.59 9.35
9/10/2021 7:00:00 PM 14.07 57.326 0.055 7.61 2.44 9.34
9/10/2021 7:15:00 PM 13.93 57.074 0.056 7.58 2.58 9.33
9/10/2021 7:30:00 PM 13.8 56.84 0.056 7.57 3.1 9.31
9/10/2021 7:45:00 PM 13.68 56.624 0.056 7.54 2.99 9.31
9/10/2021 8:00:00 PM 13.57 56.426 0.056 7.52 3.25 9.3
9/10/2021 8:15:00 PM 13.46 56.228 0.056 7.52 3.17 9.31
9/10/2021 8:30:00 PM 13.35 56.03 0.056 7.5 2.95 9.32
9/10/2021 8:45:00 PM 13.24 55.832 0.056 7.49 3.29 9.33
9/10/2021 9:00:00 PM 13.14 55.652 0.056 7.49 3.84 9.35
9/10/2021 9:15:00 PM 13.03 55.454 0.056 7.48 4 9.37
9/10/2021 9:30:00 PM 12.93 55.274 0.056 7.48 3.7 9.38
9/10/2021 9:45:00 PM 12.83 55.094 0.057 7.47 3.49 9.41
9/10/2021 10:00:00 PM 12.74 54.932 0.057 7.46 4.09 9.43
9/10/2021 10:15:00 PM 12.65 54.77 0.057 7.47 4.15 9.44
9/10/2021 10:30:00 PM 12.55 54.59 0.057 7.46 3.65 9.47
9/10/2021 10:45:00 PM 12.47 54.446 0.057 7.46 3.33 9.49
9/10/2021 11:00:00 PM 12.38 54.284 0.057 7.45 3.23 9.52
9/10/2021 11:15:00 PM 12.3 54.14 0.057 7.45 3.15 9.54
9/10/2021 11:30:00 PM 12.22 53.996 0.057 7.45 3.06 9.56
9/10/2021 11:45:00 PM 12.14 53.852 0.057 7.45 2.93 9.57
9/11/2021 12:00:00 AM 12.06 53.708 0.057 7.45 3.04 9.59
9/11/2021 12:15:00 AM 11.99 53.582 0.057 7.44 3.34 9.61
9/11/2021 12:30:00 AM 11.91 53.438 0.057 7.44 3.11 9.63
9/11/2021 12:45:00 AM 11.84 53.312 0.057 7.43 3.16 9.65
9/11/2021 1:00:00 AM 11.76 53.168 0.057 7.44 3.06 9.67
9/11/2021 1:15:00 AM 11.69 53.042 0.057 7.43 2.89 9.69
9/11/2021 1:30:00 AM 11.62 52.916 0.057 7.43 2.89 9.71
9/11/2021 1:45:00 AM 11.56 52.808 0.057 7.42 3.05 9.73
9/11/2021 2:00:00 AM 11.5 52.7 0.057 7.43 3.87 9.74
9/11/2021 2:15:00 AM 11.44 52.592 0.057 7.43 2.85 9.76
9/11/2021 2:30:00 AM 11.39 52.502 0.057 7.43 3.12 9.77
9/11/2021 2:45:00 AM 11.34 52.412 0.057 7.42 3.19 9.78
9/11/2021 3:00:00 AM 11.28 52.304 0.057 7.42 2.9 9.8
9/11/2021 3:15:00 AM 11.21 52.178 0.057 7.42 3.03 9.81
9/11/2021 3:30:00 AM 11.14 52.052 0.057 7.41 3.31 9.83
9/11/2021 3:45:00 AM 11.06 51.908 0.057 7.41 3.49 9.85
9/11/2021 4:00:00 AM 10.99 51.782 0.057 7.4 3.57 9.87
9/11/2021 4:15:00 AM 10.92 51.656 0.057 7.4 3.84 9.89
9/11/2021 4:30:00 AM 10.85 51.53 0.057 7.4 3.25 9.9
9/11/2021 4:45:00 AM 10.78 51.404 0.057 7.4 3.45 9.92
9/11/2021 5:00:00 AM 10.72 51.296 0.057 7.4 3.58 9.94
9/11/2021 5:15:00 AM 10.66 51.188 0.057 7.39 3.51 9.95
9/11/2021 5:30:00 AM 10.6 51.08 0.057 7.39 3.38 9.96
9/11/2021 5:45:00 AM 10.56 51.008 0.057 7.39 3.39 9.98
9/11/2021 6:00:00 AM 10.51 50.918 0.057 7.4 3.11 10
9/11/2021 6:15:00 AM 10.47 50.846 0.057 7.39 3.3 10.01
9/11/2021 6:30:00 AM 10.42 50.756 0.057 7.38 3.78 10.02
9/11/2021 6:45:00 AM 10.38 50.684 0.057 7.39 3.41 10.04
9/11/2021 7:00:00 AM 10.34 50.612 0.057 7.39 3.16 10.06
9/11/2021 7:15:00 AM 10.3 50.54 0.057 7.39 3.39 10.09
9/11/2021 7:30:00 AM 10.28 50.504 0.056 7.4 4.1 10.15
9/11/2021 7:45:00 AM 10.26 50.468 0.056 7.42 4.04 10.2
9/11/2021 8:00:00 AM 10.23 50.414 0.056 7.43 3.65 10.23
9/11/2021 8:15:00 AM 10.21 50.378 0.056 7.43 3.35 10.28
9/11/2021 8:30:00 AM 10.22 50.396 0.056 7.46 3.43 10.35
9/11/2021 8:45:00 AM 10.26 50.468 0.056 7.48 2.79 10.42
9/11/2021 9:00:00 AM 10.32 50.576 0.056 7.51 2.9 10.46
9/11/2021 9:15:00 AM 10.42 50.756 0.056 7.53 2.86 10.48
9/11/2021 9:30:00 AM 10.49 50.882 0.056 7.55 2.84 10.49
9/11/2021 9:45:00 AM 10.63 51.134 0.056 7.57 2.83 10.49
9/11/2021 10:00:00 AM 10.77 51.386 0.056 7.59 2.6 10.48
9/11/2021 10:15:00 AM 10.91 51.638 0.055 7.6 2.38 10.45
9/11/2021 10:30:00 AM 11.08 51.944 0.056 7.61 2.65 10.43
9/11/2021 10:45:00 AM 11.26 52.268 0.055 7.63 2.55 10.41
9/11/2021 11:00:00 AM 11.47 52.646 0.055 7.65 2.63 10.39
9/11/2021 11:15:00 AM 11.69 53.042 0.055 7.67 2.56 10.35
9/11/2021 11:30:00 AM 11.91 53.438 0.055 7.7 2.61 10.31
9/11/2021 11:45:00 AM 12.14 53.852 0.055 7.71 2.65 10.27
9/11/2021 12:00:00 PM 12.36 54.248 0.055 7.72 2.66 10.23
9/11/2021 12:15:00 PM 12.58 54.644 0.055 7.74 2.49 10.19
9/11/2021 12:30:00 PM 12.8 55.04 0.055 7.75 2.58 10.15
9/11/2021 12:45:00 PM 13 55.4 0.055 7.76 2.47 10.11
9/11/2021 1:00:00 PM 13.2 55.76 0.055 7.76 2.52 10.07
9/11/2021 1:15:00 PM 13.4 56.12 0.055 7.78 2.58 10.03
9/11/2021 1:30:00 PM 13.57 56.426 0.055 7.79 2.36 10
9/11/2021 1:45:00 PM 13.69 56.642 0.055 7.8 2.6 9.94
9/11/2021 2:00:00 PM 13.82 56.876 0.055 7.8 3.67 9.94
9/11/2021 2:15:00 PM 13.87 56.966 0.055 7.8 2.62 9.9
9/11/2021 2:30:00 PM 14.03 57.254 0.055 7.83 2.77 9.89
9/11/2021 2:45:00 PM 14.18 57.524 0.054 7.84 2.69 9.84
9/11/2021 3:00:00 PM 14.34 57.812 0.054 7.83 2.77 9.79
9/11/2021 3:15:00 PM 14.46 58.028 0.054 7.83 2.51 9.75
9/11/2021 3:30:00 PM 14.62 58.316 0.054 7.84 2.68 9.71
9/11/2021 3:45:00 PM 14.8 58.64 0.054 7.85 2.44 9.67
9/11/2021 4:00:00 PM 14.85 58.73 0.054 7.84 2.58 9.63
9/11/2021 4:15:00 PM 14.87 58.766 0.054 7.82 2.64 9.59
9/11/2021 4:30:00 PM 14.89 58.802 0.054 7.82 2.9 9.57
9/11/2021 4:45:00 PM 14.87 58.766 0.054 7.8 2.73 9.53
9/11/2021 5:00:00 PM 14.83 58.694 0.054 7.79 2.54 9.53
9/11/2021 5:15:00 PM 14.83 58.694 0.054 7.78 2.54 9.5
9/11/2021 5:30:00 PM 14.81 58.658 0.054 7.76 2.46 9.47
9/11/2021 5:45:00 PM 14.78 58.604 0.054 7.75 2.52 9.42
9/11/2021 6:00:00 PM 14.75 58.55 0.055 7.74 2.64 9.39
9/11/2021 6:15:00 PM 14.69 58.442 0.055 7.71 2.68 9.36
9/11/2021 6:30:00 PM 14.6 58.28 0.055 7.69 2.56 9.34
9/11/2021 6:45:00 PM 14.49 58.082 0.055 7.65 2.85 9.31
9/11/2021 7:00:00 PM 14.37 57.866 0.055 7.64 2.85 9.29
9/11/2021 7:15:00 PM 14.25 57.65 0.055 7.61 2.9 9.26
9/11/2021 7:30:00 PM 14.13 57.434 0.056 7.59 3.09 9.24
9/11/2021 7:45:00 PM 14.01 57.218 0.056 7.57 2.99 9.23
9/11/2021 8:00:00 PM 13.91 57.038 0.056 7.55 3.01 9.22
9/11/2021 8:15:00 PM 13.8 56.84 0.056 7.54 3.37 9.22
9/11/2021 8:30:00 PM 13.7 56.66 0.056 7.53 3.86 9.22
9/11/2021 8:45:00 PM 13.6 56.48 0.056 7.52 3.82 9.24
9/11/2021 9:00:00 PM 13.51 56.318 0.056 7.51 3.44 9.26
9/11/2021 9:15:00 PM 13.41 56.138 0.056 7.51 3.05 9.27
9/11/2021 9:30:00 PM 13.32 55.976 0.056 7.5 3 9.29
9/11/2021 9:45:00 PM 13.24 55.832 0.057 7.49 2.95 9.3
9/11/2021 10:00:00 PM 13.16 55.688 0.057 7.49 2.92 9.32
9/11/2021 10:15:00 PM 13.08 55.544 0.057 7.48 2.98 9.33
9/11/2021 10:30:00 PM 13.01 55.418 0.057 7.48 2.98 9.35
9/11/2021 10:45:00 PM 12.93 55.274 0.057 7.47 3.01 9.36
9/11/2021 11:00:00 PM 12.86 55.148 0.057 7.48 3.1 9.37
9/11/2021 11:15:00 PM 12.8 55.04 0.057 7.47 3.18 9.39
9/11/2021 11:30:00 PM 12.73 54.914 0.057 7.47 3.31 9.4
9/11/2021 11:45:00 PM 12.67 54.806 0.057 7.46 3.19 9.42
9/12/2021 12:00:00 AM 12.61 54.698 0.057 7.46 3.16 9.44
9/12/2021 12:15:00 AM 12.55 54.59 0.057 7.46 3.76 9.45
9/12/2021 12:30:00 AM 12.5 54.5 0.057 7.45 3.14 9.46
9/12/2021 12:45:00 AM 12.45 54.41 0.057 7.45 3.4 9.48
9/12/2021 1:00:00 AM 12.4 54.32 0.057 7.46 3.81 9.49
9/12/2021 1:15:00 AM 12.36 54.248 0.057 7.46 2.93 9.5
9/12/2021 1:30:00 AM 12.33 54.194 0.057 7.47 2.98 9.52
9/12/2021 1:45:00 AM 12.3 54.14 0.057 7.46 3.02 9.52
9/12/2021 2:00:00 AM 12.27 54.086 0.057 7.46 3.1 9.53
9/12/2021 2:15:00 AM 12.24 54.032 0.057 7.45 3.14 9.54
9/12/2021 2:30:00 AM 12.21 53.978 0.057 7.45 2.97 9.54
9/12/2021 2:45:00 AM 12.18 53.924 0.057 7.45 6.05 9.55
9/12/2021 3:00:00 AM 12.14 53.852 0.057 7.45 3.58 9.56
9/12/2021 3:15:00 AM 12.1 53.78 0.057 7.44 3.22 9.57
9/12/2021 3:30:00 AM 12.07 53.726 0.057 7.44 3.15 9.57
9/12/2021 3:45:00 AM 12.04 53.672 0.057 7.44 3.25 9.58
9/12/2021 4:00:00 AM 12.02 53.636 0.057 7.44 3.5 9.58
9/12/2021 4:15:00 AM 12.01 53.618 0.057 7.44 4.73 9.58
9/12/2021 4:30:00 AM 12 53.6 0.057 7.43 4.24 9.59
9/12/2021 4:45:00 AM 11.98 53.564 0.057 7.42 3.78 9.59
9/12/2021 5:00:00 AM 11.97 53.546 0.057 7.42 3.64 9.6
9/12/2021 5:15:00 AM 11.96 53.528 0.057 7.42 3.84 9.6
9/12/2021 5:30:00 AM 11.95 53.51 0.057 7.42 3.77 9.6
9/12/2021 5:45:00 AM 11.93 53.474 0.057 7.42 3.61 9.61
9/12/2021 6:00:00 AM 11.92 53.456 0.057 7.42 3.89 9.61
9/12/2021 6:15:00 AM 11.91 53.438 0.057 7.42 3.72 9.61
9/12/2021 6:30:00 AM 11.9 53.42 0.057 7.42 3.63 9.62
9/12/2021 6:45:00 AM 11.89 53.402 0.057 7.42 4 9.61
9/12/2021 7:00:00 AM 11.89 53.402 0.057 7.43 3.85 9.62
9/12/2021 7:15:00 AM 11.9 53.42 0.057 7.42 3.5 9.64
9/12/2021 7:30:00 AM 11.92 53.456 0.057 7.43 3.39 9.66
9/12/2021 7:45:00 AM 11.94 53.492 0.057 7.45 3.14 9.71
9/12/2021 8:00:00 AM 11.99 53.582 0.057 7.47 3.03 9.77
9/12/2021 8:15:00 AM 12.06 53.708 0.056 7.51 2.87 9.83
9/12/2021 8:30:00 AM 12.15 53.87 0.056 7.53 2.75 9.85
9/12/2021 8:45:00 AM 12.26 54.068 0.056 7.56 2.95 9.88
9/12/2021 9:00:00 AM 12.36 54.248 0.056 7.59 3.03 9.88
9/12/2021 9:15:00 AM 12.43 54.374 0.056 7.58 3.01 9.84
9/12/2021 9:30:00 AM 12.49 54.482 0.056 7.59 2.84 9.84
9/12/2021 9:45:00 AM 12.59 54.662 0.056 7.62 2.98 9.88
9/12/2021 10:00:00 AM 12.69 54.842 0.056 7.63 2.79 9.91
9/12/2021 10:15:00 AM 12.76 54.968 0.056 7.64 2.67 9.86
9/12/2021 10:30:00 AM 12.9 55.22 0.056 7.68 2.69 9.9
9/12/2021 10:45:00 AM 13.03 55.454 0.056 7.7 2.56 9.92
9/12/2021 11:00:00 AM 13.12 55.616 0.056 7.69 2.69 9.86
9/12/2021 11:15:00 AM 13.18 55.724 0.056 7.69 2.64 9.83
9/12/2021 11:30:00 AM 13.26 55.868 0.056 7.7 2.63 9.82
9/12/2021 11:45:00 AM 13.39 56.102 0.055 7.72 2.72 9.85
9/12/2021 12:00:00 PM 13.5 56.3 0.055 7.73 2.54 9.85
9/12/2021 12:15:00 PM 13.61 56.498 0.055 7.75 2.77 9.84
9/12/2021 12:30:00 PM 13.67 56.606 0.055 7.74 2.65 9.79
9/12/2021 12:45:00 PM 13.72 56.696 0.055 7.73 2.65 9.75
9/12/2021 1:00:00 PM 13.81 56.858 0.055 7.74 2.68 9.75
9/12/2021 1:15:00 PM 13.97 57.146 0.055 7.78 2.59 9.8
9/12/2021 1:30:00 PM 14.12 57.416 0.055 7.81 2.79 9.8
9/12/2021 1:45:00 PM 14.32 57.776 0.055 7.83 2.78 9.78
9/12/2021 2:00:00 PM 14.54 58.172 0.055 7.86 3 9.76
9/12/2021 2:15:00 PM 14.75 58.55 0.055 7.87 3.23 9.73
9/12/2021 2:30:00 PM 14.93 58.874 0.055 7.88 2.74 9.69
9/12/2021 2:45:00 PM 15.15 59.27 0.055 7.9 2.69 9.66
9/12/2021 3:00:00 PM 15.35 59.63 0.055 7.9 2.7 9.62
9/12/2021 3:15:00 PM 15.49 59.882 0.054 7.9 2.55 9.57
9/12/2021 3:30:00 PM 15.57 60.026 0.054 7.89 2.61 9.53
9/12/2021 3:45:00 PM 15.58 60.044 0.054 7.86 2.66 9.46
9/12/2021 4:00:00 PM 15.61 60.098 0.054 7.86 3.08 9.44
9/12/2021 4:15:00 PM 15.67 60.206 0.054 7.87 2.61 9.44
9/12/2021 4:30:00 PM 15.76 60.368 0.054 7.88 2.78 9.42
9/12/2021 4:45:00 PM 15.77 60.386 0.054 7.85 2.82 9.39
9/12/2021 5:00:00 PM 15.79 60.422 0.054 7.85 3 9.36
9/12/2021 5:15:00 PM 15.87 60.566 0.054 7.86 2.71 9.33
9/12/2021 5:30:00 PM 15.92 60.656 0.054 7.85 2.87 9.29
9/12/2021 5:45:00 PM 15.92 60.656 0.054 7.82 2.6 9.24
9/12/2021 6:00:00 PM 15.9 60.62 0.054 7.79 2.71 9.2
9/12/2021 6:15:00 PM 15.86 60.548 0.055 7.76 2.8 9.16
9/12/2021 6:30:00 PM 15.79 60.422 0.055 7.73 2.83 9.11
9/12/2021 6:45:00 PM 15.7 60.26 0.055 7.69 2.94 9.07
9/12/2021 7:00:00 PM 15.61 60.098 0.055 7.64 3.4 9.01
9/12/2021 7:15:00 PM 15.52 59.936 0.055 7.61 3.68 8.97
9/12/2021 7:30:00 PM 15.45 59.81 0.055 7.58 3.04 8.94
9/12/2021 7:45:00 PM 15.38 59.684 0.056 7.55 3.41 8.91
9/12/2021 8:00:00 PM 15.33 59.594 0.056 7.53 3.64 8.89
9/12/2021 8:15:00 PM 15.28 59.504 0.056 7.51 3.59 8.88
9/12/2021 8:30:00 PM 15.23 59.414 0.056 7.49 3.36 8.88
9/12/2021 8:45:00 PM 15.17 59.306 0.056 7.48 3.66 8.88
9/12/2021 9:00:00 PM 15.13 59.234 0.057 7.47 4.16 8.88
9/12/2021 9:15:00 PM 15.08 59.144 0.057 7.46 3.49 8.89
9/12/2021 9:30:00 PM 15.03 59.054 0.057 7.45 3.25 8.89
9/12/2021 9:45:00 PM 14.98 58.964 0.057 7.44 3.28 8.9
9/12/2021 10:00:00 PM 14.93 58.874 0.057 7.44 3.27 8.91
9/12/2021 10:15:00 PM 14.88 58.784 0.057 7.44 3.21 8.93
9/12/2021 10:30:00 PM 14.84 58.712 0.057 7.44 3.75 8.93
9/12/2021 10:45:00 PM 14.8 58.64 0.057 7.42 3.89 8.93
9/12/2021 11:00:00 PM 14.76 58.568 0.058 7.43 3.38 8.94
9/12/2021 11:15:00 PM 14.72 58.496 0.058 7.42 3.5 8.95
9/12/2021 11:30:00 PM 14.67 58.406 0.058 7.42 3.24 8.95
9/12/2021 11:45:00 PM 14.62 58.316 0.058 7.42 4.13 8.96
9/13/2021 12:00:00 AM 14.57 58.226 0.058 7.42 6.79 8.97
9/13/2021 12:15:00 AM 14.53 58.154 0.058 7.42 3.33 8.99
9/13/2021 12:30:00 AM 14.5 58.1 0.058 7.42 3.21 9
9/13/2021 12:45:00 AM 14.46 58.028 0.058 7.42 3.19 9.01
9/13/2021 1:00:00 AM 14.44 57.992 0.058 7.43 7.65 9.01
9/13/2021 1:15:00 AM 14.43 57.974 0.058 7.45 4.32 9.03
9/13/2021 1:30:00 AM 14.43 57.974 0.058 7.46 3.4 9.03
9/13/2021 1:45:00 AM 14.42 57.956 0.058 7.45 3.39 9.03
9/13/2021 2:00:00 AM 14.42 57.956 0.058 7.45 3.84 9.03
9/13/2021 2:15:00 AM 14.4 57.92 0.058 7.45 3.68 9.03
9/13/2021 2:30:00 AM 14.39 57.902 0.058 7.44 3.65 9.03
9/13/2021 2:45:00 AM 14.38 57.884 0.058 7.44 3.16 9.04
9/13/2021 3:00:00 AM 14.37 57.866 0.058 7.44 4.18 9.04
9/13/2021 3:15:00 AM 14.36 57.848 0.058 7.43 3.68 9.03
9/13/2021 3:30:00 AM 14.34 57.812 0.058 7.45 3.5 9.04
9/13/2021 3:45:00 AM 14.32 57.776 0.058 7.46 3.74 9.04
9/13/2021 4:00:00 AM 14.3 57.74 0.058 7.46 3.17 9.05
9/13/2021 4:15:00 AM 14.29 57.722 0.058 7.47 3.51 9.05
9/13/2021 4:30:00 AM 14.28 57.704 0.058 7.46 4.12 9.05
9/13/2021 4:45:00 AM 14.27 57.686 0.057 7.46 3.5 9.06
9/13/2021 5:00:00 AM 14.25 57.65 0.058 7.46 3.33 9.06
9/13/2021 5:15:00 AM 14.24 57.632 0.058 7.45 3.42 9.06
9/13/2021 5:30:00 AM 14.22 57.596 0.058 7.44 3.44 9.07
9/13/2021 5:45:00 AM 14.2 57.56 0.058 7.44 3.46 9.08
9/13/2021 6:00:00 AM 14.19 57.542 0.058 7.43 4.48 9.08
9/13/2021 6:15:00 AM 14.18 57.524 0.058 7.43 3.79 9.08
9/13/2021 6:30:00 AM 14.16 57.488 0.058 7.42 3.77 9.09
9/13/2021 6:45:00 AM 14.15 57.47 0.058 7.41 4.1 9.09
9/13/2021 7:00:00 AM 14.13 57.434 0.058 7.41 4.67 9.09
9/13/2021 7:15:00 AM 14.12 57.416 0.058 7.41 3.83 9.1
9/13/2021 7:30:00 AM 14.1 57.38 0.058 7.4 3.75 9.13
9/13/2021 7:45:00 AM 14.09 57.362 0.058 7.41 3.92 9.16
9/13/2021 8:00:00 AM 14.08 57.344 0.058 7.41 3.54 9.19
9/13/2021 8:15:00 AM 14.08 57.344 0.058 7.42 3.07 9.24
9/13/2021 8:30:00 AM 14.08 57.344 0.057 7.44 3.07 9.27
9/13/2021 8:45:00 AM 14.09 57.362 0.057 7.46 3.18 9.32
9/13/2021 9:00:00 AM 14.11 57.398 0.057 7.48 3.35 9.36
9/13/2021 9:15:00 AM 14.11 57.398 0.057 7.5 2.97 9.36
9/13/2021 9:30:00 AM 14.12 57.416 0.057 7.5 3.1 9.36
9/13/2021 9:45:00 AM 14.13 57.434 0.057 7.51 2.84 9.38
9/13/2021 10:00:00 AM 14.13 57.434 0.057 7.51 2.76 9.38
9/13/2021 10:15:00 AM 14.15 57.47 0.057 7.53 3.49 9.38
9/13/2021 10:30:00 AM 14.16 57.488 0.057 7.54 2.84 9.41
9/13/2021 10:45:00 AM 14.18 57.524 0.057 7.56 2.87 9.45
9/13/2021 11:00:00 AM 14.2 57.56 0.057 7.57 2.7 9.47
9/13/2021 11:15:00 AM 14.25 57.65 0.057 7.6 3.36 9.52
9/13/2021 11:30:00 AM 14.29 57.722 0.057 7.63 2.81 9.55
9/13/2021 11:45:00 AM 14.37 57.866 0.057 7.65 2.86 9.58
9/13/2021 12:00:00 PM 14.43 57.974 0.057 7.67 2.71 9.58
9/13/2021 12:15:00 PM 14.51 58.118 0.056 7.69 2.72 9.59
9/13/2021 12:30:00 PM 14.6 58.28 0.056 7.72 2.86 9.61
9/13/2021 12:45:00 PM 14.74 58.532 0.056 7.75 2.81 9.65
9/13/2021 1:00:00 PM 14.95 58.91 0.056 7.8 2.92 9.66
9/13/2021 1:15:00 PM 15.1 59.18 0.056 7.82 2.78 9.64
9/13/2021 1:30:00 PM 15.24 59.432 0.056 7.82 2.73 9.6
9/13/2021 1:45:00 PM 15.46 59.828 0.056 7.85 2.85 9.59
9/13/2021 2:00:00 PM 15.69 60.242 0.056 7.88 2.78 9.56
9/13/2021 2:15:00 PM 15.86 60.548 0.055 7.88 2.67 9.51
9/13/2021 2:30:00 PM 15.92 60.656 0.055 7.86 2.88 9.47
9/13/2021 2:45:00 PM 16.04 60.872 0.055 7.88 2.69 9.46
9/13/2021 3:00:00 PM 16.18 61.124 0.055 7.9 2.84 9.44
9/13/2021 3:15:00 PM 16.29 61.322 0.055 7.89 2.6 9.41
9/13/2021 3:30:00 PM 16.41 61.538 0.055 7.9 3.17 9.38
9/13/2021 3:45:00 PM 16.48 61.664 0.055 7.9 2.98 9.35
9/13/2021 4:00:00 PM 16.51 61.718 0.055 7.88 2.73 9.31
9/13/2021 4:15:00 PM 16.57 61.826 0.055 7.88 2.82 9.29
9/13/2021 4:30:00 PM 16.65 61.97 0.055 7.88 3.78 9.26
9/13/2021 4:45:00 PM 16.63 61.934 0.055 7.84 2.69 9.2
9/13/2021 5:00:00 PM 16.61 61.898 0.055 7.83 2.66 9.17
9/13/2021 5:15:00 PM 16.57 61.826 0.055 7.81 2.75 9.15
9/13/2021 5:30:00 PM 16.52 61.736 0.055 7.78 2.99 9.1
9/13/2021 5:45:00 PM 16.42 61.556 0.055 7.73 3.09 9.03
9/13/2021 6:00:00 PM 16.34 61.412 0.055 7.71 2.56 8.99
9/13/2021 6:15:00 PM 16.27 61.286 0.055 7.68 2.78 8.93
9/13/2021 6:30:00 PM 16.21 61.178 0.056 7.65 2.8 8.89
9/13/2021 6:45:00 PM 16.17 61.106 0.056 7.64 2.9 8.85
9/13/2021 7:00:00 PM 16.11 60.998 0.056 7.63 3.75 8.81
9/13/2021 7:15:00 PM 16.06 60.908 0.056 7.62 3.35 8.77
9/13/2021 7:30:00 PM 16 60.8 0.056 7.61 3.19 8.76
9/13/2021 7:45:00 PM 15.94 60.692 0.056 7.59 3.05 8.75
9/13/2021 8:00:00 PM 15.88 60.584 0.057 7.59 3.18 8.75
9/13/2021 8:15:00 PM 15.82 60.476 0.057 7.59 3.16 8.75
9/13/2021 8:30:00 PM 15.74 60.332 0.057 7.57 3.27 8.75
9/13/2021 8:45:00 PM 15.66 60.188 0.057 7.56 3.29 8.76
9/13/2021 9:00:00 PM 15.58 60.044 0.057 7.56 3.16 8.77
9/13/2021 9:15:00 PM 15.5 59.9 0.057 7.54 3.08 8.79
9/13/2021 9:30:00 PM 15.42 59.756 0.057 7.54 3.31 8.81
9/13/2021 9:45:00 PM 15.34 59.612 0.057 7.53 3.04 8.82
9/13/2021 10:00:00 PM 15.27 59.486 0.057 7.52 3.26 8.83
9/13/2021 10:15:00 PM 15.2 59.36 0.057 7.52 2.99 8.85
9/13/2021 10:30:00 PM 15.13 59.234 0.057 7.52 2.88 8.87
9/13/2021 10:45:00 PM 15.06 59.108 0.057 7.52 3 8.88
9/13/2021 11:00:00 PM 15.01 59.018 0.057 7.52 3.21 8.89
9/13/2021 11:15:00 PM 14.96 58.928 0.058 7.51 3.46 8.9
9/13/2021 11:30:00 PM 14.92 58.856 0.058 7.51 3.49 8.91
9/13/2021 11:45:00 PM 14.88 58.784 0.058 7.51 3.33 8.93
9/14/2021 12:00:00 AM 14.84 58.712 0.058 7.51 3.13 8.95
9/14/2021 12:15:00 AM 14.81 58.658 0.058 7.51 3.04 8.96
9/14/2021 12:30:00 AM 14.78 58.604 0.058 7.51 3.19 8.96
9/14/2021 12:45:00 AM 14.75 58.55 0.058 7.51 3.04 8.97
9/14/2021 1:00:00 AM 14.72 58.496 0.058 7.5 3.03 8.97
9/14/2021 1:15:00 AM 14.7 58.46 0.057 7.5 3.58 8.97
9/14/2021 1:30:00 AM 14.67 58.406 0.057 7.49 3.99 8.95
9/14/2021 1:45:00 AM 14.63 58.334 0.057 7.48 3.62 8.96
9/14/2021 2:00:00 AM 14.6 58.28 0.057 7.48 3.3 8.96
9/14/2021 2:15:00 AM 14.57 58.226 0.057 7.47 3.77 8.97
9/14/2021 2:30:00 AM 14.54 58.172 0.057 7.48 3.6 8.98
9/14/2021 2:45:00 AM 14.51 58.118 0.058 7.47 5.56 8.98
9/14/2021 3:00:00 AM 14.49 58.082 0.058 7.47 3.85 8.99
9/14/2021 3:15:00 AM 14.46 58.028 0.058 7.47 3.81 8.99
9/14/2021 3:30:00 AM 14.43 57.974 0.058 7.46 3.7 9
9/14/2021 3:45:00 AM 14.41 57.938 0.058 7.46 3.9 9
9/14/2021 4:00:00 AM 14.38 57.884 0.058 7.46 3.97 9.01
9/14/2021 4:15:00 AM 14.34 57.812 0.058 7.45 3.67 9.02
9/14/2021 4:30:00 AM 14.32 57.776 0.058 7.45 3.57 9.02
9/14/2021 4:45:00 AM 14.3 57.74 0.058 7.45 3.72 9.04
9/14/2021 5:00:00 AM 14.27 57.686 0.058 7.44 3.58 9.04
9/14/2021 5:15:00 AM 14.24 57.632 0.058 7.44 4.1 9.05
9/14/2021 5:30:00 AM 14.21 57.578 0.058 7.44 4.55 9.06
9/14/2021 5:45:00 AM 14.19 57.542 0.058 7.44 3.66 9.06
9/14/2021 6:00:00 AM 14.17 57.506 0.058 7.43 3.98 9.07
9/14/2021 6:15:00 AM 14.15 57.47 0.058 7.43 3.9 9.08
9/14/2021 6:30:00 AM 14.14 57.452 0.058 7.43 4.11 9.09
9/14/2021 6:45:00 AM 14.12 57.416 0.058 7.43 3.66 9.09
9/14/2021 7:00:00 AM 14.11 57.398 0.058 7.43 3.8 9.1
9/14/2021 7:15:00 AM 14.09 57.362 0.058 7.43 3.68 9.11
9/14/2021 7:30:00 AM 14.08 57.344 0.058 7.43 3.97 9.14
9/14/2021 7:45:00 AM 14.07 57.326 0.058 7.43 3.98 9.16
9/14/2021 8:00:00 AM 14.07 57.326 0.058 7.45 3.92 9.19
9/14/2021 8:15:00 AM 14.08 57.344 0.058 7.47 3.35 9.24
9/14/2021 8:30:00 AM 14.1 57.38 0.058 7.5 3.12 9.32
9/14/2021 8:45:00 AM 14.14 57.452 0.058 7.54 3.31 9.38
9/14/2021 9:00:00 AM 14.18 57.524 0.058 7.57 3.21 9.42
9/14/2021 9:15:00 AM 14.24 57.632 0.058 7.59 3.1 9.47
9/14/2021 9:30:00 AM 14.32 57.776 0.057 7.62 3.2 9.53
9/14/2021 9:45:00 AM 14.4 57.92 0.057 7.64 2.99 9.55
9/14/2021 10:00:00 AM 14.51 58.118 0.057 7.67 3.37 9.58
9/14/2021 10:15:00 AM 14.63 58.334 0.057 7.7 2.91 9.59
9/14/2021 10:30:00 AM 14.77 58.586 0.057 7.73 3.09 9.61
9/14/2021 10:45:00 AM 14.89 58.802 0.057 7.75 2.76 9.59
9/14/2021 11:00:00 AM 14.98 58.964 0.056 7.76 3.87 9.57
9/14/2021 11:15:00 AM 15.1 59.18 0.056 7.77 3.11 9.56
9/14/2021 11:30:00 AM 15.19 59.342 0.056 7.78 3.04 9.54
9/14/2021 11:45:00 AM 15.36 59.648 0.056 7.81 3 9.55
9/14/2021 12:00:00 PM 15.51 59.918 0.056 7.82 2.94 9.53
9/14/2021 12:15:00 PM 15.56 60.008 0.056 7.82 2.77 9.49
9/14/2021 12:30:00 PM 15.73 60.314 0.056 7.85 2.79 9.5
9/14/2021 12:45:00 PM 15.99 60.782 0.056 7.88 2.8 9.49
9/14/2021 1:00:00 PM 16.15 61.07 0.056 7.88 2.73 9.44
9/14/2021 1:15:00 PM 16.34 61.412 0.056 7.89 2.79 9.41
9/14/2021 1:30:00 PM 16.58 61.844 0.056 7.92 2.77 9.38
9/14/2021 1:45:00 PM 16.77 62.186 0.056 7.92 2.6 9.34
9/14/2021 2:00:00 PM 16.95 62.51 0.056 7.93 2.73 9.3
9/14/2021 2:15:00 PM 17.11 62.798 0.056 7.93 3.09 9.25
9/14/2021 2:30:00 PM 17.22 62.996 0.056 7.93 2.7 9.21
9/14/2021 2:45:00 PM 17.27 63.086 0.056 7.91 4.18 9.15
9/14/2021 3:00:00 PM 17.27 63.086 0.056 7.9 3.03 9.14
9/14/2021 3:15:00 PM 17.28 63.104 0.056 7.89 2.73 9.12
9/14/2021 3:30:00 PM 17.28 63.104 0.056 7.88 2.54 9.09
9/14/2021 3:45:00 PM 17.27 63.086 0.056 7.89 2.92 9.11
9/14/2021 4:00:00 PM 17.28 63.104 0.056 7.89 2.89 9.1
9/14/2021 4:15:00 PM 17.3 63.14 0.056 7.89 2.85 9.08
9/14/2021 4:30:00 PM 17.31 63.158 0.056 7.89 2.83 9.07
9/14/2021 4:45:00 PM 17.34 63.212 0.056 7.89 2.94 9.02
9/14/2021 5:00:00 PM 17.38 63.284 0.056 7.88 2.88 9.02
9/14/2021 5:15:00 PM 17.38 63.284 0.056 7.87 3.02 8.98
9/14/2021 5:30:00 PM 17.38 63.284 0.056 7.84 2.75 8.95
9/14/2021 5:45:00 PM 17.34 63.212 0.056 7.83 2.75 8.89
9/14/2021 6:00:00 PM 17.32 63.176 0.056 7.83 2.76 8.89
9/14/2021 6:15:00 PM 17.26 63.068 0.057 7.79 2.81 8.85
9/14/2021 6:30:00 PM 17.17 62.906 0.057 7.76 2.85 8.79
9/14/2021 6:45:00 PM 17.06 62.708 0.057 7.72 2.97 8.74
9/14/2021 7:00:00 PM 16.95 62.51 0.057 7.69 2.86 8.69
9/14/2021 7:15:00 PM 16.83 62.294 0.057 7.65 2.95 8.66
9/14/2021 7:30:00 PM 16.72 62.096 0.057 7.62 3.15 8.63
9/14/2021 7:45:00 PM 16.62 61.916 0.058 7.6 3.48 8.6
9/14/2021 8:00:00 PM 16.52 61.736 0.058 7.58 3.94 8.59
9/14/2021 8:15:00 PM 16.44 61.592 0.058 7.56 3.91 8.59
9/14/2021 8:30:00 PM 16.35 61.43 0.058 7.55 4.33 8.59
9/14/2021 8:45:00 PM 16.27 61.286 0.058 7.54 3.78 8.6
9/14/2021 9:00:00 PM 16.19 61.142 0.058 7.53 3.53 8.6
9/14/2021 9:15:00 PM 16.11 60.998 0.059 7.53 3.42 8.6
9/14/2021 9:30:00 PM 16.02 60.836 0.059 7.53 3.25 8.62
9/14/2021 9:45:00 PM 15.94 60.692 0.059 7.52 3.48 8.64
9/14/2021 10:00:00 PM 15.85 60.53 0.059 7.52 3.2 8.64
9/14/2021 10:15:00 PM 15.77 60.386 0.059 7.51 3.3 8.66
9/14/2021 10:30:00 PM 15.68 60.224 0.059 7.51 3.03 8.69
9/14/2021 10:45:00 PM 15.6 60.08 0.059 7.51 3.31 8.71
9/14/2021 11:00:00 PM 15.52 59.936 0.059 7.51 3.37 8.72
9/14/2021 11:15:00 PM 15.45 59.81 0.059 7.51 3.09 8.74
9/14/2021 11:30:00 PM 15.38 59.684 0.059 7.5 3.13 8.74
9/14/2021 11:45:00 PM 15.31 59.558 0.059 7.5 3.06 8.77
9/15/2021 12:00:00 AM 15.25 59.45 0.059 7.51 3.01 8.78
9/15/2021 12:15:00 AM 15.19 59.342 0.06 7.5 2.98 8.79
9/15/2021 12:30:00 AM 15.13 59.234 0.06 7.5 3.09 8.8
9/15/2021 12:45:00 AM 15.07 59.126 0.06 7.49 3.1 8.81
9/15/2021 1:00:00 AM 15.02 59.036 0.06 7.49 3.69 8.83
9/15/2021 1:15:00 AM 14.97 58.946 0.06 7.48 3.51 8.84
9/15/2021 1:30:00 AM 14.92 58.856 0.06 7.48 3.9 8.85
9/15/2021 1:45:00 AM 14.87 58.766 0.06 7.49 3.12 8.86
9/15/2021 2:00:00 AM 14.82 58.676 0.06 7.48 3.36 8.87
9/15/2021 2:15:00 AM 14.78 58.604 0.06 7.48 3.48 8.87
9/15/2021 2:30:00 AM 14.74 58.532 0.06 7.48 3.06 8.89
9/15/2021 2:45:00 AM 14.7 58.46 0.06 7.48 3.16 8.9
9/15/2021 3:00:00 AM 14.65 58.37 0.06 7.47 3.39 8.91
9/15/2021 3:15:00 AM 14.61 58.298 0.06 7.47 3.53 8.92
9/15/2021 3:30:00 AM 14.57 58.226 0.06 7.47 3.52 8.92
9/15/2021 3:45:00 AM 14.53 58.154 0.06 7.46 3.6 8.93
9/15/2021 4:00:00 AM 14.49 58.082 0.06 7.45 3.75 8.93
9/15/2021 4:15:00 AM 14.46 58.028 0.06 7.45 3.61 8.95
9/15/2021 4:30:00 AM 14.43 57.974 0.06 7.45 3.26 8.94
9/15/2021 4:45:00 AM 14.39 57.902 0.06 7.45 3.15 8.96
9/15/2021 5:00:00 AM 14.36 57.848 0.06 7.45 3.28 8.97
9/15/2021 5:15:00 AM 14.33 57.794 0.06 7.45 3.18 8.97
9/15/2021 5:30:00 AM 14.3 57.74 0.06 7.45 3.47 8.98
9/15/2021 5:45:00 AM 14.28 57.704 0.06 7.45 3.6 8.96
9/15/2021 6:00:00 AM 14.26 57.668 0.06 7.44 3.67 8.99
9/15/2021 6:15:00 AM 14.26 57.668 0.06 7.45 3.93 9
9/15/2021 6:30:00 AM 14.24 57.632 0.06 7.45 3.58 8.99
9/15/2021 6:45:00 AM 14.22 57.596 0.06 7.44 3.69 9
9/15/2021 7:00:00 AM 14.19 57.542 0.06 7.45 4.29 9.01
9/15/2021 7:15:00 AM 14.17 57.506 0.06 7.44 4.96 9.04
9/15/2021 7:30:00 AM 14.16 57.488 0.059 7.45 4.75 9.06
9/15/2021 7:45:00 AM 14.15 57.47 0.059 7.46 3.98 9.09
9/15/2021 8:00:00 AM 14.15 57.47 0.059 7.46 3.57 9.13
9/15/2021 8:15:00 AM 14.16 57.488 0.059 7.48 3.51 9.2
9/15/2021 8:30:00 AM 14.16 57.488 0.059 7.48 3.13 9.24
9/15/2021 8:45:00 AM 14.19 57.542 0.059 7.5 3.13 9.28
9/15/2021 9:00:00 AM 14.26 57.668 0.059 7.54 3.17 9.37
9/15/2021 9:15:00 AM 14.4 57.92 0.059 7.59 3.13 9.44
9/15/2021 9:30:00 AM 14.46 58.028 0.059 7.62 2.95 9.44
9/15/2021 9:45:00 AM 14.53 58.154 0.058 7.65 3.08 9.43
9/15/2021 10:00:00 AM 14.64 58.352 0.058 7.68 3.1 9.46
9/15/2021 10:15:00 AM 14.69 58.442 0.058 7.68 3.04 9.43
9/15/2021 10:30:00 AM 14.83 58.694 0.058 7.72 2.97 9.47
9/15/2021 10:45:00 AM 14.89 58.802 0.058 7.72 3.24 9.47
9/15/2021 11:00:00 AM 14.89 58.802 0.058 7.69 2.93 9.37
9/15/2021 11:15:00 AM 14.89 58.802 0.058 7.68 2.84 9.35
9/15/2021 11:30:00 AM 14.97 58.946 0.058 7.71 2.9 9.42
9/15/2021 11:45:00 AM 15.09 59.162 0.058 7.75 2.9 9.47
9/15/2021 12:00:00 PM 15.14 59.252 0.058 7.76 2.86 9.46
9/15/2021 12:15:00 PM 15.18 59.324 0.058 7.76 3.07 9.42
9/15/2021 12:30:00 PM 15.25 59.45 0.057 7.78 2.95 9.44
9/15/2021 12:45:00 PM 15.32 59.576 0.057 7.78 3.07 9.41
9/15/2021 1:00:00 PM 15.34 59.612 0.057 7.76 2.98 9.34
9/15/2021 1:15:00 PM 15.37 59.666 0.057 7.75 2.92 9.32
9/15/2021 1:30:00 PM 15.41 59.738 0.057 7.76 2.88 9.32
9/15/2021 1:45:00 PM 15.42 59.756 0.057 7.73 2.93 9.22
9/15/2021 2:00:00 PM 15.43 59.774 0.057 7.74 2.86 9.23
9/15/2021 2:15:00 PM 15.44 59.792 0.057 7.74 2.85 9.26
9/15/2021 2:30:00 PM 15.49 59.882 0.057 7.76 2.91 9.29
9/15/2021 2:45:00 PM 15.55 59.99 0.057 7.78 2.85 9.32
9/15/2021 3:00:00 PM 15.57 60.026 0.057 7.78 2.93 9.29
9/15/2021 3:15:00 PM 15.56 60.008 0.057 7.75 2.79 9.19
9/15/2021 3:30:00 PM 15.55 59.99 0.057 7.71 3.07 9.08
9/15/2021 3:45:00 PM 15.54 59.972 0.057 7.69 3.21 9.06
9/15/2021 4:00:00 PM 15.5 59.9 0.057 7.67 3.24 9.04
9/15/2021 4:15:00 PM 15.47 59.846 0.057 7.66 3.06 9.03
9/15/2021 4:30:00 PM 15.43 59.774 0.057 7.65 3.26 9
9/15/2021 4:45:00 PM 15.4 59.72 0.057 7.64 3.78 9
9/15/2021 5:00:00 PM 15.37 59.666 0.057 7.62 3.36 9
9/15/2021 5:15:00 PM 15.34 59.612 0.057 7.6 3.42 8.96
9/15/2021 5:30:00 PM 15.3 59.54 0.057 7.59 3.5 8.93
9/15/2021 5:45:00 PM 15.28 59.504 0.057 7.59 3.53 8.95
9/15/2021 6:00:00 PM 15.25 59.45 0.057 7.58 3.57 8.97
9/15/2021 6:15:00 PM 15.22 59.396 0.058 7.57 3.91 8.96
9/15/2021 6:30:00 PM 15.19 59.342 0.058 7.57 3.72 8.95
9/15/2021 6:45:00 PM 15.16 59.288 0.058 7.56 4.24 8.95
9/15/2021 7:00:00 PM 15.12 59.216 0.059 7.56 4.32 8.96
9/15/2021 7:15:00 PM 15.07 59.126 0.059 7.55 4.72 8.95
9/15/2021 7:30:00 PM 15.02 59.036 0.059 7.55 5.04 8.93
9/15/2021 7:45:00 PM 14.98 58.964 0.06 7.54 5.62 8.93
9/15/2021 8:00:00 PM 14.95 58.91 0.06 7.54 5.98 8.93
9/15/2021 8:15:00 PM 14.92 58.856 0.061 7.55 6.49 8.92
9/15/2021 8:30:00 PM 14.9 58.82 0.061 7.54 5.33 8.93
9/15/2021 8:45:00 PM 14.88 58.784 0.061 7.53 5.49 8.93
9/15/2021 9:00:00 PM 14.86 58.748 0.061 7.54 5.4 8.93
9/15/2021 9:15:00 PM 14.84 58.712 0.061 7.53 6.04 8.93
9/15/2021 9:30:00 PM 14.81 58.658 0.061 7.53 4.93 8.95
9/15/2021 9:45:00 PM 14.78 58.604 0.061 7.53 4.66 8.95
9/15/2021 10:00:00 PM 14.75 58.55 0.062 7.53 4.49 8.97
9/15/2021 10:15:00 PM 14.72 58.496 0.062 7.53 4.15 8.97
9/15/2021 10:30:00 PM 14.69 58.442 0.062 7.52 4.54 8.98
9/15/2021 10:45:00 PM 14.66 58.388 0.062 7.52 4.82 8.98
9/15/2021 11:00:00 PM 14.64 58.352 0.063 7.53 4.6 8.99
9/15/2021 11:15:00 PM 14.61 58.298 0.063 7.54 4.8 9
9/15/2021 11:30:00 PM 14.59 58.262 0.063 7.53 4.77 9
9/15/2021 11:45:00 PM 14.56 58.208 0.063 7.53 4.5 9.01
9/16/2021 12:00:00 AM 14.53 58.154 0.063 7.53 4.77 9.02
9/16/2021 12:15:00 AM 14.49 58.082 0.063 7.53 5.27 9.03
9/16/2021 12:30:00 AM 14.45 58.01 0.063 7.53 4.15 9.04
9/16/2021 12:45:00 AM 14.42 57.956 0.062 7.53 3.99 9.05
9/16/2021 1:00:00 AM 14.38 57.884 0.062 7.52 4.18 9.05
9/16/2021 1:15:00 AM 14.34 57.812 0.062 7.52 3.43 9.06
9/16/2021 1:30:00 AM 14.31 57.758 0.062 7.52 4.36 9.08
9/16/2021 1:45:00 AM 14.28 57.704 0.062 7.52 3.69 9.08
9/16/2021 2:00:00 AM 14.24 57.632 0.062 7.52 3.58 9.09
9/16/2021 2:15:00 AM 14.21 57.578 0.062 7.53 3.82 9.1
9/16/2021 2:30:00 AM 14.18 57.524 0.062 7.53 3.81 9.11
9/16/2021 2:45:00 AM 14.14 57.452 0.062 7.53 4.2 9.11
9/16/2021 3:00:00 AM 14.11 57.398 0.062 7.53 3.69 9.13
9/16/2021 3:15:00 AM 14.07 57.326 0.062 7.52 4.49 9.12
9/16/2021 3:30:00 AM 14.04 57.272 0.062 7.53 3.69 9.14
9/16/2021 3:45:00 AM 13.99 57.182 0.062 7.52 4.14 9.15
9/16/2021 4:00:00 AM 13.96 57.128 0.063 7.52 4.52 9.16
9/16/2021 4:15:00 AM 13.92 57.056 0.063 7.52 4.24 9.17
9/16/2021 4:30:00 AM 13.88 56.984 0.063 7.52 3.74 9.17
9/16/2021 4:45:00 AM 13.85 56.93 0.063 7.52 3.85 9.18
9/16/2021 5:00:00 AM 13.82 56.876 0.063 7.52 3.8 9.19
9/16/2021 5:15:00 AM 13.79 56.822 0.063 7.51 4.23 9.2
9/16/2021 5:30:00 AM 13.76 56.768 0.064 7.51 4.19 9.21
9/16/2021 5:45:00 AM 13.73 56.714 0.064 7.52 3.95 9.21
9/16/2021 6:00:00 AM 13.7 56.66 0.064 7.51 4.24 9.21
9/16/2021 6:15:00 AM 13.67 56.606 0.064 7.51 3.87 9.23
9/16/2021 6:30:00 AM 13.64 56.552 0.064 7.51 4.74 9.24
9/16/2021 6:45:00 AM 13.62 56.516 0.064 7.51 4.6 9.23
9/16/2021 7:00:00 AM 13.6 56.48 0.064 7.51 4.59 9.25
9/16/2021 7:15:00 AM 13.58 56.444 0.064 7.52 4.12 9.27
9/16/2021 7:30:00 AM 13.57 56.426 0.064 7.53 3.43 9.3
9/16/2021 7:45:00 AM 13.56 56.408 0.065 7.53 3.87 9.33
9/16/2021 8:00:00 AM 13.55 56.39 0.065 7.55 3.95 9.38
9/16/2021 8:15:00 AM 13.56 56.408 0.064 7.56 3.21 9.41
9/16/2021 8:30:00 AM 13.56 56.408 0.065 7.57 2.94 9.45
9/16/2021 8:45:00 AM 13.57 56.426 0.064 7.58 3.01 9.48
9/16/2021 9:00:00 AM 13.59 56.462 0.064 7.59 2.95 9.53
9/16/2021 9:15:00 AM 13.62 56.516 0.064 7.62 3.26 9.58
9/16/2021 9:30:00 AM 13.67 56.606 0.064 7.65 3.3 9.64
9/16/2021 9:45:00 AM 13.73 56.714 0.064 7.67 3.02 9.69
9/16/2021 10:00:00 AM 13.74 56.732 0.064 7.67 2.96 9.67
9/16/2021 10:15:00 AM 13.79 56.822 0.064 7.68 2.97 9.69
9/16/2021 10:30:00 AM 13.85 56.93 0.064 7.71 3.05 9.73
9/16/2021 10:45:00 AM 13.98 57.164 0.064 7.74 3.01 9.76
9/16/2021 11:00:00 AM 14.12 57.416 0.063 7.76 3.14 9.78
9/16/2021 11:15:00 AM 14.24 57.632 0.063 7.77 2.89 9.77
9/16/2021 11:30:00 AM 14.32 57.776 0.063 7.78 3.09 9.76
9/16/2021 11:45:00 AM 14.5 58.1 0.063 7.8 3.05 9.74
9/16/2021 12:00:00 PM 14.69 58.442 0.063 7.81 2.82 9.69
9/16/2021 12:15:00 PM 14.85 58.73 0.063 7.82 2.82 9.66
9/16/2021 12:30:00 PM 15.01 59.018 0.063 7.83 2.92 9.66
9/16/2021 12:45:00 PM 15.17 59.306 0.063 7.86 2.8 9.68
9/16/2021 1:00:00 PM 15.38 59.684 0.063 7.88 3.59 9.66
9/16/2021 1:15:00 PM 15.53 59.954 0.063 7.87 2.91 9.58
9/16/2021 1:30:00 PM 15.63 60.134 0.063 7.86 2.91 9.54
9/16/2021 1:45:00 PM 15.72 60.296 0.063 7.86 2.82 9.5
9/16/2021 2:00:00 PM 15.86 60.548 0.063 7.86 2.89 9.46
9/16/2021 2:15:00 PM 15.94 60.692 0.063 7.85 2.87 9.4
9/16/2021 2:30:00 PM 15.99 60.782 0.063 7.85 3.12 9.41
9/16/2021 2:45:00 PM 16.04 60.872 0.062 7.87 2.97 9.42
9/16/2021 3:00:00 PM 16.18 61.124 0.062 7.89 2.96 9.44
9/16/2021 3:15:00 PM 16.25 61.25 0.062 7.89 2.92 9.42
9/16/2021 3:30:00 PM 16.27 61.286 0.062 7.88 2.87 9.39
9/16/2021 3:45:00 PM 16.2 61.16 0.062 7.86 2.85 9.34
9/16/2021 4:00:00 PM 16.2 61.16 0.062 7.86 2.81 9.33
9/16/2021 4:15:00 PM 16.3 61.34 0.062 7.87 3.18 9.31
9/16/2021 4:30:00 PM 16.32 61.376 0.062 7.86 2.94 9.29
9/16/2021 4:45:00 PM 16.28 61.304 0.062 7.85 3.18 9.27
9/16/2021 5:00:00 PM 16.28 61.304 0.062 7.85 3.14 9.25
9/16/2021 5:15:00 PM 16.24 61.232 0.062 7.82 2.9 9.21
9/16/2021 5:30:00 PM 16.17 61.106 0.062 7.81 2.86 9.21
9/16/2021 5:45:00 PM 16.08 60.944 0.062 7.79 3.05 9.2
9/16/2021 6:00:00 PM 16 60.8 0.062 7.77 3.1 9.16
9/16/2021 6:15:00 PM 15.91 60.638 0.062 7.73 2.89 9.09
9/16/2021 6:30:00 PM 15.83 60.494 0.062 7.7 3.07 9.03
9/16/2021 6:45:00 PM 15.77 60.386 0.063 7.67 3.41 8.97
9/16/2021 7:00:00 PM 15.7 60.26 0.063 7.65 3.57 8.94
9/16/2021 7:15:00 PM 15.64 60.152 0.063 7.63 3.18 8.92
9/16/2021 7:30:00 PM 15.58 60.044 0.063 7.61 3.42 8.9
9/16/2021 7:45:00 PM 15.52 59.936 0.063 7.59 3.92 8.87
9/16/2021 8:00:00 PM 15.47 59.846 0.063 7.58 3.64 8.87
9/16/2021 8:15:00 PM 15.42 59.756 0.063 7.57 3.64 8.87
9/16/2021 8:30:00 PM 15.36 59.648 0.064 7.56 3.44 8.88
9/16/2021 8:45:00 PM 15.31 59.558 0.064 7.56 3.81 8.88
9/16/2021 9:00:00 PM 15.26 59.468 0.064 7.54 3.49 8.88
9/16/2021 9:15:00 PM 15.21 59.378 0.064 7.54 3.9 8.89
9/16/2021 9:30:00 PM 15.16 59.288 0.064 7.53 3.75 8.9
9/16/2021 9:45:00 PM 15.11 59.198 0.064 7.53 3.27 8.9
9/16/2021 10:00:00 PM 15.07 59.126 0.064 7.52 3.27 8.9
9/16/2021 10:15:00 PM 15.02 59.036 0.064 7.52 3.35 8.93
9/16/2021 10:30:00 PM 14.97 58.946 0.064 7.51 3.34 8.93
9/16/2021 10:45:00 PM 14.93 58.874 0.064 7.51 3.18 8.94
9/16/2021 11:00:00 PM 14.89 58.802 0.064 7.5 3.71 8.95
9/16/2021 11:15:00 PM 14.85 58.73 0.064 7.5 3.22 8.96
9/16/2021 11:30:00 PM 14.82 58.676 0.064 7.49 3.29 8.97
9/16/2021 11:45:00 PM 14.78 58.604 0.064 7.49 3.09 8.98
9/17/2021 12:00:00 AM 14.75 58.55 0.064 7.49 3.25 8.98
9/17/2021 12:15:00 AM 14.72 58.496 0.064 7.49 3.26 8.98
9/17/2021 12:30:00 AM 14.69 58.442 0.064 7.48 3.07 9
9/17/2021 12:45:00 AM 14.66 58.388 0.065 7.49 3.36 8.99
9/17/2021 1:00:00 AM 14.64 58.352 0.065 7.49 3.69 8.99
9/17/2021 1:15:00 AM 14.62 58.316 0.065 7.48 3.7 9
9/17/2021 1:30:00 AM 14.59 58.262 0.065 7.49 3.42 9.01
9/17/2021 1:45:00 AM 14.57 58.226 0.065 7.48 3.38 9.01
9/17/2021 2:00:00 AM 14.56 58.208 0.065 7.48 3.35 8.98
9/17/2021 2:15:00 AM 14.54 58.172 0.065 7.48 3.49 9.01
9/17/2021 2:30:00 AM 14.52 58.136 0.065 7.48 3.47 9.02
9/17/2021 2:45:00 AM 14.51 58.118 0.065 7.48 3.05 9.03
9/17/2021 3:00:00 AM 14.49 58.082 0.065 7.48 3.26 9.03
9/17/2021 3:15:00 AM 14.48 58.064 0.065 7.48 3.27 9.03
9/17/2021 3:30:00 AM 14.46 58.028 0.065 7.48 3.04 9.03
9/17/2021 3:45:00 AM 14.44 57.992 0.065 7.47 3.55 9.01
9/17/2021 4:00:00 AM 14.42 57.956 0.065 7.46 4.7 9.04
9/17/2021 4:15:00 AM 14.4 57.92 0.065 7.47 3.38 9.04
9/17/2021 4:30:00 AM 14.39 57.902 0.065 7.47 3.12 9.05
9/17/2021 4:45:00 AM 14.37 57.866 0.065 7.46 3.08 9.05
9/17/2021 5:00:00 AM 14.35 57.83 0.065 7.45 3.16 9.04
9/17/2021 5:15:00 AM 14.33 57.794 0.065 7.45 3.7 9.06
9/17/2021 5:30:00 AM 14.31 57.758 0.065 7.44 3.66 9.06
9/17/2021 5:45:00 AM 14.29 57.722 0.065 7.44 3.6 9.06
9/17/2021 6:00:00 AM 14.25 57.65 0.065 7.44 3.27 9.07
9/17/2021 6:15:00 AM 14.22 57.596 0.065 7.43 3.33 9.09
9/17/2021 6:30:00 AM 14.18 57.524 0.065 7.43 3.44 9.1
9/17/2021 6:45:00 AM 14.14 57.452 0.065 7.42 3.97 9.08
9/17/2021 7:00:00 AM 14.11 57.398 0.065 7.43 4.66 9.09
9/17/2021 7:15:00 AM 14.1 57.38 0.065 7.43 4.95 9.13
9/17/2021 7:30:00 AM 14.09 57.362 0.065 7.44 4.33 9.15
9/17/2021 7:45:00 AM 14.09 57.362 0.065 7.44 3.8 9.15
9/17/2021 8:00:00 AM 14.1 57.38 0.064 7.46 3.48 9.18
9/17/2021 8:15:00 AM 14.11 57.398 0.064 7.48 3.35 9.22
9/17/2021 8:30:00 AM 14.12 57.416 0.064 7.49 3.21 9.26
9/17/2021 8:45:00 AM 14.14 57.452 0.064 7.5 3.2 9.29
9/17/2021 9:00:00 AM 14.15 57.47 0.064 7.52 2.98 9.31
9/17/2021 9:15:00 AM 14.17 57.506 0.064 7.54 3.2 9.35
9/17/2021 9:30:00 AM 14.2 57.56 0.064 7.56 2.91 9.39
9/17/2021 9:45:00 AM 14.23 57.614 0.064 7.58 3.1 9.43
9/17/2021 10:00:00 AM 14.27 57.686 0.064 7.61 2.95 9.48
9/17/2021 10:15:00 AM 14.31 57.758 0.063 7.63 2.87 9.5
9/17/2021 10:30:00 AM 14.36 57.848 0.063 7.66 3.32 9.54
9/17/2021 10:45:00 AM 14.45 58.01 0.063 7.68 3.06 9.59
9/17/2021 11:00:00 AM 14.53 58.154 0.063 7.71 3 9.6
9/17/2021 11:15:00 AM 14.65 58.37 0.063 7.74 2.99 9.63
9/17/2021 11:30:00 AM 14.79 58.622 0.063 7.77 3.02 9.64
9/17/2021 11:45:00 AM 14.9 58.82 0.063 7.78 2.88 9.64
9/17/2021 12:00:00 PM 14.95 58.91 0.063 7.78 2.84 9.58
9/17/2021 12:15:00 PM 15 59 0.062 7.78 2.75 9.56
9/17/2021 12:30:00 PM 15.08 59.144 0.062 7.79 2.71 9.56
9/17/2021 12:45:00 PM 15.17 59.306 0.062 7.81 2.76 9.59
9/17/2021 1:00:00 PM 15.23 59.414 0.062 7.81 2.95 9.56
9/17/2021 1:15:00 PM 15.24 59.432 0.062 7.8 2.87 9.53
9/17/2021 1:30:00 PM 15.26 59.468 0.062 7.79 2.94 9.49
9/17/2021 1:45:00 PM 15.3 59.54 0.062 7.79 2.97 9.49
9/17/2021 2:00:00 PM 15.34 59.612 0.062 7.79 2.75 9.47
9/17/2021 2:15:00 PM 15.4 59.72 0.062 7.81 2.79 9.48
9/17/2021 2:30:00 PM 15.39 59.702 0.062 7.78 2.79 9.4
9/17/2021 2:45:00 PM 15.42 59.756 0.062 7.78 2.9 9.38
9/17/2021 3:00:00 PM 15.53 59.954 0.062 7.82 2.88 9.42
9/17/2021 3:15:00 PM 15.68 60.224 0.062 7.85 2.79 9.49
9/17/2021 3:30:00 PM 15.8 60.44 0.062 7.86 2.93 9.43
9/17/2021 3:45:00 PM 15.91 60.638 0.062 7.85 2.81 9.35
9/17/2021 4:00:00 PM 16.04 60.872 0.062 7.86 2.91 9.31
9/17/2021 4:15:00 PM 16.23 61.214 0.062 7.87 2.84 9.26
9/17/2021 4:30:00 PM 16.35 61.43 0.061 7.86 2.89 9.24
9/17/2021 4:45:00 PM 16.41 61.538 0.061 7.85 2.77 9.2
9/17/2021 5:00:00 PM 16.47 61.646 0.061 7.84 2.9 9.15
9/17/2021 5:15:00 PM 16.51 61.718 0.061 7.83 3.03 9.11
9/17/2021 5:30:00 PM 16.5 61.7 0.062 7.81 2.81 9.09
9/17/2021 5:45:00 PM 16.45 61.61 0.062 7.79 2.87 9.06
9/17/2021 6:00:00 PM 16.39 61.502 0.062 7.77 2.77 9.03
9/17/2021 6:15:00 PM 16.31 61.358 0.062 7.75 3.01 8.98
9/17/2021 6:30:00 PM 16.22 61.196 0.062 7.72 2.87 8.95
9/17/2021 6:45:00 PM 16.12 61.016 0.062 7.69 3.35 8.93
9/17/2021 7:00:00 PM 16.02 60.836 0.062 7.67 3.05 8.88
9/17/2021 7:15:00 PM 15.94 60.692 0.062 7.65 3.12 8.84
9/17/2021 7:30:00 PM 15.86 60.548 0.063 7.63 3.07 8.84
9/17/2021 7:45:00 PM 15.78 60.404 0.063 7.6 3.62 8.81
9/17/2021 8:00:00 PM 15.71 60.278 0.063 7.58 3.64 8.8
9/17/2021 8:15:00 PM 15.64 60.152 0.063 7.57 4.25 8.8
9/17/2021 8:30:00 PM 15.57 60.026 0.063 7.56 3.83 8.78
9/17/2021 8:45:00 PM 15.5 59.9 0.063 7.55 3.33 8.8
9/17/2021 9:00:00 PM 15.43 59.774 0.063 7.55 3.32 8.8
9/17/2021 9:15:00 PM 15.36 59.648 0.063 7.53 3.35 8.8
9/17/2021 9:30:00 PM 15.29 59.522 0.063 7.53 3.29 8.81
9/17/2021 9:45:00 PM 15.23 59.414 0.063 7.53 3.28 8.84
9/17/2021 10:00:00 PM 15.16 59.288 0.063 7.53 3.3 8.83
9/17/2021 10:15:00 PM 15.1 59.18 0.064 7.53 3.07 8.85
9/17/2021 10:30:00 PM 15.04 59.072 0.064 7.52 3.44 8.86
9/17/2021 10:45:00 PM 14.97 58.946 0.064 7.51 3.14 8.86
9/17/2021 11:00:00 PM 14.93 58.874 0.064 7.52 3.22 8.84
9/17/2021 11:15:00 PM 14.89 58.802 0.064 7.51 3.39 8.85
9/17/2021 11:30:00 PM 14.85 58.73 0.064 7.51 3.26 8.88
9/17/2021 11:45:00 PM 14.82 58.676 0.064 7.51 3.38 8.92
9/18/2021 12:00:00 AM 14.8 58.64 0.064 7.52 3.17 8.92
9/18/2021 12:15:00 AM 14.78 58.604 0.064 7.52 3.28 8.93
9/18/2021 12:30:00 AM 14.75 58.55 0.064 7.51 3.1 8.93
9/18/2021 12:45:00 AM 14.73 58.514 0.064 7.52 2.93 8.96
9/18/2021 1:00:00 AM 14.71 58.478 0.064 7.51 3.12 8.93
9/18/2021 1:15:00 AM 14.68 58.424 0.064 7.52 3.08 8.95
9/18/2021 1:30:00 AM 14.66 58.388 0.064 7.51 3.17 8.97
9/18/2021 1:45:00 AM 14.64 58.352 0.064 7.51 3.03 8.91
9/18/2021 2:00:00 AM 14.6 58.28 0.064 7.5 2.96 8.92
9/18/2021 2:15:00 AM 14.56 58.208 0.064 7.5 3.61 8.98
9/18/2021 2:30:00 AM 14.53 58.154 0.064 7.5 3.52 8.98
9/18/2021 2:45:00 AM 14.49 58.082 0.064 7.49 3.17 8.98
9/18/2021 3:00:00 AM 14.45 58.01 0.064 7.49 3.2 8.98
9/18/2021 3:15:00 AM 14.42 57.956 0.064 7.48 3.67 9
9/18/2021 3:30:00 AM 14.37 57.866 0.064 7.48 3.82 9.01
9/18/2021 3:45:00 AM 14.34 57.812 0.064 7.48 3.54 8.99
9/18/2021 4:00:00 AM 14.3 57.74 0.064 7.48 3.31 9.02
9/18/2021 4:15:00 AM 14.27 57.686 0.064 7.48 3.72 9.03
9/18/2021 4:30:00 AM 14.25 57.65 0.064 7.48 3.71 9.01
9/18/2021 4:45:00 AM 14.23 57.614 0.064 7.48 7.96 9.04
9/18/2021 5:00:00 AM 14.21 57.578 0.064 7.48 4.02 9.05
9/18/2021 5:15:00 AM 14.18 57.524 0.064 7.47 8.23 9.02
9/18/2021 5:30:00 AM 14.16 57.488 0.064 7.47 4.21 8.99
9/18/2021 5:45:00 AM 14.15 57.47 0.064 7.47 4.89 9.01
9/18/2021 6:00:00 AM 14.13 57.434 0.064 7.48 3.9 9.07
9/18/2021 6:15:00 AM 14.12 57.416 0.064 7.48 3.61 9.08
9/18/2021 6:30:00 AM 14.1 57.38 0.064 7.48 3.54 9.08
9/18/2021 6:45:00 AM 14.08 57.344 0.064 7.48 3.6 9.08
9/18/2021 7:00:00 AM 14.07 57.326 0.064 7.48 4.54 9.1
9/18/2021 7:15:00 AM 14.06 57.308 0.064 7.48 5.84 9.07
9/18/2021 7:30:00 AM 14.04 57.272 0.064 7.47 5 9.06
9/18/2021 7:45:00 AM 14.04 57.272 0.064 7.48 5.17 9.12
9/18/2021 8:00:00 AM 14.03 57.254 0.064 7.5 4.84 9.17
9/18/2021 8:15:00 AM 14.03 57.254 0.063 7.51 3.65 9.24
9/18/2021 8:30:00 AM 14.02 57.236 0.063 7.52 3.95 9.31
9/18/2021 8:45:00 AM 14.01 57.218 0.063 7.53 3.48 9.33
9/18/2021 9:00:00 AM 14.07 57.326 0.063 7.56 3.62 9.39
9/18/2021 9:15:00 AM 14.16 57.488 0.063 7.59 2.92 9.42
9/18/2021 9:30:00 AM 14.24 57.632 0.063 7.61 3.01 9.46
9/18/2021 9:45:00 AM 14.38 57.884 0.063 7.65 3.09 9.53
9/18/2021 10:00:00 AM 14.58 58.244 0.063 7.7 3.2 9.6
9/18/2021 10:15:00 AM 14.73 58.514 0.062 7.73 2.91 9.6
9/18/2021 10:30:00 AM 14.88 58.784 0.062 7.75 3.07 9.58
9/18/2021 10:45:00 AM 15.02 59.036 0.062 7.77 3.09 9.56
9/18/2021 11:00:00 AM 15.18 59.324 0.062 7.79 3.01 9.51
9/18/2021 11:15:00 AM 15.33 59.594 0.062 7.81 2.99 9.55
9/18/2021 11:30:00 AM 15.53 59.954 0.062 7.83 2.99 9.45
9/18/2021 11:45:00 AM 15.65 60.17 0.062 7.84 3.08 9.5
9/18/2021 12:00:00 PM 15.7 60.26 0.062 7.84 2.87 9.48
9/18/2021 12:15:00 PM 15.79 60.422 0.062 7.85 3.01 9.45
9/18/2021 12:30:00 PM 16 60.8 0.062 7.89 2.81 9.49
9/18/2021 12:45:00 PM 16.16 61.088 0.061 7.89 2.94 9.47
9/18/2021 1:00:00 PM 16.28 61.304 0.061 7.89 3.24 9.42
9/18/2021 1:15:00 PM 16.41 61.538 0.061 7.91 2.84 9.4
9/18/2021 1:30:00 PM 16.59 61.862 0.061 7.93 2.82 9.4
9/18/2021 1:45:00 PM 16.64 61.952 0.061 7.91 2.8 9.32
9/18/2021 2:00:00 PM 16.76 62.168 0.061 7.92 2.84 9.3
9/18/2021 2:15:00 PM 16.94 62.492 0.061 7.94 2.79 9.26
9/18/2021 2:30:00 PM 17.06 62.708 0.061 7.95 2.85 9.28
9/18/2021 2:45:00 PM 17.17 62.906 0.061 7.96 2.84 9.25
9/18/2021 3:00:00 PM 17.29 63.122 0.061 7.98 2.97 9.24
9/18/2021 3:15:00 PM 17.3 63.14 0.061 7.94 3 9.16
9/18/2021 3:30:00 PM 17.31 63.158 0.061 7.92 2.7 9.09
9/18/2021 3:45:00 PM 17.33 63.194 0.061 7.92 2.85 9.08
9/18/2021 4:00:00 PM 17.37 63.266 0.061 7.91 2.95 9.02
9/18/2021 4:15:00 PM 17.34 63.212 0.061 7.89 2.77 9.03
9/18/2021 4:30:00 PM 17.35 63.23 0.061 7.89 2.85 9.02
9/18/2021 4:45:00 PM 17.34 63.212 0.061 7.87 2.78 8.97
9/18/2021 5:00:00 PM 17.25 63.05 0.061 7.83 2.89 8.9
9/18/2021 5:15:00 PM 17.2 62.96 0.061 7.82 2.67 8.9
9/18/2021 5:30:00 PM 17.17 62.906 0.061 7.81 3.01 8.88
9/18/2021 5:45:00 PM 17.1 62.78 0.061 7.79 3.03 8.83
9/18/2021 6:00:00 PM 17.01 62.618 0.061 7.77 2.88 8.82
9/18/2021 6:15:00 PM 16.93 62.474 0.061 7.75 2.8 8.79
9/18/2021 6:30:00 PM 16.85 62.33 0.061 7.73 2.9 8.77
9/18/2021 6:45:00 PM 16.76 62.168 0.061 7.71 2.74 8.72
9/18/2021 7:00:00 PM 16.68 62.024 0.061 7.69 3.21 8.69
9/18/2021 7:15:00 PM 16.58 61.844 0.062 7.67 3.34 8.69
9/18/2021 7:30:00 PM 16.49 61.682 0.062 7.65 3.62 8.66
9/18/2021 7:45:00 PM 16.39 61.502 0.062 7.63 4.83 8.62
9/18/2021 8:00:00 PM 16.29 61.322 0.062 7.62 6.24 8.65
9/18/2021 8:15:00 PM 16.19 61.142 0.062 7.6 4.89 8.65
9/18/2021 8:30:00 PM 16.09 60.962 0.063 7.59 4.45 8.65
9/18/2021 8:45:00 PM 16 60.8 0.063 7.59 3.81 8.67
9/18/2021 9:00:00 PM 15.91 60.638 0.063 7.58 3.66 8.64
9/18/2021 9:15:00 PM 15.82 60.476 0.063 7.57 3.7 8.61
9/18/2021 9:30:00 PM 15.73 60.314 0.063 7.57 3.73 8.7
9/18/2021 9:45:00 PM 15.64 60.152 0.063 7.57 4.51 8.71
9/18/2021 10:00:00 PM 15.55 59.99 0.063 7.56 3.7 8.7
9/18/2021 10:15:00 PM 15.46 59.828 0.063 7.56 4.16 8.72
9/18/2021 10:30:00 PM 15.37 59.666 0.063 7.56 3.51 8.78
9/18/2021 10:45:00 PM 15.29 59.522 0.063 7.56 3.38 8.73
9/18/2021 11:00:00 PM 15.2 59.36 0.063 7.55 3.25 8.74
9/18/2021 11:15:00 PM 15.12 59.216 0.063 7.55 3.45 8.8
9/18/2021 11:30:00 PM 15.04 59.072 0.063 7.54 3.68 8.79
9/18/2021 11:45:00 PM 14.96 58.928 0.063 7.54 3.75 8.84
9/19/2021 12:00:00 AM 14.87 58.766 0.063 7.54 3.59 8.88
9/19/2021 12:15:00 AM 14.79 58.622 0.063 7.53 3.5 8.9
9/19/2021 12:30:00 AM 14.71 58.478 0.063 7.53 3.11 8.89
9/19/2021 12:45:00 AM 14.63 58.334 0.063 7.53 3.44 8.94
9/19/2021 1:00:00 AM 14.56 58.208 0.063 7.52 3.2 8.93
9/19/2021 1:15:00 AM 14.48 58.064 0.063 7.52 3.07 8.92
9/19/2021 1:30:00 AM 14.41 57.938 0.063 7.52 3.18 8.99
9/19/2021 1:45:00 AM 14.35 57.83 0.063 7.52 3.62 8.95
9/19/2021 2:00:00 AM 14.3 57.74 0.063 7.53 3.24 9.03
9/19/2021 2:15:00 AM 14.24 57.632 0.063 7.51 3.46 8.96
9/19/2021 2:30:00 AM 14.19 57.542 0.063 7.51 3.53 9.04
9/19/2021 2:45:00 AM 14.14 57.452 0.063 7.52 4.11 9.05
9/19/2021 3:00:00 AM 14.1 57.38 0.063 7.51 3.88 9.07
9/19/2021 3:15:00 AM 14.06 57.308 0.063 7.52 3.74 9.09
9/19/2021 3:30:00 AM 14.03 57.254 0.063 7.52 3.73 9.04
9/19/2021 3:45:00 AM 13.99 57.182 0.063 7.52 3.32 9.1
9/19/2021 4:00:00 AM 13.95 57.11 0.063 7.52 3.41 9.11
9/19/2021 4:15:00 AM 13.92 57.056 0.063 7.53 3.47 9.08
9/19/2021 4:30:00 AM 13.88 56.984 0.063 7.53 3.32 9.13
9/19/2021 4:45:00 AM 13.84 56.912 0.063 7.53 3.25 9.09
9/19/2021 5:00:00 AM 13.79 56.822 0.063 7.53 3.34 9.09
9/19/2021 5:15:00 AM 13.74 56.732 0.063 7.52 3.51 9.14
9/19/2021 5:30:00 AM 13.69 56.642 0.063 7.52 3.68 9.18
9/19/2021 5:45:00 AM 13.64 56.552 0.063 7.52 3.86 9.18
9/19/2021 6:00:00 AM 13.59 56.462 0.063 7.52 3.93 9.08
9/19/2021 6:15:00 AM 13.54 56.372 0.063 7.52 9.93 9.22
9/19/2021 6:30:00 AM 13.5 56.3 0.063 7.52 4.13 9.21
9/19/2021 6:45:00 AM 13.45 56.21 0.063 7.52 8.42 9.09
9/19/2021 7:00:00 AM 13.4 56.12 0.063 7.51 7.75 9.24
9/19/2021 7:15:00 AM 13.36 56.048 0.063 7.52 3.9 9.28
9/19/2021 7:30:00 AM 13.32 55.976 0.063 7.52 10.05 9.24
9/19/2021 7:45:00 AM 13.28 55.904 0.063 7.53 8.67 9.35
9/19/2021 8:00:00 AM 13.26 55.868 0.063 7.54 6.24 9.35
9/19/2021 8:15:00 AM 13.24 55.832 0.063 7.55 4.75 9.36
9/19/2021 8:30:00 AM 13.23 55.814 0.063 7.57 4.58 9.49
9/19/2021 8:45:00 AM 13.23 55.814 0.063 7.59 3.85 9.58
9/19/2021 9:00:00 AM 13.24 55.832 0.062 7.6 4.5 9.55
9/19/2021 9:15:00 AM 13.25 55.85 0.062 7.61 6.62 9.62
9/19/2021 9:30:00 AM 13.27 55.886 0.062 7.63 17.33 9.68
9/19/2021 9:45:00 AM 13.31 55.958 0.062 7.65 7.43 9.74
9/19/2021 10:00:00 AM 13.36 56.048 0.062 7.67 5.13 9.76
9/19/2021 10:15:00 AM 13.43 56.174 0.062 7.69 4.85 9.8
9/19/2021 10:30:00 AM 13.52 56.336 0.061 7.72 3.73 9.85
9/19/2021 10:45:00 AM 13.7 56.66 0.061 7.76 3.33 9.86
9/19/2021 11:00:00 AM 13.83 56.894 0.061 7.78 3.65 9.81
9/19/2021 11:15:00 AM 14.04 57.272 0.061 7.8 4.46 9.85
9/19/2021 11:30:00 AM 14.23 57.614 0.061 7.81 3.24 9.76
9/19/2021 11:45:00 AM 14.34 57.812 0.061 7.81 3.31 9.79
9/19/2021 12:00:00 PM 14.48 58.064 0.061 7.82 3.29 9.63
9/19/2021 12:15:00 PM 14.66 58.388 0.061 7.82 2.94 9.68
9/19/2021 12:30:00 PM 14.83 58.694 0.061 7.83 3.06 9.66
9/19/2021 12:45:00 PM 15.01 59.018 0.061 7.83 3.95 9.61
9/19/2021 1:00:00 PM 15.19 59.342 0.061 7.84 3.78 9.58
9/19/2021 1:15:00 PM 15.36 59.648 0.061 7.85 2.9 9.52
9/19/2021 1:30:00 PM 15.51 59.918 0.061 7.86 3.8 9.47
9/19/2021 1:45:00 PM 15.64 60.152 0.061 7.86 2.99 9.41
9/19/2021 2:00:00 PM 15.76 60.368 0.06 7.86 3.34 9.37
9/19/2021 2:15:00 PM 15.9 60.62 0.06 7.86 3.83 9.37
9/19/2021 2:30:00 PM 16.01 60.818 0.06 7.87 3.11 9.36
9/19/2021 2:45:00 PM 16.1 60.98 0.06 7.86 3.15 9.31
9/19/2021 3:00:00 PM 16.18 61.124 0.06 7.86 3.12 9.29
9/19/2021 3:15:00 PM 16.26 61.268 0.06 7.86 2.95 9.26
9/19/2021 3:30:00 PM 16.33 61.394 0.06 7.86 3.38 9.13
9/19/2021 3:45:00 PM 16.39 61.502 0.06 7.85 2.82 9.15
9/19/2021 4:00:00 PM 16.43 61.574 0.06 7.85 3.14 9.13
9/19/2021 4:15:00 PM 16.47 61.646 0.06 7.84 2.87 9.11
9/19/2021 4:30:00 PM 16.49 61.682 0.06 7.83 2.8 9.11
9/19/2021 4:45:00 PM 16.49 61.682 0.06 7.82 3.04 9.03
9/19/2021 5:00:00 PM 16.48 61.664 0.06 7.81 3.04 8.99
9/19/2021 5:15:00 PM 16.46 61.628 0.06 7.79 3.02 9.01
9/19/2021 5:30:00 PM 16.41 61.538 0.06 7.78 2.85 8.97
9/19/2021 5:45:00 PM 16.35 61.43 0.06 7.77 3.21 8.94
9/19/2021 6:00:00 PM 16.28 61.304 0.06 7.75 3.37 8.95
9/19/2021 6:15:00 PM 16.18 61.124 0.061 7.73 3.22 8.93
9/19/2021 6:30:00 PM 16.06 60.908 0.061 7.71 3.63 8.88
9/19/2021 6:45:00 PM 15.93 60.674 0.061 7.68 3.96 8.88
9/19/2021 7:00:00 PM 15.79 60.422 0.061 7.66 3.82 8.9
9/19/2021 7:15:00 PM 15.67 60.206 0.061 7.65 3.69 8.8
9/19/2021 7:30:00 PM 15.52 59.936 0.061 7.62 3.34 8.86
9/19/2021 7:45:00 PM 15.38 59.684 0.061 7.6 3.91 8.87
9/19/2021 8:00:00 PM 15.26 59.468 0.061 7.6 4.3 8.85
9/19/2021 8:15:00 PM 15.14 59.252 0.062 7.58 5.4 8.84
9/19/2021 8:30:00 PM 15.02 59.036 0.062 7.57 3.98 8.87
9/19/2021 8:45:00 PM 14.9 58.82 0.062 7.57 4.52 8.91
9/19/2021 9:00:00 PM 14.78 58.604 0.062 7.56 4.87 8.91
9/19/2021 9:15:00 PM 14.67 58.406 0.062 7.56 4.45 8.95
9/19/2021 9:30:00 PM 14.55 58.19 0.062 7.55 4.14 8.94
9/19/2021 9:45:00 PM 14.45 58.01 0.062 7.55 3.39 8.95
9/19/2021 10:00:00 PM 14.34 57.812 0.062 7.54 3.58 9
9/19/2021 10:15:00 PM 14.23 57.614 0.062 7.54 3.76 8.97
9/19/2021 10:30:00 PM 14.12 57.416 0.062 7.54 3.99 9.05
9/19/2021 10:45:00 PM 14.01 57.218 0.062 7.53 3.41 9.04
9/19/2021 11:00:00 PM 13.9 57.02 0.062 7.52 4.24 9.12
9/19/2021 11:15:00 PM 13.79 56.822 0.062 7.52 3.91 9.13
9/19/2021 11:30:00 PM 13.68 56.624 0.062 7.52 3.39 9.17
9/19/2021 11:45:00 PM 13.58 56.444 0.062 7.51 3.29 9.18
9/20/2021 12:00:00 AM 13.48 56.264 0.062 7.52 3.58 9.18
9/20/2021 12:15:00 AM 13.38 56.084 0.062 7.51 3.38 9.21
9/20/2021 12:30:00 AM 13.28 55.904 0.062 7.51 3.28 9.26
9/20/2021 12:45:00 AM 13.19 55.742 0.063 7.5 3.41 9.24
9/20/2021 1:00:00 AM 13.1 55.58 0.063 7.5 4.53 9.3
9/20/2021 1:15:00 AM 13.01 55.418 0.063 7.5 3.4 9.31
9/20/2021 1:30:00 AM 12.92 55.256 0.062 7.5 3.25 9.33
9/20/2021 1:45:00 AM 12.83 55.094 0.062 7.49 3.6 9.35
9/20/2021 2:00:00 AM 12.75 54.95 0.062 7.49 3.48 9.38
9/20/2021 2:15:00 AM 12.66 54.788 0.062 7.48 3.33 9.38
9/20/2021 2:30:00 AM 12.58 54.644 0.062 7.48 3.27 9.41
9/20/2021 2:45:00 AM 12.5 54.5 0.062 7.48 3.57 9.44
9/20/2021 3:00:00 AM 12.42 54.356 0.062 7.48 3.38 9.47
9/20/2021 3:15:00 AM 12.36 54.248 0.062 7.48 3.53 9.48
9/20/2021 3:30:00 AM 12.31 54.158 0.062 7.48 3.27 9.5
9/20/2021 3:45:00 AM 12.26 54.068 0.062 7.48 3.23 9.46
9/20/2021 4:00:00 AM 12.2 53.96 0.062 7.48 3.38 9.48
9/20/2021 4:15:00 AM 12.15 53.87 0.062 7.48 3.54 9.54
9/20/2021 4:30:00 AM 12.11 53.798 0.062 7.48 4.93 9.53
9/20/2021 4:45:00 AM 12.06 53.708 0.062 7.48 3.94 9.58
9/20/2021 5:00:00 AM 12 53.6 0.062 7.48 4.03 9.58
9/20/2021 5:15:00 AM 11.94 53.492 0.062 7.48 3.94 9.59
9/20/2021 5:30:00 AM 11.89 53.402 0.062 7.47 4.77 9.58
9/20/2021 5:45:00 AM 11.83 53.294 0.062 7.47 4.4 9.63
9/20/2021 6:00:00 AM 11.76 53.168 0.062 7.47 4.54 9.63
9/20/2021 6:15:00 AM 11.69 53.042 0.062 7.46 4.13 9.65
9/20/2021 6:30:00 AM 11.62 52.916 0.062 7.46 3.84 9.67
9/20/2021 6:45:00 AM 11.56 52.808 0.062 7.46 4.02 9.64
9/20/2021 7:00:00 AM 11.5 52.7 0.062 7.46 4.2 9.72
9/20/2021 7:15:00 AM 11.42 52.556 0.062 7.46 4.39 9.72
9/20/2021 7:30:00 AM 11.36 52.448 0.062 7.46 4.74 9.78
9/20/2021 7:45:00 AM 11.29 52.322 0.062 7.46 4.16 9.83
9/20/2021 8:00:00 AM 11.24 52.232 0.062 7.48 3.64 9.86
9/20/2021 8:15:00 AM 11.2 52.16 0.062 7.48 8.12 9.93
9/20/2021 8:30:00 AM 11.17 52.106 0.062 7.49 4.73 10
9/20/2021 8:45:00 AM 11.17 52.106 0.062 7.51 3.8 10.02
9/20/2021 9:00:00 AM 11.22 52.196 0.062 7.54 3.26 10.1
9/20/2021 9:15:00 AM 11.29 52.322 0.062 7.56 3.2 10.11
9/20/2021 9:30:00 AM 11.36 52.448 0.062 7.57 3.34 10.14
9/20/2021 9:45:00 AM 11.45 52.61 0.061 7.59 3.71 10.17
9/20/2021 10:00:00 AM 11.57 52.826 0.061 7.62 3.19 10.19
9/20/2021 10:15:00 AM 11.7 53.06 0.061 7.64 3.08 10.17
9/20/2021 10:30:00 AM 11.86 53.348 0.061 7.66 3.1 10.17
9/20/2021 10:45:00 AM 12.04 53.672 0.061 7.68 3.14 10.18
9/20/2021 11:00:00 AM 12.26 54.068 0.061 7.7 3.1 10.18
9/20/2021 11:15:00 AM 12.43 54.374 0.061 7.72 3.02 10.17
9/20/2021 11:30:00 AM 12.61 54.698 0.061 7.74 3.38 10.14
9/20/2021 11:45:00 AM 12.82 55.076 0.061 7.75 3.12 10.11
9/20/2021 12:00:00 PM 13.07 55.526 0.061 7.77 3 10.03
9/20/2021 12:15:00 PM 13.29 55.922 0.06 7.79 3 10.03
9/20/2021 12:30:00 PM 13.51 56.318 0.06 7.8 2.96 9.92
9/20/2021 12:45:00 PM 13.74 56.732 0.06 7.82 2.99 9.96
9/20/2021 1:00:00 PM 13.96 57.128 0.06 7.82 3.33 9.93
9/20/2021 1:15:00 PM 14.12 57.416 0.06 7.85 2.95 9.84
9/20/2021 1:30:00 PM 14.21 57.578 0.06 7.85 3.03 9.91
9/20/2021 1:45:00 PM 14.3 57.74 0.06 7.86 3.33 9.89
9/20/2021 2:00:00 PM 14.44 57.992 0.06 7.87 2.98 9.84
9/20/2021 2:15:00 PM 14.54 58.172 0.06 7.87 2.95 9.79
9/20/2021 2:30:00 PM 14.59 58.262 0.06 7.87 2.9 9.76
9/20/2021 2:45:00 PM 14.66 58.388 0.06 7.88 3.02 9.76
9/20/2021 3:00:00 PM 14.81 58.658 0.059 7.89 2.91 9.71
9/20/2021 3:15:00 PM 14.97 58.946 0.059 7.89 2.83 9.65
9/20/2021 3:30:00 PM 15.15 59.27 0.059 7.91 2.89 9.6
9/20/2021 3:45:00 PM 15.28 59.504 0.059 7.9 2.79 9.52
9/20/2021 4:00:00 PM 15.37 59.666 0.059 7.89 3.58 9.52
9/20/2021 4:15:00 PM 15.44 59.792 0.059 7.89 3.03 9.5
9/20/2021 4:30:00 PM 15.5 59.9 0.059 7.89 2.89 9.47
9/20/2021 4:45:00 PM 15.56 60.008 0.059 7.88 3.05 9.37
9/20/2021 5:00:00 PM 15.57 60.026 0.059 7.86 2.95 9.39
9/20/2021 5:15:00 PM 15.55 59.99 0.059 7.84 2.93 9.3
9/20/2021 5:30:00 PM 15.54 59.972 0.059 7.84 3.03 9.37
9/20/2021 5:45:00 PM 15.53 59.954 0.059 7.83 2.91 9.35
9/20/2021 6:00:00 PM 15.51 59.918 0.059 7.81 3.08 9.24
9/20/2021 6:15:00 PM 15.47 59.846 0.059 7.79 3.37 9.24
9/20/2021 6:30:00 PM 15.42 59.756 0.06 7.76 3.08 9.16
9/20/2021 6:45:00 PM 15.38 59.684 0.06 7.74 3.22 9.09
9/20/2021 7:00:00 PM 15.34 59.612 0.06 7.71 3.09 9.05
9/20/2021 7:15:00 PM 15.3 59.54 0.06 7.69 3.21 8.99
9/20/2021 7:30:00 PM 15.25 59.45 0.06 7.67 3.06 8.95
9/20/2021 7:45:00 PM 15.19 59.342 0.06 7.65 3.49 8.93
9/20/2021 8:00:00 PM 15.12 59.216 0.06 7.64 3.49 8.93
9/20/2021 8:15:00 PM 15.05 59.09 0.061 7.63 3.68 8.94
9/20/2021 8:30:00 PM 14.98 58.964 0.061 7.61 3.4 8.91
9/20/2021 8:45:00 PM 14.89 58.802 0.061 7.59 4.07 8.92
9/20/2021 9:00:00 PM 14.81 58.658 0.061 7.58 3.44 8.9
9/20/2021 9:15:00 PM 14.74 58.532 0.061 7.58 3.45 8.92
9/20/2021 9:30:00 PM 14.66 58.388 0.061 7.57 3.67 8.96
9/20/2021 9:45:00 PM 14.58 58.244 0.062 7.56 3.04 8.97
9/20/2021 10:00:00 PM 14.51 58.118 0.062 7.56 3.2 8.97
9/20/2021 10:15:00 PM 14.44 57.992 0.062 7.56 3.2 8.92
9/20/2021 10:30:00 PM 14.36 57.848 0.062 7.55 3.15 8.93
9/20/2021 10:45:00 PM 14.29 57.722 0.062 7.54 3.22 9.01
9/20/2021 11:00:00 PM 14.21 57.578 0.062 7.55 3.19 9.05
9/20/2021 11:15:00 PM 14.15 57.47 0.062 7.55 3.54 9.07
9/20/2021 11:30:00 PM 14.09 57.362 0.062 7.55 3.52 9.07
9/20/2021 11:45:00 PM 14.03 57.254 0.062 7.54 3.25 9.06
9/21/2021 12:00:00 AM 13.96 57.128 0.062 7.54 3.56 9.1
9/21/2021 12:15:00 AM 13.9 57.02 0.062 7.54 3.31 9.1
9/21/2021 12:30:00 AM 13.84 56.912 0.062 7.53 3.55 9.13
9/21/2021 12:45:00 AM 13.79 56.822 0.062 7.53 3.67 9.14
9/21/2021 1:00:00 AM 13.74 56.732 0.062 7.53 3.67 9.15
9/21/2021 1:15:00 AM 13.69 56.642 0.062 7.53 4.29 9.15
9/21/2021 1:30:00 AM 13.63 56.534 0.062 7.53 3.5 9.18
9/21/2021 1:45:00 AM 13.58 56.444 0.062 7.53 3.29 9.15
9/21/2021 2:00:00 AM 13.53 56.354 0.062 7.53 3.52 9.19
9/21/2021 2:15:00 AM 13.49 56.282 0.062 7.53 3.51 9.22
9/21/2021 2:30:00 AM 13.44 56.192 0.062 7.54 3.32 9.21
9/21/2021 2:45:00 AM 13.41 56.138 0.062 7.53 3.59 9.21
9/21/2021 3:00:00 AM 13.38 56.084 0.062 7.53 3.42 9.25
9/21/2021 3:15:00 AM 13.35 56.03 0.062 7.53 3.36 9.26
9/21/2021 3:30:00 AM 13.32 55.976 0.062 7.52 3.42 9.26
9/21/2021 3:45:00 AM 13.3 55.94 0.062 7.53 3.34 9.25
9/21/2021 4:00:00 AM 13.29 55.922 0.062 7.53 3.14 9.25
9/21/2021 4:15:00 AM 13.29 55.922 0.062 7.54 3.23 9.27
9/21/2021 4:30:00 AM 13.29 55.922 0.062 7.54 3.23 9.29
9/21/2021 4:45:00 AM 13.28 55.904 0.062 7.54 3.36 9.29
9/21/2021 5:00:00 AM 13.27 55.886 0.062 7.54 3.27 9.29
9/21/2021 5:15:00 AM 13.27 55.886 0.062 7.54 3.16 9.26
9/21/2021 5:30:00 AM 13.26 55.868 0.062 7.54 3.32 9.21
9/21/2021 5:45:00 AM 13.26 55.868 0.062 7.55 3.24 9.25
9/21/2021 6:00:00 AM 13.26 55.868 0.063 7.55 3.26 9.28
9/21/2021 6:15:00 AM 13.25 55.85 0.063 7.55 3.46 9.26
9/21/2021 6:30:00 AM 13.25 55.85 0.062 7.55 3.36 9.31
9/21/2021 6:45:00 AM 13.24 55.832 0.062 7.56 4.26 9.23
9/21/2021 7:00:00 AM 13.24 55.832 0.062 7.56 3.93 9.3
9/21/2021 7:15:00 AM 13.24 55.832 0.062 7.56 3.42 9.32
9/21/2021 7:30:00 AM 13.24 55.832 0.062 7.57 3.31 9.34
9/21/2021 7:45:00 AM 13.26 55.868 0.062 7.58 3.21 9.41
9/21/2021 8:00:00 AM 13.27 55.886 0.062 7.6 3.21 9.43
9/21/2021 8:15:00 AM 13.29 55.922 0.062 7.61 3 9.48
9/21/2021 8:30:00 AM 13.34 56.012 0.062 7.63 3.06 9.54
9/21/2021 8:45:00 AM 13.4 56.12 0.062 7.66 2.94 9.62
9/21/2021 9:00:00 AM 13.44 56.192 0.062 7.67 3.21 9.63
9/21/2021 9:15:00 AM 13.45 56.21 0.062 7.66 3.11 9.57
9/21/2021 9:30:00 AM 13.47 56.246 0.062 7.67 3.06 9.56
9/21/2021 9:45:00 AM 13.54 56.372 0.061 7.7 3.02 9.67
9/21/2021 10:00:00 AM 13.59 56.462 0.061 7.71 2.92 9.69
9/21/2021 10:15:00 AM 13.64 56.552 0.061 7.72 3.14 9.7
9/21/2021 10:30:00 AM 13.76 56.768 0.061 7.76 2.93 9.74
9/21/2021 10:45:00 AM 13.9 57.02 0.061 7.8 2.84 9.81
9/21/2021 11:00:00 AM 14.06 57.308 0.061 7.82 2.92 9.84
9/21/2021 11:15:00 AM 14.15 57.47 0.061 7.82 2.86 9.8
9/21/2021 11:30:00 AM 14.28 57.704 0.06 7.83 3.02 9.79
9/21/2021 11:45:00 AM 14.27 57.686 0.06 7.81 2.98 9.73
9/21/2021 12:00:00 PM 14.35 57.83 0.06 7.82 2.84 9.68
9/21/2021 12:15:00 PM 14.51 58.118 0.06 7.86 2.83 9.75
9/21/2021 12:30:00 PM 14.68 58.424 0.06 7.88 2.98 9.76
9/21/2021 12:45:00 PM 14.87 58.766 0.06 7.9 2.99 9.77
9/21/2021 1:00:00 PM 15.03 59.054 0.06 7.92 3.44 9.75
9/21/2021 1:15:00 PM 15.18 59.324 0.06 7.93 2.93 9.71
9/21/2021 1:30:00 PM 15.23 59.414 0.06 7.93 2.9 9.69
9/21/2021 1:45:00 PM 15.32 59.576 0.06 7.94 3.12 9.65
9/21/2021 2:00:00 PM 15.44 59.792 0.059 7.95 2.82 9.63
9/21/2021 2:15:00 PM 15.44 59.792 0.06 7.9 2.8 9.52
9/21/2021 2:30:00 PM 15.39 59.702 0.06 7.86 3.25 9.43
9/21/2021 2:45:00 PM 15.37 59.666 0.06 7.85 3.6 9.4
9/21/2021 3:00:00 PM 15.34 59.612 0.06 7.84 3.2 9.41
9/21/2021 3:15:00 PM 15.33 59.594 0.059 7.83 3.09 9.34
9/21/2021 3:30:00 PM 15.3 59.54 0.06 7.81 3.17 9.35
9/21/2021 3:45:00 PM 15.29 59.522 0.06 7.82 2.89 9.36
9/21/2021 4:00:00 PM 15.27 59.486 0.06 7.81 2.85 9.35
9/21/2021 4:15:00 PM 15.29 59.522 0.06 7.83 2.92 9.34
9/21/2021 4:30:00 PM 15.28 59.504 0.06 7.82 3.09 9.36
9/21/2021 4:45:00 PM 15.28 59.504 0.06 7.8 2.99 9.32
9/21/2021 5:00:00 PM 15.28 59.504 0.06 7.8 3.01 9.31
9/21/2021 5:15:00 PM 15.29 59.522 0.06 7.81 2.94 9.3
9/21/2021 5:30:00 PM 15.3 59.54 0.06 7.81 3.01 9.28
9/21/2021 5:45:00 PM 15.28 59.504 0.06 7.78 2.76 9.2
9/21/2021 6:00:00 PM 15.25 59.45 0.06 7.75 2.96 9.16
9/21/2021 6:15:00 PM 15.21 59.378 0.06 7.73 2.93 9.11
9/21/2021 6:30:00 PM 15.17 59.306 0.06 7.72 2.99 9.1
9/21/2021 6:45:00 PM 15.14 59.252 0.06 7.71 3.02 9.06
9/21/2021 7:00:00 PM 15.1 59.18 0.06 7.69 2.98 8.93
9/21/2021 7:15:00 PM 15.05 59.09 0.061 7.67 3.21 9.02
9/21/2021 7:30:00 PM 14.99 58.982 0.061 7.65 3.42 8.96
9/21/2021 7:45:00 PM 14.94 58.892 0.061 7.63 3.61 8.96
9/21/2021 8:00:00 PM 14.89 58.802 0.061 7.62 3.43 8.95
9/21/2021 8:15:00 PM 14.85 58.73 0.061 7.62 3.4 8.96
9/21/2021 8:30:00 PM 14.82 58.676 0.061 7.62 4.02 8.93
9/21/2021 8:45:00 PM 14.79 58.622 0.061 7.6 3.31 8.95
9/21/2021 9:00:00 PM 14.75 58.55 0.062 7.59 3.34 8.95
9/21/2021 9:15:00 PM 14.72 58.496 0.062 7.59 3.81 8.93
9/21/2021 9:30:00 PM 14.69 58.442 0.062 7.58 5.35 8.96
9/21/2021 9:45:00 PM 14.66 58.388 0.062 7.57 3.64 8.94
9/21/2021 10:00:00 PM 14.64 58.352 0.062 7.57 3.55 8.92
9/21/2021 10:15:00 PM 14.61 58.298 0.062 7.57 3.41 8.96
9/21/2021 10:30:00 PM 14.58 58.244 0.062 7.56 3.03 8.92
9/21/2021 10:45:00 PM 14.55 58.19 0.062 7.56 3.24 8.92
9/21/2021 11:00:00 PM 14.53 58.154 0.062 7.55 3.14 8.96
9/21/2021 11:15:00 PM 14.5 58.1 0.062 7.55 3.25 8.97
9/21/2021 11:30:00 PM 14.48 58.064 0.062 7.55 3.11 8.97
9/21/2021 11:45:00 PM 14.47 58.046 0.062 7.55 3.45 8.93
9/22/2021 12:00:00 AM 14.45 58.01 0.062 7.54 3.29 8.92
9/22/2021 12:15:00 AM 14.43 57.974 0.062 7.55 3.23 8.97
9/22/2021 12:30:00 AM 14.42 57.956 0.062 7.55 3.41 8.97
9/22/2021 12:45:00 AM 14.41 57.938 0.062 7.56 2.99 8.97
9/22/2021 1:00:00 AM 14.39 57.902 0.062 7.55 3.27 8.9
9/22/2021 1:15:00 AM 14.38 57.884 0.062 7.56 3.12 8.98
9/22/2021 1:30:00 AM 14.37 57.866 0.062 7.56 3.79 8.98
9/22/2021 1:45:00 AM 14.36 57.848 0.062 7.55 3.45 8.98
9/22/2021 2:00:00 AM 14.35 57.83 0.063 7.55 3.68 8.93
9/22/2021 2:15:00 AM 14.34 57.812 0.062 7.56 3.55 8.96
9/22/2021 2:30:00 AM 14.34 57.812 0.062 7.56 3.21 8.97
9/22/2021 2:45:00 AM 14.32 57.776 0.063 7.56 3.23 8.95
9/22/2021 3:00:00 AM 14.31 57.758 0.063 7.56 3.62 8.98
9/22/2021 3:15:00 AM 14.3 57.74 0.063 7.56 3.64 8.97
9/22/2021 3:30:00 AM 14.3 57.74 0.063 7.56 3.64 8.99
9/22/2021 3:45:00 AM 14.3 57.74 0.063 7.56 3.53 8.99
9/22/2021 4:00:00 AM 14.29 57.722 0.063 7.56 3.67 8.99
9/22/2021 4:15:00 AM 14.28 57.704 0.063 7.56 3.75 8.99
9/22/2021 4:30:00 AM 14.28 57.704 0.063 7.56 3.42 9
9/22/2021 4:45:00 AM 14.27 57.686 0.063 7.56 3.54 9
9/22/2021 5:00:00 AM 14.27 57.686 0.063 7.56 3.6 8.99
9/22/2021 5:15:00 AM 14.27 57.686 0.063 7.56 3.35 9
9/22/2021 5:30:00 AM 14.26 57.668 0.063 7.56 3.72 9
9/22/2021 5:45:00 AM 14.25 57.65 0.062 7.56 3.48 9
9/22/2021 6:00:00 AM 14.25 57.65 0.063 7.56 4.35 8.98
9/22/2021 6:15:00 AM 14.24 57.632 0.062 7.56 3.95 8.98
9/22/2021 6:30:00 AM 14.23 57.614 0.062 7.56 3.84 9
9/22/2021 6:45:00 AM 14.23 57.614 0.062 7.56 4.02 9.02
9/22/2021 7:00:00 AM 14.22 57.596 0.063 7.56 3.84 9
9/22/2021 7:15:00 AM 14.22 57.596 0.062 7.55 4 8.96
9/22/2021 7:30:00 AM 14.21 57.578 0.063 7.55 3.9 8.91
9/22/2021 7:45:00 AM 14.22 57.596 0.063 7.56 3.39 9.02
9/22/2021 8:00:00 AM 14.22 57.596 0.063 7.57 3.17 8.97
9/22/2021 8:15:00 AM 14.22 57.596 0.063 7.56 3.15 9.05
9/22/2021 8:30:00 AM 14.23 57.614 0.063 7.57 3.03 9.09
9/22/2021 8:45:00 AM 14.25 57.65 0.063 7.58 3.03 9.1
9/22/2021 9:00:00 AM 14.26 57.668 0.062 7.6 3.09 9.11
9/22/2021 9:15:00 AM 14.28 57.704 0.062 7.6 3.86 9.14
9/22/2021 9:30:00 AM 14.29 57.722 0.062 7.62 3.96 9.17
9/22/2021 9:45:00 AM 14.31 57.758 0.062 7.62 3.14 9.18
9/22/2021 10:00:00 AM 14.35 57.83 0.062 7.64 3.06 9.17
9/22/2021 10:15:00 AM 14.4 57.92 0.062 7.66 3.34 9.3
9/22/2021 10:30:00 AM 14.45 58.01 0.062 7.68 3.16 9.35
9/22/2021 10:45:00 AM 14.49 58.082 0.062 7.69 3.03 9.35
9/22/2021 11:00:00 AM 14.52 58.136 0.062 7.69 2.9 9.33
9/22/2021 11:15:00 AM 14.55 58.19 0.062 7.7 3.02 9.33
9/22/2021 11:30:00 AM 14.59 58.262 0.061 7.7 2.98 9.27
9/22/2021 11:45:00 AM 14.63 58.334 0.061 7.7 3.02 9.32
9/22/2021 12:00:00 PM 14.67 58.406 0.061 7.71 3.27 9.28
9/22/2021 12:15:00 PM 14.71 58.478 0.061 7.71 3.19 9.24
9/22/2021 12:30:00 PM 14.76 58.568 0.061 7.71 3.06 9.3
9/22/2021 12:45:00 PM 14.84 58.712 0.061 7.73 3.19 9.33
9/22/2021 1:00:00 PM 14.91 58.838 0.06 7.75 3.29 9.38
9/22/2021 1:15:00 PM 15.01 59.018 0.06 7.77 3.17 9.39
9/22/2021 1:30:00 PM 15.07 59.126 0.06 7.76 3.61 9.37
9/22/2021 1:45:00 PM 15.08 59.144 0.06 7.74 3.23 9.29
9/22/2021 2:00:00 PM 15.13 59.234 0.06 7.73 3.42 9.26
9/22/2021 2:15:00 PM 15.17 59.306 0.06 7.71 3.98 9.18
9/22/2021 2:30:00 PM 15.21 59.378 0.06 7.69 4.21 9.17
9/22/2021 2:45:00 PM 15.25 59.45 0.059 7.68 4.18 9.13
9/22/2021 3:00:00 PM 15.29 59.522 0.059 7.67 5.37 9.1
9/22/2021 3:15:00 PM 15.34 59.612 0.059 7.66 5.7 9.13
9/22/2021 3:30:00 PM 15.39 59.702 0.059 7.67 6.06 9.14
9/22/2021 3:45:00 PM 15.49 59.882 0.06 7.68 7.25 9.18
9/22/2021 4:00:00 PM 15.54 59.972 0.06 7.66 5.96 9.16
9/22/2021 4:15:00 PM 15.56 60.008 0.06 7.64 7.2 9.06
9/22/2021 4:30:00 PM 15.59 60.062 0.061 7.64 11.31 9.05
9/22/2021 4:45:00 PM 15.6 60.08 0.062 7.64 7.28 8.99
9/22/2021 5:00:00 PM 15.62 60.116 0.063 7.64 7.02 8.96
9/22/2021 5:15:00 PM 15.63 60.134 0.065 7.65 9.36 8.97
9/22/2021 5:30:00 PM 15.65 60.17 0.066 7.65 8.7 8.92
9/22/2021 5:45:00 PM 15.66 60.188 0.066 7.64 10.19 8.85
9/22/2021 6:00:00 PM 15.65 60.17 0.066 7.63 11.03 8.8
9/22/2021 6:15:00 PM 15.64 60.152 0.066 7.61 10.12 8.78
9/22/2021 6:30:00 PM 15.63 60.134 0.066 7.6 11.21 8.76
9/22/2021 6:45:00 PM 15.63 60.134 0.066 7.59 11.18 8.73
9/22/2021 7:00:00 PM 15.62 60.116 0.065 7.59 9.47 8.72
9/22/2021 7:15:00 PM 15.62 60.116 0.066 7.59 9.53 8.72
9/22/2021 7:30:00 PM 15.6 60.08 0.066 7.58 8.96 8.71
9/22/2021 7:45:00 PM 15.61 60.098 0.067 7.59 10.56 8.69
9/22/2021 8:00:00 PM 15.62 60.116 0.067 7.59 7.41 8.69
9/22/2021 8:15:00 PM 15.62 60.116 0.067 7.59 7.71 8.69
9/22/2021 8:30:00 PM 15.6 60.08 0.067 7.59 7.19 8.69
9/22/2021 8:45:00 PM 15.59 60.062 0.067 7.59 7.04 8.69
9/22/2021 9:00:00 PM 15.57 60.026 0.067 7.58 6.92 8.69
9/22/2021 9:15:00 PM 15.54 59.972 0.067 7.58 6.09 8.7
9/22/2021 9:30:00 PM 15.51 59.918 0.067 7.56 6.39 8.7
9/22/2021 9:45:00 PM 15.48 59.864 0.067 7.56 5.78 8.71
9/22/2021 10:00:00 PM 15.46 59.828 0.067 7.57 6.33 8.71
9/22/2021 10:15:00 PM 15.44 59.792 0.067 7.56 5.98 8.72
9/22/2021 10:30:00 PM 15.44 59.792 0.067 7.57 5.58 8.72
9/22/2021 10:45:00 PM 15.43 59.774 0.067 7.57 5.29 8.72
9/22/2021 11:00:00 PM 15.42 59.756 0.067 7.57 5.64 8.73
9/22/2021 11:15:00 PM 15.42 59.756 0.067 7.57 5.56 8.73
9/22/2021 11:30:00 PM 15.41 59.738 0.068 7.57 5.16 8.73
9/22/2021 11:45:00 PM 15.4 59.72 0.068 7.57 4.84 8.73
9/23/2021 12:00:00 AM 15.39 59.702 0.068 7.57 5.57 8.73
9/23/2021 12:15:00 AM 15.42 59.756 0.068 7.56 5.96 8.73
9/23/2021 12:30:00 AM 15.39 59.702 0.069 7.55 6.25 8.72
9/23/2021 12:45:00 AM 15.36 59.648 0.069 7.55 6.26 8.72
9/23/2021 1:00:00 AM 15.36 59.648 0.07 7.54 5.67 8.71
9/23/2021 1:15:00 AM 15.34 59.612 0.07 7.53 5.45 8.71
9/23/2021 1:30:00 AM 15.34 59.612 0.07 7.53 5.89 8.73
9/23/2021 1:45:00 AM 15.34 59.612 0.069 7.51 7.27 8.73
9/23/2021 2:00:00 AM 15.31 59.558 0.07 7.49 10.57 8.71
9/23/2021 2:15:00 AM 15.3 59.54 0.071 7.47 12.64 8.69
9/23/2021 2:30:00 AM 15.3 59.54 0.073 7.45 15.49 8.67
9/23/2021 2:45:00 AM 15.29 59.522 0.074 7.45 16.22 8.66
9/23/2021 3:00:00 AM 15.27 59.486 0.076 7.45 15.4 8.65
9/23/2021 3:15:00 AM 15.26 59.468 0.079 7.47 14.91 8.64
9/23/2021 3:30:00 AM 15.26 59.468 0.08 7.48 14.54 8.66
9/23/2021 3:45:00 AM 15.23 59.414 0.08 7.48 18.74 8.68
9/23/2021 4:00:00 AM 15.21 59.378 0.078 7.46 43.23 8.69
9/23/2021 4:15:00 AM 15.18 59.324 0.077 7.44 27.23 8.7
9/23/2021 4:30:00 AM 15.15 59.27 0.076 7.42 34.43 8.71
9/23/2021 4:45:00 AM 15.13 59.234 0.076 7.4 39.46 8.71
9/23/2021 5:00:00 AM 15.12 59.216 0.077 7.4 47.09 8.71
9/23/2021 5:15:00 AM 15.11 59.198 0.076 7.39 50.55 8.72
9/23/2021 5:30:00 AM 15.07 59.126 0.074 7.4 53.37 8.74
9/23/2021 5:45:00 AM 15.03 59.054 0.071 7.37 60.85 8.76
9/23/2021 6:00:00 AM 14.97 58.946 0.07 7.35 60.79 8.78
9/23/2021 6:15:00 AM 14.92 58.856 0.07 7.34 64.7 8.8
9/23/2021 6:30:00 AM 14.87 58.766 0.069 7.35 67.02 8.82
9/23/2021 6:45:00 AM 14.82 58.676 0.068 7.36 62.26 8.84
9/23/2021 7:00:00 AM 14.76 58.568 0.067 7.32 66.13 8.86
9/23/2021 7:15:00 AM 14.7 58.46 0.066 7.31 66.45 8.87
9/23/2021 7:30:00 AM 14.65 58.37 0.065 7.32 63.32 8.89
9/23/2021 7:45:00 AM 14.6 58.28 0.063 7.32 68.03 8.92
9/23/2021 8:00:00 AM 14.55 58.19 0.061 7.31 61.39 8.94
9/23/2021 8:15:00 AM 14.51 58.118 0.06 7.28 64.39 8.95
9/23/2021 8:30:00 AM 14.47 58.046 0.059 7.29 60.25 8.96
9/23/2021 8:45:00 AM 14.44 57.992 0.057 7.29 54.06 8.97
9/23/2021 9:00:00 AM 14.41 57.938 0.056 7.25 46.23 8.98
9/23/2021 9:15:00 AM 14.37 57.866 0.055 7.23 50.45 8.99
9/23/2021 9:30:00 AM 14.34 57.812 0.055 7.25 38.42 8.99
9/23/2021 9:45:00 AM 14.31 57.758 0.054 7.24 41.8 8.99
9/23/2021 10:00:00 AM 14.29 57.722 0.054 7.25 38.27 9
9/23/2021 10:15:00 AM 14.26 57.668 0.054 7.24 41.02 9.02
9/23/2021 10:30:00 AM 14.25 57.65 0.054 7.25 37.99 9.04
9/23/2021 10:45:00 AM 14.23 57.614 0.053 7.26 34.73 9.06
9/23/2021 11:00:00 AM 14.22 57.596 0.053 7.25 36.54 9.08
9/23/2021 11:15:00 AM 14.21 57.578 0.052 7.27 35.17 9.1
9/23/2021 11:30:00 AM 14.21 57.578 0.052 7.26 37.36 9.12
9/23/2021 11:45:00 AM 14.24 57.632 0.051 7.28 28.9 9.14
9/23/2021 12:00:00 PM 14.23 57.614 0.051 7.24 31.69 9.15
9/23/2021 12:15:00 PM 14.21 57.578 0.05 7.26 33.56 9.16
9/23/2021 12:30:00 PM 14.19 57.542 0.05 7.25 24.95 9.16
9/23/2021 12:45:00 PM 14.16 57.488 0.05 7.28 22.52 9.17
9/23/2021 1:00:00 PM 14.17 57.506 0.05 7.28 24.37 9.19
9/23/2021 1:15:00 PM 14.16 57.488 0.05 7.28 22.79 9.21
9/23/2021 1:30:00 PM 14.14 57.452 0.049 7.28 20.57 9.23
9/23/2021 1:45:00 PM 14.12 57.416 0.049 7.29 19.44 9.24
9/23/2021 2:00:00 PM 14.11 57.398 0.049 7.29 16.36 9.26
9/23/2021 2:15:00 PM 14.07 57.326 0.049 7.29 17.72 9.28
9/23/2021 2:30:00 PM 14.03 57.254 0.049 7.29 15.45 9.28
9/23/2021 2:45:00 PM 13.99 57.182 0.049 7.28 18.72 9.3
9/23/2021 3:00:00 PM 13.92 57.056 0.048 7.27 15.57 9.32
9/23/2021 3:15:00 PM 13.79 56.822 0.048 7.26 16.6 9.34
9/23/2021 3:30:00 PM 13.69 56.642 0.048 7.26 12.96 9.36
9/23/2021 3:45:00 PM 13.62 56.516 0.048 7.28 15.5 9.38
9/23/2021 4:00:00 PM 13.52 56.336 0.048 7.27 15.49 9.39
9/23/2021 4:15:00 PM 13.41 56.138 0.048 7.26 15.29 9.4
9/23/2021 4:30:00 PM 13.3 55.94 0.048 7.25 14.78 9.42
9/23/2021 4:45:00 PM 13.19 55.742 0.048 7.25 13.32 9.43
9/23/2021 5:00:00 PM 13.1 55.58 0.047 7.24 13.6 9.46
9/23/2021 5:15:00 PM 13 55.4 0.047 7.23 14.1 9.48
9/23/2021 5:30:00 PM 12.91 55.238 0.047 7.24 12.14 9.49
9/23/2021 5:45:00 PM 12.82 55.076 0.047 7.23 14.19 9.51
9/23/2021 6:00:00 PM 12.74 54.932 0.047 7.21 13.22 9.52
9/23/2021 6:15:00 PM 12.66 54.788 0.047 7.23 14.31 9.53
9/23/2021 6:30:00 PM 12.58 54.644 0.047 7.2 13.53 9.54
9/23/2021 6:45:00 PM 12.5 54.5 0.047 7.23 13.7 9.55
9/23/2021 7:00:00 PM 12.42 54.356 0.047 7.23 12.15 9.57
9/23/2021 7:15:00 PM 12.33 54.194 0.047 7.21 12.03 9.58
9/23/2021 7:30:00 PM 12.26 54.068 0.047 7.2 12.36 9.59
9/23/2021 7:45:00 PM 12.19 53.942 0.047 7.22 10.54 9.61
9/23/2021 8:00:00 PM 12.12 53.816 0.047 7.19 13.13 9.64
9/23/2021 8:15:00 PM 12.06 53.708 0.047 7.2 12.69 9.64
9/23/2021 8:30:00 PM 12 53.6 0.047 7.21 12.34 9.66
9/23/2021 8:45:00 PM 11.94 53.492 0.047 7.2 12.14 9.68
9/23/2021 9:00:00 PM 11.88 53.384 0.047 7.21 12.27 9.69
9/23/2021 9:15:00 PM 11.82 53.276 0.047 7.18 13.12 9.7
9/23/2021 9:30:00 PM 11.76 53.168 0.047 7.18 11.23 9.72
9/23/2021 9:45:00 PM 11.7 53.06 0.047 7.18 10.56 9.73
9/23/2021 10:00:00 PM 11.66 52.988 0.047 7.2 10.93 9.75
9/23/2021 10:15:00 PM 11.61 52.898 0.047 7.17 11.53 9.76
9/23/2021 10:30:00 PM 11.57 52.826 0.047 7.18 11.07 9.76
9/23/2021 10:45:00 PM 11.53 52.754 0.047 7.2 11.99 9.77
9/23/2021 11:00:00 PM 11.49 52.682 0.047 7.19 10.83 9.79
9/23/2021 11:15:00 PM 11.46 52.628 0.047 7.19 10.39 9.8
9/23/2021 11:30:00 PM 11.42 52.556 0.047 7.19 10.43 9.8
9/23/2021 11:45:00 PM 11.39 52.502 0.047 7.17 10.89 9.81
9/24/2021 12:00:00 AM 11.36 52.448 0.047 7.18 11.67 9.82
9/24/2021 12:15:00 AM 11.32 52.376 0.047 7.19 10.35 9.82
9/24/2021 12:30:00 AM 11.29 52.322 0.047 7.18 10.56 9.83
9/24/2021 12:45:00 AM 11.27 52.286 0.047 7.19 10.45 9.84
9/24/2021 1:00:00 AM 11.24 52.232 0.047 7.2 9.85 9.84
9/24/2021 1:15:00 AM 11.22 52.196 0.047 7.18 10.35 9.85
9/24/2021 1:30:00 AM 11.2 52.16 0.047 7.2 9.65 9.86
9/24/2021 1:45:00 AM 11.18 52.124 0.047 7.21 10.74 9.86
9/24/2021 2:00:00 AM 11.17 52.106 0.047 7.2 9.12 9.87
9/24/2021 2:15:00 AM 11.15 52.07 0.047 7.21 9.83 9.87
9/24/2021 2:30:00 AM 11.14 52.052 0.047 7.2 9.52 9.88
9/24/2021 2:45:00 AM 11.12 52.016 0.047 7.19 9.63 9.88
9/24/2021 3:00:00 AM 11.1 51.98 0.047 7.18 9.67 9.89
9/24/2021 3:15:00 AM -99999.99 -179968 -99999.99 -99999.99 -99999.99 -99999.99
9/24/2021 3:30:00 AM -99999.99 -179968 -99999.99 -99999.99 -99999.99 -99999.99
9/24/2021 3:45:00 AM -99999.99 -179968 -99999.99 -99999.99 -99999.99 -99999.99
9/24/2021 4:00:00 AM -99999.99 -179968 -99999.99 -99999.99 -99999.99 -99999.99
9/24/2021 4:15:00 AM -99999.99 -179968 -99999.99 -99999.99 -99999.99 -99999.99
9/24/2021 4:30:00 AM -99999.99 -179968 -99999.99 -99999.99 -99999.99 -99999.99
9/24/2021 4:45:00 AM -99999.99 -179968 -99999.99 -99999.99 -99999.99 -99999.99
9/24/2021 5:00:00 AM -99999.99 -179968 -99999.99 -99999.99 -99999.99 -99999.99
9/24/2021 5:15:00 AM -99999.99 -179968 -99999.99 -99999.99 -99999.99 -99999.99
9/24/2021 5:30:00 AM -99999.99 -179968 -99999.99 -99999.99 -99999.99 -99999.99
9/24/2021 5:45:00 AM -99999.99 -179968 -99999.99 -99999.99 -99999.99 -99999.99
9/24/2021 6:00:00 AM -99999.99 -179968 -99999.99 -99999.99 -99999.99 -99999.99
9/24/2021 6:15:00 AM -99999.99 -179968 -99999.99 -99999.99 -99999.99 -99999.99
9/24/2021 6:30:00 AM -99999.99 -179968 -99999.99 -99999.99 -99999.99 -99999.99
9/24/2021 6:45:00 AM -99999.99 -179968 -99999.99 -99999.99 -99999.99 -99999.99
9/24/2021 7:00:00 AM 10.74 51.332 0.047 7.2 5.82 9.98
9/24/2021 7:15:00 AM 10.72 51.296 0.047 7.2 10 9.99
9/24/2021 7:30:00 AM 10.7 51.26 0.047 7.21 9.61 10.02
9/24/2021 7:45:00 AM 10.68 51.224 0.047 7.21 8.42 10.03
9/24/2021 8:00:00 AM 10.67 51.206 0.047 7.21 7.86 10.04
9/24/2021 8:15:00 AM 10.67 51.206 0.047 7.2 8.64 10.06
9/24/2021 8:30:00 AM 10.67 51.206 0.047 7.21 8.79 10.08
9/24/2021 8:45:00 AM 10.68 51.224 0.047 7.22 8.53 10.09
9/24/2021 9:00:00 AM 10.69 51.242 0.047 7.21 8.91 10.1
9/24/2021 9:15:00 AM 10.7 51.26 0.047 7.23 7.8 10.12
9/24/2021 9:30:00 AM 10.71 51.278 0.047 7.23 7.54 10.12
9/24/2021 9:45:00 AM 10.72 51.296 0.047 7.23 8.79 10.12
9/24/2021 10:00:00 AM 10.75 51.35 0.047 7.26 1206.42 10.12
9/24/2021 10:15:00 AM 10.78 51.404 0.047 7.22 9.21 10.14
9/24/2021 10:30:00 AM 10.83 51.494 0.047 7.26 7.64 10.14
9/24/2021 10:45:00 AM 10.88 51.584 0.047 7.28 6.94 10.13
9/24/2021 11:00:00 AM 10.92 51.656 0.047 7.29 7.45 10.12
9/24/2021 11:15:00 AM 10.94 51.692 0.046 7.29 6.84 10.12
9/24/2021 11:30:00 AM 10.99 51.782 0.046 7.27 7.2 10.11
9/24/2021 11:45:00 AM 11.11 51.998 0.047 7.31 6.24 10.11
9/24/2021 12:00:00 PM 11.17 52.106 0.046 7.3 6.85 10.09
9/24/2021 12:15:00 PM 11.21 52.178 0.047 7.31 7.41 10.08
9/24/2021 12:30:00 PM 11.29 52.322 0.047 7.3 7.19 10.07
9/24/2021 12:45:00 PM 11.35 52.43 0.046 7.31 7.54 10.06
9/24/2021 1:00:00 PM 11.4 52.52 0.046 7.3 7.62 10.05
9/24/2021 1:15:00 PM 11.48 52.664 0.046 7.31 7.91 10.03
9/24/2021 1:30:00 PM 11.56 52.808 0.046 7.32 7.73 10.02
9/24/2021 1:45:00 PM 11.63 52.934 0.046 7.33 6.79 10
9/24/2021 2:00:00 PM 11.68 53.024 0.046 7.31 7.66 9.99
9/24/2021 2:15:00 PM 11.73 53.114 0.046 7.33 8.15 9.98
9/24/2021 2:30:00 PM 11.79 53.222 0.046 7.35 8.36 9.96
9/24/2021 2:45:00 PM 11.81 53.258 0.046 7.33 9.11 9.95
9/24/2021 3:00:00 PM 11.83 53.294 0.046 7.33 7.74 9.93
9/24/2021 3:15:00 PM 11.85 53.33 0.046 7.31 8.41 9.92
9/24/2021 3:30:00 PM 11.88 53.384 0.046 7.32 7.41 9.92
9/24/2021 3:45:00 PM 11.87 53.366 0.046 7.33 7.38 9.92
9/24/2021 4:00:00 PM 11.82 53.276 0.046 7.29 8.23 9.91
9/24/2021 4:15:00 PM 11.81 53.258 0.046 7.31 7.57 9.91
9/24/2021 4:30:00 PM 11.76 53.168 0.046 7.31 7.61 9.91
9/24/2021 4:45:00 PM 11.72 53.096 0.046 7.3 7.03 9.91
9/24/2021 5:00:00 PM 11.71 53.078 0.046 7.29 7.12 9.91
9/24/2021 5:15:00 PM 11.69 53.042 0.046 7.31 6.95 9.91
9/24/2021 5:30:00 PM 11.64 52.952 0.046 7.31 7.61 9.91
9/24/2021 5:45:00 PM 11.62 52.916 0.046 7.29 7.86 9.92
9/24/2021 6:00:00 PM 11.58 52.844 0.046 7.29 11.18 9.91
9/24/2021 6:15:00 PM 11.52 52.736 0.046 7.27 8.08 9.9
9/24/2021 6:30:00 PM 11.47 52.646 0.047 7.26 6.98 9.9
9/24/2021 6:45:00 PM 11.42 52.556 0.047 7.26 7.74 9.89
9/24/2021 7:00:00 PM 11.37 52.466 0.047 7.25 7.23 9.9
9/24/2021 7:15:00 PM 11.31 52.358 0.047 7.23 7.41 9.9
9/24/2021 7:30:00 PM 11.26 52.268 0.047 7.23 7.62 9.91
9/24/2021 7:45:00 PM 11.21 52.178 0.047 7.21 7.6 9.91
9/24/2021 8:00:00 PM 11.16 52.088 0.047 7.22 9.25 9.92
9/24/2021 8:15:00 PM 11.12 52.016 0.047 7.23 7.14 9.92
9/24/2021 8:30:00 PM 11.07 51.926 0.047 7.21 7.83 9.93
9/24/2021 8:45:00 PM 11.02 51.836 0.047 7.22 7.99 9.96
9/24/2021 9:00:00 PM 10.97 51.746 0.047 7.21 7.3 9.95
9/24/2021 9:15:00 PM 10.93 51.674 0.047 7.21 7.04 9.97
9/24/2021 9:30:00 PM 10.89 51.602 0.047 7.21 7.09 9.98
9/24/2021 9:45:00 PM 10.85 51.53 0.047 7.22 8.53 10
9/24/2021 10:00:00 PM 10.8 51.44 0.047 7.21 7.78 10
9/24/2021 10:15:00 PM 10.76 51.368 0.047 7.2 8.11 10.01
9/24/2021 10:30:00 PM 10.72 51.296 0.046 7.21 8.64 10.01
9/24/2021 10:45:00 PM 10.68 51.224 0.046 7.19 7.45 10.03
9/24/2021 11:00:00 PM 10.64 51.152 0.047 7.2 7.01 10.04
9/24/2021 11:15:00 PM 10.6 51.08 0.046 7.2 7 10.05
9/24/2021 11:30:00 PM 10.56 51.008 0.046 7.19 6.9 10.06
9/24/2021 11:45:00 PM 10.53 50.954 0.047 7.17 6.83 10.07
9/25/2021 12:00:00 AM 10.49 50.882 0.046 7.19 7.24 10.08
9/25/2021 12:15:00 AM 10.45 50.81 0.046 7.19 6.88 10.09
9/25/2021 12:30:00 AM 10.41 50.738 0.046 7.21 6.99 10.1
9/25/2021 12:45:00 AM 10.38 50.684 0.046 7.2 7.36 10.1
9/25/2021 1:00:00 AM 10.34 50.612 0.046 7.2 6.94 10.11
9/25/2021 1:15:00 AM 10.31 50.558 0.046 7.19 7.58 10.11
9/25/2021 1:30:00 AM 10.28 50.504 0.046 7.19 6.85 10.12
9/25/2021 1:45:00 AM 10.27 50.486 0.047 7.2 6.87 10.13
9/25/2021 2:00:00 AM 10.25 50.45 0.046 7.2 7.6 10.14
9/25/2021 2:15:00 AM 10.24 50.432 0.046 7.19 7.23 10.14
9/25/2021 2:30:00 AM 10.22 50.396 0.046 7.19 6.34 10.14
9/25/2021 2:45:00 AM 10.21 50.378 0.046 7.19 6.62 10.15
9/25/2021 3:00:00 AM 10.2 50.36 0.047 7.17 6.6 10.16
9/25/2021 3:15:00 AM 10.18 50.324 0.046 7.19 6.94 10.16
9/25/2021 3:30:00 AM 10.17 50.306 0.046 7.2 6.56 10.16
9/25/2021 3:45:00 AM 10.15 50.27 0.046 7.2 7.22 10.16
9/25/2021 4:00:00 AM 10.13 50.234 0.046 7.19 5.73 10.17
9/25/2021 4:15:00 AM 10.11 50.198 0.046 7.19 7 10.17
9/25/2021 4:30:00 AM 10.09 50.162 0.046 7.19 6.63 10.18
9/25/2021 4:45:00 AM 10.07 50.126 0.046 7.19 6.43 10.18
9/25/2021 5:00:00 AM 10.05 50.09 0.046 7.19 6.51 10.19
9/25/2021 5:15:00 AM 10.03 50.054 0.046 7.19 6.64 10.19
9/25/2021 5:30:00 AM 10.01 50.018 0.046 7.19 6.73 10.2
9/25/2021 5:45:00 AM 9.98 49.964 0.046 7.2 6.77 10.21
9/25/2021 6:00:00 AM 9.96 49.928 0.046 7.2 6.74 10.21
9/25/2021 6:15:00 AM 9.93 49.874 0.046 7.2 6.26 10.22
9/25/2021 6:30:00 AM 9.91 49.838 0.046 7.18 6.07 10.22
9/25/2021 6:45:00 AM 9.89 49.802 0.046 7.18 6.15 10.23
9/25/2021 7:00:00 AM 9.87 49.766 0.046 7.19 6.07 10.24
9/25/2021 7:15:00 AM 9.86 49.748 0.046 7.19 5.68 10.24
9/25/2021 7:30:00 AM 9.84 49.712 0.046 7.19 6.4 10.25
9/25/2021 7:45:00 AM 9.83 49.694 0.046 7.2 6.18 10.27
9/25/2021 8:00:00 AM 9.82 49.676 0.046 7.19 5.91 10.29
9/25/2021 8:15:00 AM 9.81 49.658 0.046 7.2 5.9 10.3
9/25/2021 8:30:00 AM 9.81 49.658 0.046 7.18 5.74 10.33
9/25/2021 8:45:00 AM 9.81 49.658 0.046 7.2 6.36 10.35
9/25/2021 9:00:00 AM 9.81 49.658 0.046 7.21 5.64 10.36
9/25/2021 9:15:00 AM 9.82 49.676 0.046 7.21 5.88 10.38
9/25/2021 9:30:00 AM 9.85 49.73 0.046 7.21 5.31 10.38
9/25/2021 9:45:00 AM 9.87 49.766 0.046 7.23 5.75 10.38
9/25/2021 10:00:00 AM 9.91 49.838 0.046 7.23 5.86 10.38
9/25/2021 10:15:00 AM 9.97 49.946 0.046 7.25 5.62 10.37
9/25/2021 10:30:00 AM 10.04 50.072 0.046 7.25 5.44 10.37
9/25/2021 10:45:00 AM 10.12 50.216 0.046 7.26 5.19 10.36
9/25/2021 11:00:00 AM 10.22 50.396 0.046 7.28 5.66 10.34
9/25/2021 11:15:00 AM 10.33 50.594 0.046 7.29 4.99 10.32
9/25/2021 11:30:00 AM 10.44 50.792 0.046 7.29 5.29 10.29
9/25/2021 11:45:00 AM 10.56 51.008 0.046 7.31 4.96 10.26
9/25/2021 12:00:00 PM 10.69 51.242 0.046 7.32 4.97 10.23
9/25/2021 12:15:00 PM 10.81 51.458 0.046 7.33 5.05 10.22
9/25/2021 12:30:00 PM 10.94 51.692 0.046 7.31 5.99 10.19
9/25/2021 12:45:00 PM 11.05 51.89 0.046 7.34 5.55 10.15
9/25/2021 1:00:00 PM 11.14 52.052 0.046 7.33 5.5 10.13
9/25/2021 1:15:00 PM 11.24 52.232 0.046 7.35 5.93 10.12
9/25/2021 1:30:00 PM 11.32 52.376 0.046 7.34 5.02 10.1
9/25/2021 1:45:00 PM 11.43 52.574 0.046 7.34 5.88 10.08
9/25/2021 2:00:00 PM 11.53 52.754 0.046 7.36 5.81 10.06
9/25/2021 2:15:00 PM 11.61 52.898 0.046 7.37 5.47 10.04
9/25/2021 2:30:00 PM 11.68 53.024 0.046 7.35 5.06 10.02
9/25/2021 2:45:00 PM 11.71 53.078 0.046 7.36 5.36 10
9/25/2021 3:00:00 PM 11.74 53.132 0.046 7.35 5.23 9.99
9/25/2021 3:15:00 PM 11.79 53.222 0.046 7.36 5.11 9.98
9/25/2021 3:30:00 PM 11.8 53.24 0.046 7.35 5.05 9.97
9/25/2021 3:45:00 PM 11.78 53.204 0.046 7.35 5.55 9.96
9/25/2021 4:00:00 PM 11.77 53.186 0.046 7.36 6.4 9.95
9/25/2021 4:15:00 PM 11.78 53.204 0.046 7.33 5.96 9.95
9/25/2021 4:30:00 PM 11.77 53.186 0.046 7.35 5.8 9.94
9/25/2021 4:45:00 PM 11.72 53.096 0.046 7.33 6.61 9.93
9/25/2021 5:00:00 PM 11.69 53.042 0.046 7.31 5.89 9.93
9/25/2021 5:15:00 PM 11.67 53.006 0.046 7.31 5.73 9.92
9/25/2021 5:30:00 PM 11.63 52.934 0.046 7.32 6.81 9.92
9/25/2021 5:45:00 PM 11.61 52.898 0.046 7.32 5.34 9.92
9/25/2021 6:00:00 PM 11.6 52.88 0.046 7.31 5.96 9.93
9/25/2021 6:15:00 PM 11.55 52.79 0.046 7.29 5.81 9.91
9/25/2021 6:30:00 PM 11.5 52.7 0.046 7.29 5.28 9.9
9/25/2021 6:45:00 PM 11.46 52.628 0.046 7.28 5.03 9.89
9/25/2021 7:00:00 PM 11.4 52.52 0.046 7.27 5.37 9.87
9/25/2021 7:15:00 PM 11.36 52.448 0.046 7.25 6.2 9.87
9/25/2021 7:30:00 PM 11.32 52.376 0.046 7.25 5.64 9.86
9/25/2021 7:45:00 PM 11.29 52.322 0.046 7.24 6.11 9.86
9/25/2021 8:00:00 PM 11.26 52.268 0.046 7.23 6 9.86
9/25/2021 8:15:00 PM 11.24 52.232 0.046 7.24 5.67 9.87
9/25/2021 8:30:00 PM 11.21 52.178 0.046 7.22 5.58 9.88
9/25/2021 8:45:00 PM 11.18 52.124 0.046 7.23 5.49 9.88
9/25/2021 9:00:00 PM 11.15 52.07 0.046 7.21 6 9.89
9/25/2021 9:15:00 PM 11.12 52.016 0.046 7.21 5.79 9.89
9/25/2021 9:30:00 PM 11.1 51.98 0.046 7.2 6.49 9.9
9/25/2021 9:45:00 PM 11.08 51.944 0.046 7.2 6.06 9.9
9/25/2021 10:00:00 PM 11.05 51.89 0.046 7.21 6.35 9.9
9/25/2021 10:15:00 PM 11.04 51.872 0.046 7.21 5.41 9.91
9/25/2021 10:30:00 PM 11.03 51.854 0.046 7.22 5.93 9.92
9/25/2021 10:45:00 PM 11.01 51.818 0.046 7.22 5.65 9.92
9/25/2021 11:00:00 PM 11 51.8 0.046 7.24 5.91 9.93
9/25/2021 11:15:00 PM 10.98 51.764 0.046 7.21 7 9.94
9/25/2021 11:30:00 PM 10.96 51.728 0.046 7.24 5.66 9.93
9/25/2021 11:45:00 PM 10.94 51.692 0.046 7.23 6.3 9.94
9/26/2021 12:00:00 AM 10.91 51.638 0.046 7.23 5.47 9.94
9/26/2021 12:15:00 AM 10.89 51.602 0.046 7.23 6.06 9.95
9/26/2021 12:30:00 AM 10.86 51.548 0.046 7.23 5.67 9.97
9/26/2021 12:45:00 AM 10.82 51.476 0.046 7.22 5.66 9.97
9/26/2021 1:00:00 AM 10.78 51.404 0.046 7.21 5.22 9.97
9/26/2021 1:15:00 AM 10.75 51.35 0.046 7.22 5.27 9.99
9/26/2021 1:30:00 AM 10.71 51.278 0.046 7.21 6.25 9.99
9/26/2021 1:45:00 AM 10.67 51.206 0.046 7.21 5.06 10.01
9/26/2021 2:00:00 AM 10.62 51.116 0.046 7.2 5.89 10.01
9/26/2021 2:15:00 AM 10.58 51.044 0.046 7.2 5.76 10.02
9/26/2021 2:30:00 AM 10.54 50.972 0.046 7.21 5.81 10.03
9/26/2021 2:45:00 AM 10.5 50.9 0.046 7.19 5.8 10.04
9/26/2021 3:00:00 AM 10.46 50.828 0.046 7.2 5.49 10.05
9/26/2021 3:15:00 AM 10.42 50.756 0.046 7.19 5.88 10.06
9/26/2021 3:30:00 AM 10.38 50.684 0.046 7.19 5.47 10.07
9/26/2021 3:45:00 AM 10.34 50.612 0.046 7.2 5.62 10.08
9/26/2021 4:00:00 AM 10.29 50.522 0.046 7.18 5.72 10.09
9/26/2021 4:15:00 AM 10.25 50.45 0.046 7.19 6.15 10.1
9/26/2021 4:30:00 AM 10.22 50.396 0.046 7.19 5.03 10.11
9/26/2021 4:45:00 AM 10.18 50.324 0.046 7.19 5.87 10.12
9/26/2021 5:00:00 AM 10.15 50.27 0.046 7.2 6.25 10.13
9/26/2021 5:15:00 AM 10.12 50.216 0.046 7.19 5.2 10.14
9/26/2021 5:30:00 AM 10.1 50.18 0.046 7.2 5.96 10.14
9/26/2021 5:45:00 AM 10.08 50.144 0.046 7.18 5.36 10.15
9/26/2021 6:00:00 AM 10.06 50.108 0.046 7.19 6.01 10.16
9/26/2021 6:15:00 AM 10.03 50.054 0.046 7.18 5.23 10.16
9/26/2021 6:30:00 AM 10 50 0.046 7.2 5.13 10.17
9/26/2021 6:45:00 AM 9.98 49.964 0.046 7.19 5.29 10.17
9/26/2021 7:00:00 AM 9.95 49.91 0.046 7.19 5.33 10.18
9/26/2021 7:15:00 AM 9.93 49.874 0.046 7.19 5.19 10.19
9/26/2021 7:30:00 AM 9.91 49.838 0.046 7.2 5.1 10.21
9/26/2021 7:45:00 AM 9.9 49.82 0.046 7.19 5.23 10.22
9/26/2021 8:00:00 AM 9.88 49.784 0.046 7.19 5.03 10.24
9/26/2021 8:15:00 AM 9.87 49.766 0.046 7.21 5.46 10.26
9/26/2021 8:30:00 AM 9.87 49.766 0.046 7.22 5.08 10.27
9/26/2021 8:45:00 AM 9.89 49.802 0.046 7.2 5.15 10.28
9/26/2021 9:00:00 AM 9.91 49.838 0.046 7.22 5.25 10.29
9/26/2021 9:15:00 AM 9.94 49.892 0.046 7.23 5.57 10.3
9/26/2021 9:30:00 AM 9.98 49.964 0.046 7.25 4.73 10.31
9/26/2021 9:45:00 AM 10.03 50.054 0.045 7.25 4.73 10.31
9/26/2021 10:00:00 AM 10.08 50.144 0.046 7.27 6.04 10.31
9/26/2021 10:15:00 AM 10.15 50.27 0.046 7.26 4.69 10.31
9/26/2021 10:30:00 AM 10.22 50.396 0.046 7.28 4.67 10.3
9/26/2021 10:45:00 AM 10.3 50.54 0.045 7.29 5.21 10.29
9/26/2021 11:00:00 AM 10.38 50.684 0.045 7.27 4.59 10.29
9/26/2021 11:15:00 AM 10.47 50.846 0.045 7.31 5.08 10.28
9/26/2021 11:30:00 AM 10.56 51.008 0.045 7.32 4.49 10.26
9/26/2021 11:45:00 AM 10.64 51.152 0.045 7.31 5.06 10.24
9/26/2021 12:00:00 PM 10.71 51.278 0.045 7.31 4.74 10.22
9/26/2021 12:15:00 PM 10.78 51.404 0.045 7.32 4.41 10.21
9/26/2021 12:30:00 PM 10.86 51.548 0.045 7.35 4.54 10.2
9/26/2021 12:45:00 PM 10.94 51.692 0.045 7.34 5.11 10.17
9/26/2021 1:00:00 PM 11.04 51.872 0.045 7.35 5.34 10.16
9/26/2021 1:15:00 PM 11.18 52.124 0.045 7.35 4.89 10.14
9/26/2021 1:30:00 PM 11.3 52.34 0.045 7.37 5.19 10.11
9/26/2021 1:45:00 PM 11.41 52.538 0.045 7.38 4.44 10.08
9/26/2021 2:00:00 PM 11.49 52.682 0.045 7.38 5.08 10.05
9/26/2021 2:15:00 PM 11.53 52.754 0.045 7.37 5.14 10.03
9/26/2021 2:30:00 PM 11.56 52.808 0.045 7.37 5.88 10
9/26/2021 2:45:00 PM 11.57 52.826 0.045 7.35 5.89 9.99
9/26/2021 3:00:00 PM 11.62 52.916 0.045 7.35 6.08 9.99
9/26/2021 3:15:00 PM 11.63 52.934 0.045 7.35 5.14 9.97
9/26/2021 3:30:00 PM 11.62 52.916 0.045 7.33 5.34 9.96
9/26/2021 3:45:00 PM 11.63 52.934 0.045 7.34 4.43 9.97
9/26/2021 4:00:00 PM 11.65 52.97 0.045 7.34 5.26 9.97
9/26/2021 4:15:00 PM 11.66 52.988 0.045 7.35 4.85 9.97
9/26/2021 4:30:00 PM 11.68 53.024 0.045 7.36 4.86 9.97
9/26/2021 4:45:00 PM 11.69 53.042 0.045 7.35 5.18 9.96
9/26/2021 5:00:00 PM 11.64 52.952 0.045 7.34 4.78 9.95
9/26/2021 5:15:00 PM 11.6 52.88 0.045 7.33 5.24 9.94
9/26/2021 5:30:00 PM 11.56 52.808 0.045 7.32 5.44 9.94
9/26/2021 5:45:00 PM 11.53 52.754 0.045 7.31 5.25 9.93
9/26/2021 6:00:00 PM 11.5 52.7 0.045 7.3 5.34 9.93
9/26/2021 6:15:00 PM 11.43 52.574 0.045 7.3 4.96 9.91
9/26/2021 6:30:00 PM 11.39 52.502 0.045 7.3 4.99 9.91
9/26/2021 6:45:00 PM 11.35 52.43 0.045 7.29 5.01 9.9
9/26/2021 7:00:00 PM 11.3 52.34 0.046 7.27 4.85 9.9
9/26/2021 7:15:00 PM 11.24 52.232 0.045 7.24 5.32 9.89
9/26/2021 7:30:00 PM 11.18 52.124 0.046 7.23 5.16 9.89
9/26/2021 7:45:00 PM 11.12 52.016 0.046 7.23 5.15 9.91
9/26/2021 8:00:00 PM 11.05 51.89 0.046 7.24 5.11 9.91
9/26/2021 8:15:00 PM 10.99 51.782 0.046 7.24 5.39 9.91
9/26/2021 8:30:00 PM 10.92 51.656 0.046 7.22 5.37 9.94
9/26/2021 8:45:00 PM 10.87 51.566 0.046 7.23 4.92 9.95
9/26/2021 9:00:00 PM 10.82 51.476 0.046 7.2 5.73 9.96
9/26/2021 9:15:00 PM 10.76 51.368 0.046 7.22 5.93 9.98
9/26/2021 9:30:00 PM 10.72 51.296 0.046 7.22 4.87 9.99
9/26/2021 9:45:00 PM 10.68 51.224 0.046 7.21 5.15 9.99
9/26/2021 10:00:00 PM 10.64 51.152 0.046 7.22 5.19 10.01
9/26/2021 10:15:00 PM 10.62 51.116 0.046 7.23 4.7 10.02
9/26/2021 10:30:00 PM 10.58 51.044 0.046 7.21 6.71 10.03
9/26/2021 10:45:00 PM 10.54 50.972 0.046 7.22 5.54 10.04
9/26/2021 11:00:00 PM 10.51 50.918 0.046 7.21 5.56 10.05
9/26/2021 11:15:00 PM 10.49 50.882 0.046 7.2 4.98 10.05
9/26/2021 11:30:00 PM 10.46 50.828 0.046 7.21 5.25 10.06
9/26/2021 11:45:00 PM 10.43 50.774 0.046 7.21 4.87 10.06
9/27/2021 12:00:00 AM 10.4 50.72 0.046 7.18 4.72 10.07
9/27/2021 12:15:00 AM 10.37 50.666 0.046 7.21 5.5 10.07
9/27/2021 12:30:00 AM 10.35 50.63 0.046 7.2 5.35 10.08
9/27/2021 12:45:00 AM 10.34 50.612 0.046 7.21 5.52 10.09
9/27/2021 1:00:00 AM 10.32 50.576 0.046 7.21 5.63 10.09
9/27/2021 1:15:00 AM 10.31 50.558 0.046 7.2 5.28 10.1
9/27/2021 1:30:00 AM 10.28 50.504 0.046 7.2 5.77 10.1
9/27/2021 1:45:00 AM 10.26 50.468 0.046 7.21 4.73 10.1
9/27/2021 2:00:00 AM 10.24 50.432 0.046 7.2 5.08 10.11
9/27/2021 2:15:00 AM 10.21 50.378 0.046 7.19 5.3 10.11
9/27/2021 2:30:00 AM 10.19 50.342 0.046 7.19 4.56 10.12
9/27/2021 2:45:00 AM 10.18 50.324 0.046 7.18 5.43 10.12
9/27/2021 3:00:00 AM 10.17 50.306 0.046 7.2 4.69 10.13
9/27/2021 3:15:00 AM 10.16 50.288 0.046 7.18 5.6 10.13
9/27/2021 3:30:00 AM 10.16 50.288 0.046 7.19 5.55 10.13
9/27/2021 3:45:00 AM 10.16 50.288 0.046 7.18 5.13 10.13
9/27/2021 4:00:00 AM 10.17 50.306 0.046 7.19 4.3 10.13
9/27/2021 4:15:00 AM 10.17 50.306 0.046 7.18 4.86 10.13
9/27/2021 4:30:00 AM 10.18 50.324 0.046 7.2 5.34 10.13
9/27/2021 4:45:00 AM 10.19 50.342 0.046 7.19 4.78 10.13
9/27/2021 5:00:00 AM 10.19 50.342 0.046 7.2 4.75 10.13
9/27/2021 5:15:00 AM 10.2 50.36 0.046 7.19 5.1 10.13
9/27/2021 5:30:00 AM 10.21 50.378 0.046 7.19 4.72 10.12
9/27/2021 5:45:00 AM 10.21 50.378 0.046 7.19 5.28 10.13
9/27/2021 6:00:00 AM 10.22 50.396 0.046 7.17 4.51 10.13
9/27/2021 6:15:00 AM 10.21 50.378 0.046 7.19 4.7 10.12
9/27/2021 6:30:00 AM 10.2 50.36 0.046 7.19 5.16 10.13
9/27/2021 6:45:00 AM 10.19 50.342 0.046 7.2 4.58 10.13
9/27/2021 7:00:00 AM 10.18 50.324 0.046 7.2 4.9 10.13
9/27/2021 7:15:00 AM 10.17 50.306 0.046 7.2 4.48 10.14
9/27/2021 7:30:00 AM 10.17 50.306 0.046 7.21 4.46 10.14
9/27/2021 7:45:00 AM 10.16 50.288 0.046 7.19 5.46 10.16
9/27/2021 8:00:00 AM 10.16 50.288 0.046 7.21 4.65 10.18
9/27/2021 8:15:00 AM 10.16 50.288 0.046 7.22 4.54 10.19
9/27/2021 8:30:00 AM 10.17 50.306 0.046 7.21 5.07 10.21
9/27/2021 8:45:00 AM 10.2 50.36 0.046 7.23 4.75 10.22
9/27/2021 9:00:00 AM 10.25 50.45 0.046 7.24 4.31 10.24
9/27/2021 9:15:00 AM 10.3 50.54 0.046 7.27 4.56 10.24
9/27/2021 9:30:00 AM 10.34 50.612 0.046 7.26 4.44 10.25
9/27/2021 9:45:00 AM 10.39 50.702 0.045 7.29 4.61 10.25
9/27/2021 10:00:00 AM 10.47 50.846 0.046 7.28 3.99 10.24
9/27/2021 10:15:00 AM 10.56 51.008 0.045 7.31 4.03 10.24
9/27/2021 10:30:00 AM 10.64 51.152 0.045 7.31 4.17 10.22
9/27/2021 10:45:00 AM 10.73 51.314 0.045 7.34 4.24 10.21
9/27/2021 11:00:00 AM 10.83 51.494 0.045 7.35 4.15 10.2
9/27/2021 11:15:00 AM 10.94 51.692 0.045 7.34 3.99 10.18
9/27/2021 11:30:00 AM 11.05 51.89 0.045 7.36 3.99 10.18
9/27/2021 11:45:00 AM 11.17 52.106 0.045 7.38 5.03 10.15
9/27/2021 12:00:00 PM 11.27 52.286 0.045 7.38 4.32 10.13
9/27/2021 12:15:00 PM 11.39 52.502 0.045 7.39 4.47 10.11
9/27/2021 12:30:00 PM 11.52 52.736 0.045 7.39 4.31 10.09
9/27/2021 12:45:00 PM 11.64 52.952 0.045 7.4 4.27 10.06
9/27/2021 1:00:00 PM 11.76 53.168 0.045 7.42 4.03 10.04
9/27/2021 1:15:00 PM 11.87 53.366 0.045 7.42 4.49 10.01
9/27/2021 1:30:00 PM 11.98 53.564 0.045 7.43 5.22 9.98
9/27/2021 1:45:00 PM 12.1 53.78 0.045 7.43 5.21 9.96
9/27/2021 2:00:00 PM 12.2 53.96 0.045 7.42 4.46 9.94
9/27/2021 2:15:00 PM 12.29 54.122 0.045 7.45 4.76 9.91
9/27/2021 2:30:00 PM 12.36 54.248 0.045 7.46 4.5 9.89
9/27/2021 2:45:00 PM 12.45 54.41 0.045 7.45 4.48 9.86
9/27/2021 3:00:00 PM 12.54 54.572 0.045 7.45 4.13 9.84
9/27/2021 3:15:00 PM 12.6 54.68 0.045 7.45 4.69 9.82
9/27/2021 3:30:00 PM 12.64 54.752 0.045 7.45 4.25 9.81
9/27/2021 3:45:00 PM 12.7 54.86 0.045 7.46 4.1 9.79
9/27/2021 4:00:00 PM 12.77 54.986 0.045 7.45 4.35 9.77
9/27/2021 4:15:00 PM 12.82 55.076 0.045 7.45 4.61 9.75
9/27/2021 4:30:00 PM 12.83 55.094 0.045 7.44 4.46 9.74
9/27/2021 4:45:00 PM 12.81 55.058 0.045 7.43 4.21 9.73
9/27/2021 5:00:00 PM 12.79 55.022 0.045 7.42 4.54 9.72
9/27/2021 5:15:00 PM 12.78 55.004 0.045 7.42 4.46 9.71
9/27/2021 5:30:00 PM 12.76 54.968 0.045 7.41 4.61 9.7
9/27/2021 5:45:00 PM 12.73 54.914 0.045 7.41 4.15 9.69
9/27/2021 6:00:00 PM 12.69 54.842 0.045 7.4 4.08 9.68
9/27/2021 6:15:00 PM 12.64 54.752 0.046 7.39 4.22 9.66
9/27/2021 6:30:00 PM 12.58 54.644 0.046 7.36 4.79 9.64
9/27/2021 6:45:00 PM 12.51 54.518 0.046 7.36 4.63 9.62
9/27/2021 7:00:00 PM 12.44 54.392 0.046 7.34 4.98 9.61
9/27/2021 7:15:00 PM 12.37 54.266 0.046 7.31 4.79 9.6
9/27/2021 7:30:00 PM 12.3 54.14 0.046 7.29 4.51 9.6
9/27/2021 7:45:00 PM 12.23 54.014 0.046 7.28 5.01 9.6
9/27/2021 8:00:00 PM 12.16 53.888 0.046 7.26 5.27 9.61
9/27/2021 8:15:00 PM 12.1 53.78 0.046 7.26 4.88 9.62
9/27/2021 8:30:00 PM 12.03 53.654 0.046 7.25 4.97 9.63
9/27/2021 8:45:00 PM 11.97 53.546 0.046 7.24 4.62 9.65
9/27/2021 9:00:00 PM 11.91 53.438 0.046 7.23 4.87 9.66
9/27/2021 9:15:00 PM 11.84 53.312 0.046 7.22 4.7 9.68
9/27/2021 9:30:00 PM 11.78 53.204 0.046 7.21 4.71 9.69
9/27/2021 9:45:00 PM 11.72 53.096 0.046 7.22 4.79 9.71
9/27/2021 10:00:00 PM 11.67 53.006 0.046 7.23 5.1 9.71
9/27/2021 10:15:00 PM 11.61 52.898 0.046 7.23 5.88 9.73
9/27/2021 10:30:00 PM 11.56 52.808 0.046 7.22 5.22 9.74
9/27/2021 10:45:00 PM 11.51 52.718 0.046 7.22 4.95 9.75
9/27/2021 11:00:00 PM 11.47 52.646 0.046 7.23 4.35 9.76
9/27/2021 11:15:00 PM 11.43 52.574 0.046 7.22 4.27 9.77
9/27/2021 11:30:00 PM 11.38 52.484 0.046 7.22 5.29 9.78
9/27/2021 11:45:00 PM 11.34 52.412 0.046 7.22 4.66 9.79
9/28/2021 12:00:00 AM 11.31 52.358 0.046 7.22 4.25 9.8
9/28/2021 12:15:00 AM 11.27 52.286 0.046 7.22 4.92 9.81
9/28/2021 12:30:00 AM 11.24 52.232 0.046 7.2 5.03 9.81
9/28/2021 12:45:00 AM 11.21 52.178 0.046 7.21 4.91 9.82
9/28/2021 1:00:00 AM 11.18 52.124 0.046 7.22 3.98 9.83
9/28/2021 1:15:00 AM 11.15 52.07 0.046 7.2 4.16 9.83
9/28/2021 1:30:00 AM 11.13 52.034 0.046 7.22 4.49 9.84
9/28/2021 1:45:00 AM 11.12 52.016 0.046 7.22 4.61 9.85
9/28/2021 2:00:00 AM 11.1 51.98 0.046 7.21 4.11 9.85
9/28/2021 2:15:00 AM 11.09 51.962 0.046 7.2 4.33 9.85
9/28/2021 2:30:00 AM 11.08 51.944 0.046 7.21 4.77 9.85
9/28/2021 2:45:00 AM 11.07 51.926 0.046 7.21 4.78 9.85
9/28/2021 3:00:00 AM 11.06 51.908 0.046 7.21 4.29 9.86
9/28/2021 3:15:00 AM 11.06 51.908 0.046 7.2 4.52 9.86
9/28/2021 3:30:00 AM 11.05 51.89 0.046 7.2 4.75 9.85
9/28/2021 3:45:00 AM 11.05 51.89 0.046 7.2 4.11 9.87
9/28/2021 4:00:00 AM 11.04 51.872 0.046 7.2 4.47 9.87
9/28/2021 4:15:00 AM 11.03 51.854 0.046 7.19 4.61 9.86
9/28/2021 4:30:00 AM 11.02 51.836 0.046 7.19 4.01 9.86
9/28/2021 4:45:00 AM 11.01 51.818 0.046 7.19 4.39 9.87
9/28/2021 5:00:00 AM 11 51.8 0.046 7.19 4.04 9.87
9/28/2021 5:15:00 AM 11 51.8 0.046 7.19 4.47 9.86
9/28/2021 5:30:00 AM 10.99 51.782 0.046 7.18 4.12 9.87
9/28/2021 5:45:00 AM 10.99 51.782 0.046 7.19 5.19 9.86
9/28/2021 6:00:00 AM 10.98 51.764 0.046 7.19 4.69 9.86
9/28/2021 6:15:00 AM 10.98 51.764 0.046 7.19 5.38 9.86
9/28/2021 6:30:00 AM 10.97 51.746 0.046 7.18 4.41 9.87
9/28/2021 6:45:00 AM 10.97 51.746 0.046 7.19 4.22 9.88
9/28/2021 7:00:00 AM 10.97 51.746 0.046 7.18 3.94 9.88
9/28/2021 7:15:00 AM 10.98 51.764 0.046 7.2 4.07 9.88
9/28/2021 7:30:00 AM 10.99 51.782 0.046 7.19 3.97 9.88
9/28/2021 7:45:00 AM 11 51.8 0.046 7.2 3.94 9.89
9/28/2021 8:00:00 AM 11 51.8 0.046 7.2 4.24 9.89
9/28/2021 8:15:00 AM 11.01 51.818 0.046 7.2 3.97 9.9
9/28/2021 8:30:00 AM 11.02 51.836 0.046 7.2 4.18 9.9
9/28/2021 8:45:00 AM 11.03 51.854 0.046 7.19 4.2 9.88
9/28/2021 9:00:00 AM 11.07 51.926 0.046 7.2 4.82 9.89
9/28/2021 9:15:00 AM 11.08 51.944 0.046 7.2 4.12 9.9
9/28/2021 9:30:00 AM 11.12 52.016 0.046 7.21 4.13 9.93
9/28/2021 9:45:00 AM 11.18 52.124 0.046 7.23 4.24 9.98
9/28/2021 10:00:00 AM 11.24 52.232 0.046 7.25 4.07 9.99
9/28/2021 10:15:00 AM 11.26 52.268 0.046 7.25 4.13 9.95
9/28/2021 10:30:00 AM 11.3 52.34 0.046 7.26 3.96 10
9/28/2021 10:45:00 AM 11.33 52.394 0.046 7.28 3.67 9.96
9/28/2021 11:00:00 AM 11.37 52.466 0.046 7.28 4.07 9.98
9/28/2021 11:15:00 AM 11.41 52.538 0.046 7.29 3.83 9.99
9/28/2021 11:30:00 AM 11.46 52.628 0.046 7.3 3.81 10
9/28/2021 11:45:00 AM 11.47 52.646 0.046 7.3 4.44 9.95
9/28/2021 12:00:00 PM 11.48 52.664 0.046 7.3 3.75 9.94
9/28/2021 12:15:00 PM 11.51 52.718 0.046 7.31 3.46 9.95
9/28/2021 12:30:00 PM 11.55 52.79 0.046 7.33 3.68 9.96
9/28/2021 12:45:00 PM 11.59 52.862 0.046 7.33 3.79 9.97
9/28/2021 1:00:00 PM 11.65 52.97 0.046 7.36 3.49 9.99
9/28/2021 1:15:00 PM 11.67 53.006 0.046 7.35 4.51 9.97
9/28/2021 1:30:00 PM 11.68 53.024 0.046 7.35 3.98 9.96
9/28/2021 1:45:00 PM 11.71 53.078 0.046 7.36 3.66 9.96
9/28/2021 2:00:00 PM 11.74 53.132 0.046 7.36 3.89 9.96
9/28/2021 2:15:00 PM 11.8 53.24 0.046 7.38 3.67 9.97
9/28/2021 2:30:00 PM 11.85 53.33 0.046 7.38 3.8 9.97
9/28/2021 2:45:00 PM 11.89 53.402 0.046 7.4 3.61 9.97
9/28/2021 3:00:00 PM 11.94 53.492 0.046 7.4 3.85 9.97
9/28/2021 3:15:00 PM 12.05 53.69 0.046 7.43 3.88 9.97
9/28/2021 3:30:00 PM 12.15 53.87 0.046 7.44 3.89 9.95
9/28/2021 3:45:00 PM 12.18 53.924 0.046 7.42 3.67 9.94
9/28/2021 4:00:00 PM 12.16 53.888 0.046 7.41 3.99 9.91
9/28/2021 4:15:00 PM 12.15 53.87 0.046 7.41 3.77 9.89
9/28/2021 4:30:00 PM 12.15 53.87 0.046 7.4 4.05 9.88
9/28/2021 4:45:00 PM 12.14 53.852 0.046 7.4 4.1 9.86
9/28/2021 5:00:00 PM 12.17 53.906 0.046 7.4 3.91 9.86
9/28/2021 5:15:00 PM 12.17 53.906 0.046 7.4 4.17 9.85
9/28/2021 5:30:00 PM 12.14 53.852 0.046 7.38 4.65 9.85
9/28/2021 5:45:00 PM 12.08 53.744 0.046 7.37 3.79 9.83
9/28/2021 6:00:00 PM 12.01 53.618 0.046 7.36 3.75 9.82
9/28/2021 6:15:00 PM 11.92 53.456 0.046 7.35 4.1 9.81
9/28/2021 6:30:00 PM 11.83 53.294 0.046 7.33 4.05 9.8
9/28/2021 6:45:00 PM 11.77 53.186 0.046 7.32 4.11 9.79
9/28/2021 7:00:00 PM 11.71 53.078 0.046 7.31 4.25 9.78
9/28/2021 7:15:00 PM 11.66 52.988 0.046 7.3 4.28 9.78
9/28/2021 7:30:00 PM 11.61 52.898 0.046 7.29 4.08 9.77
9/28/2021 7:45:00 PM 11.56 52.808 0.046 7.28 3.94 9.78
9/28/2021 8:00:00 PM 11.51 52.718 0.046 7.27 4.26 9.78
9/28/2021 8:15:00 PM 11.46 52.628 0.047 7.27 4.3 9.79
9/28/2021 8:30:00 PM 11.4 52.52 0.047 7.26 4.35 9.81
9/28/2021 8:45:00 PM 11.34 52.412 0.047 7.26 4.08 9.82
9/28/2021 9:00:00 PM 11.28 52.304 0.047 7.26 4.7 9.84
9/28/2021 9:15:00 PM 11.22 52.196 0.047 7.26 4.11 9.85
9/28/2021 9:30:00 PM 11.16 52.088 0.047 7.26 3.95 9.86
9/28/2021 9:45:00 PM 11.1 51.98 0.047 7.24 4.04 9.88
9/28/2021 10:00:00 PM 11.03 51.854 0.047 7.25 4.5 9.91
9/28/2021 10:15:00 PM 10.97 51.746 0.047 7.24 4.21 9.91
9/28/2021 10:30:00 PM 10.91 51.638 0.047 7.24 4.38 9.94
9/28/2021 10:45:00 PM 10.85 51.53 0.046 7.23 3.83 9.95
9/28/2021 11:00:00 PM 10.79 51.422 0.047 7.24 4.16 9.97
9/28/2021 11:15:00 PM 10.73 51.314 0.047 7.24 4.08 9.98
9/28/2021 11:30:00 PM 10.68 51.224 0.047 7.24 4.12 9.99
9/28/2021 11:45:00 PM 10.63 51.134 0.047 7.23 5.54 10
9/29/2021 12:00:00 AM 10.57 51.026 0.047 7.23 4.17 10.02
9/29/2021 12:15:00 AM 10.53 50.954 0.047 7.23 4.12 10.03
9/29/2021 12:30:00 AM 10.49 50.882 0.047 7.23 3.88 10.04
9/29/2021 12:45:00 AM 10.45 50.81 0.047 7.24 4.08 10.06
9/29/2021 1:00:00 AM 10.41 50.738 0.047 7.23 4.03 10.06
9/29/2021 1:15:00 AM 10.38 50.684 0.047 7.24 3.93 10.08
9/29/2021 1:30:00 AM 10.34 50.612 0.047 7.23 4.17 10.09
9/29/2021 1:45:00 AM 10.3 50.54 0.047 7.23 4.13 10.09
9/29/2021 2:00:00 AM 10.26 50.468 0.047 7.23 3.85 10.1
9/29/2021 2:15:00 AM 10.21 50.378 0.047 7.22 4.24 10.11
9/29/2021 2:30:00 AM 10.16 50.288 0.047 7.22 4.1 10.12
9/29/2021 2:45:00 AM 10.11 50.198 0.047 7.22 4.71 10.13
9/29/2021 3:00:00 AM 10.06 50.108 0.047 7.21 3.82 10.15
9/29/2021 3:15:00 AM 10.01 50.018 0.047 7.21 3.84 10.16
9/29/2021 3:30:00 AM 9.96 49.928 0.046 7.21 3.79 10.17
9/29/2021 3:45:00 AM 9.91 49.838 0.046 7.2 4.16 10.18
9/29/2021 4:00:00 AM 9.86 49.748 0.046 7.21 4.08 10.2
9/29/2021 4:15:00 AM 9.82 49.676 0.046 7.2 3.8 10.2
9/29/2021 4:30:00 AM 9.77 49.586 0.046 7.21 3.95 10.22
9/29/2021 4:45:00 AM 9.72 49.496 0.046 7.21 3.87 10.23
9/29/2021 5:00:00 AM 9.67 49.406 0.046 7.2 4.42 10.24
9/29/2021 5:15:00 AM 9.63 49.334 0.047 7.2 3.75 10.26
9/29/2021 5:30:00 AM 9.58 49.244 0.046 7.2 3.78 10.27
9/29/2021 5:45:00 AM 9.54 49.172 0.046 7.2 4.08 10.28
9/29/2021 6:00:00 AM 9.49 49.082 0.046 7.2 3.72 10.3
9/29/2021 6:15:00 AM 9.45 49.01 0.046 7.19 4.09 10.32
9/29/2021 6:30:00 AM 9.41 48.938 0.046 7.19 3.75 10.33
9/29/2021 6:45:00 AM 9.36 48.848 0.047 7.19 3.83 10.34
9/29/2021 7:00:00 AM 9.32 48.776 0.046 7.19 3.75 10.36
9/29/2021 7:15:00 AM 9.28 48.704 0.046 7.19 3.55 10.37
9/29/2021 7:30:00 AM 9.24 48.632 0.047 7.19 3.98 10.39
9/29/2021 7:45:00 AM 9.21 48.578 0.047 7.2 3.47 10.42
9/29/2021 8:00:00 AM 9.19 48.542 0.046 7.21 3.7 10.44
9/29/2021 8:15:00 AM 9.17 48.506 0.046 7.21 3.87 10.48
9/29/2021 8:30:00 AM 9.17 48.506 0.046 7.22 3.8 10.5
9/29/2021 8:45:00 AM 9.18 48.524 0.046 7.24 3.53 10.53
9/29/2021 9:00:00 AM 9.2 48.56 0.046 7.25 3.61 10.54
9/29/2021 9:15:00 AM 9.24 48.632 0.046 7.26 3.52 10.56
9/29/2021 9:30:00 AM 9.28 48.704 0.046 7.26 3.89 10.56
9/29/2021 9:45:00 AM 9.34 48.812 0.046 7.28 3.43 10.57
9/29/2021 10:00:00 AM 9.41 48.938 0.046 7.29 3.59 10.57
9/29/2021 10:15:00 AM 9.48 49.064 0.046 7.3 3.54 10.57
9/29/2021 10:30:00 AM 9.58 49.244 0.046 7.31 3.68 10.57
9/29/2021 10:45:00 AM 9.68 49.424 0.046 7.32 3.27 10.56
9/29/2021 11:00:00 AM 9.79 49.622 0.046 7.34 3.43 10.54
9/29/2021 11:15:00 AM 9.93 49.874 0.046 7.35 3.26 10.53
9/29/2021 11:30:00 AM 10.04 50.072 0.046 7.35 3.36 10.5
9/29/2021 11:45:00 AM 10.17 50.306 0.046 7.37 4.16 10.48
9/29/2021 12:00:00 PM 10.29 50.522 0.046 7.37 3.18 10.46
9/29/2021 12:15:00 PM 10.43 50.774 0.046 7.39 3.22 10.43
9/29/2021 12:30:00 PM 10.56 51.008 0.046 7.39 3.35 10.41
9/29/2021 12:45:00 PM 10.69 51.242 0.046 7.4 3.27 10.38
9/29/2021 1:00:00 PM 10.81 51.458 0.046 7.41 3.25 10.36
9/29/2021 1:15:00 PM 10.9 51.62 0.046 7.41 3.13 10.33
9/29/2021 1:30:00 PM 11.03 51.854 0.046 7.42 3.16 10.31
9/29/2021 1:45:00 PM 11.11 51.998 0.046 7.41 3.55 10.29
9/29/2021 2:00:00 PM 11.2 52.16 0.046 7.43 3.35 10.26
9/29/2021 2:15:00 PM 11.33 52.394 0.046 7.44 3.42 10.24
9/29/2021 2:30:00 PM 11.42 52.556 0.046 7.44 3.41 10.21
9/29/2021 2:45:00 PM 11.55 52.79 0.046 7.45 3.48 10.19
9/29/2021 3:00:00 PM 11.57 52.826 0.046 7.44 4.13 10.15
9/29/2021 3:15:00 PM 11.69 53.042 0.046 7.46 3.32 10.15
9/29/2021 3:30:00 PM 11.74 53.132 0.046 7.45 3.23 10.1
9/29/2021 3:45:00 PM 11.79 53.222 0.046 7.45 3.33 10.1
9/29/2021 4:00:00 PM 11.78 53.204 0.046 7.43 3.76 10.07
9/29/2021 4:15:00 PM 11.77 53.186 0.046 7.43 4.04 10.07
9/29/2021 4:30:00 PM 11.77 53.186 0.046 7.43 3.61 10.06
9/29/2021 4:45:00 PM 11.75 53.15 0.046 7.41 3.54 10.05
9/29/2021 5:00:00 PM 11.72 53.096 0.046 7.41 3.4 10.05
9/29/2021 5:15:00 PM 11.62 52.916 0.046 7.39 3.67 10.02
9/29/2021 5:30:00 PM 11.53 52.754 0.046 7.38 3.37 10.02
9/29/2021 5:45:00 PM 11.5 52.7 0.046 7.37 3.37 10.01
9/29/2021 6:00:00 PM 11.48 52.664 0.046 7.38 3.13 9.99
9/29/2021 6:15:00 PM 11.43 52.574 0.046 7.36 3.58 9.97
9/29/2021 6:30:00 PM 11.37 52.466 0.047 7.34 3.89 9.95
9/29/2021 6:45:00 PM 11.33 52.394 0.047 7.33 4.03 9.94
9/29/2021 7:00:00 PM 11.28 52.304 0.047 7.32 3.75 9.93
9/29/2021 7:15:00 PM 11.22 52.196 0.047 7.31 3.49 9.91
9/29/2021 7:30:00 PM 11.16 52.088 0.047 7.3 3.36 9.92
9/29/2021 7:45:00 PM 11.1 51.98 0.047 7.29 4.28 9.93
9/29/2021 8:00:00 PM 11.03 51.854 0.047 7.28 3.58 9.94
9/29/2021 8:15:00 PM 10.97 51.746 0.047 7.28 3.68 9.95
9/29/2021 8:30:00 PM 10.9 51.62 0.047 7.27 4.04 9.96
9/29/2021 8:45:00 PM 10.83 51.494 0.047 7.27 3.69 9.98
9/29/2021 9:00:00 PM 10.76 51.368 0.047 7.25 3.7 10
9/29/2021 9:15:00 PM 10.7 51.26 0.047 7.25 4.11 10.01
9/29/2021 9:30:00 PM 10.63 51.134 0.047 7.25 3.68 10.02
9/29/2021 9:45:00 PM 10.57 51.026 0.047 7.25 3.89 10.04
9/29/2021 10:00:00 PM 10.51 50.918 0.047 7.25 3.77 10.06
9/29/2021 10:15:00 PM 10.44 50.792 0.047 7.25 3.45 10.07
9/29/2021 10:30:00 PM 10.38 50.684 0.047 7.25 3.42 10.09
9/29/2021 10:45:00 PM 10.34 50.612 0.047 7.24 3.34 10.1
9/29/2021 11:00:00 PM 10.3 50.54 0.047 7.25 3.38 10.11
9/29/2021 11:15:00 PM 10.25 50.45 0.047 7.25 3.58 10.12
9/29/2021 11:30:00 PM 10.21 50.378 0.047 7.24 3.34 10.14
9/29/2021 11:45:00 PM 10.18 50.324 0.047 7.24 3.61 10.16
9/30/2021 12:00:00 AM 10.14 50.252 0.047 7.23 3.64 10.16
9/30/2021 12:15:00 AM 10.12 50.216 0.047 7.24 3.74 10.17
9/30/2021 12:30:00 AM 10.09 50.162 0.047 7.24 3.42 10.18
9/30/2021 12:45:00 AM 10.07 50.126 0.047 7.24 3.34 10.19
9/30/2021 1:00:00 AM 10.05 50.09 0.047 7.24 3.57 10.19
9/30/2021 1:15:00 AM 10.03 50.054 0.047 7.24 3.32 10.2
9/30/2021 1:30:00 AM 10.01 50.018 0.047 7.24 3.06 10.2
9/30/2021 1:45:00 AM 9.98 49.964 0.047 7.24 3.36 10.21
9/30/2021 2:00:00 AM 9.94 49.892 0.047 7.23 3.35 10.22
9/30/2021 2:15:00 AM 9.89 49.802 0.047 7.23 3.32 10.23
9/30/2021 2:30:00 AM 9.84 49.712 0.047 7.23 3.77 10.24
9/30/2021 2:45:00 AM 9.8 49.64 0.047 7.22 3.31 10.24
9/30/2021 3:00:00 AM 9.76 49.568 0.047 7.22 3.38 10.26
9/30/2021 3:15:00 AM 9.71 49.478 0.047 7.22 3.7 10.27
9/30/2021 3:30:00 AM 9.67 49.406 0.047 7.2 3.23 10.28
9/30/2021 3:45:00 AM 9.63 49.334 0.047 7.21 3.32 10.29
9/30/2021 4:00:00 AM 9.58 49.244 0.047 7.2 3.23 10.3
9/30/2021 4:15:00 AM 9.54 49.172 0.047 7.21 3.59 10.31
9/30/2021 4:30:00 AM 9.5 49.1 0.047 7.2 3.18 10.32
9/30/2021 4:45:00 AM 9.46 49.028 0.047 7.2 3.22 10.33
9/30/2021 5:00:00 AM 9.42 48.956 0.047 7.2 3.49 10.35
9/30/2021 5:15:00 AM 9.38 48.884 0.047 7.2 3.19 10.36
9/30/2021 5:30:00 AM 9.35 48.83 0.047 7.2 3.23 10.37
9/30/2021 5:45:00 AM 9.33 48.794 0.047 7.2 3.3 10.38
9/30/2021 6:00:00 AM 9.31 48.758 0.047 7.2 3.43 10.38
9/30/2021 6:15:00 AM 9.29 48.722 0.047 7.2 3.16 10.39
9/30/2021 6:30:00 AM 9.29 48.722 0.047 7.21 3.45 10.4
9/30/2021 6:45:00 AM 9.28 48.704 0.047 7.2 3.28 10.4
9/30/2021 7:00:00 AM 9.28 48.704 0.047 7.21 3.25 10.4
9/30/2021 7:15:00 AM 9.29 48.722 0.047 7.21 3.23 10.41
9/30/2021 7:30:00 AM 9.3 48.74 0.047 7.22 3.34 10.41
9/30/2021 7:45:00 AM 9.31 48.758 0.047 7.22 3.25 10.43
9/30/2021 8:00:00 AM 9.32 48.776 0.047 7.23 3.19 10.45
9/30/2021 8:15:00 AM 9.32 48.776 0.047 7.24 3.48 10.48
9/30/2021 8:30:00 AM 9.33 48.794 0.047 7.24 3.49 10.51
9/30/2021 8:45:00 AM 9.37 48.866 0.047 7.27 3.1 10.56
9/30/2021 9:00:00 AM 9.4 48.92 0.047 7.28 3.22 10.54
9/30/2021 9:15:00 AM 9.45 49.01 0.047 7.28 3.08 10.55
9/30/2021 9:30:00 AM 9.49 49.082 0.047 7.29 3.01 10.58
9/30/2021 9:45:00 AM 9.55 49.19 0.047 7.31 3.07 10.6
9/30/2021 10:00:00 AM 9.6 49.28 0.047 7.32 3.29 10.6
9/30/2021 10